<?xml version="1.0" encoding="UTF-8" standalone="no" ?>
<gpx xmlns="http://www.topografix.com/GPX/1/1" xmlns:xsi="http://www.w3.org/2001/XMLSchema-instance" xsi:schemaLocation="http://www.topografix.com/GPX/1/1 http://www.topografix.com/GPX/1/1/gpx.xsd" version="1.1" creator="VisuGPX - https://www.visugpx.com">
  <metadata>
    <name>VTT Montbazin &quot;Spécial Varappe&quot;</name>
    <desc><![CDATA[Montbazin sans express, fini sur le Golet etytuytytuytytuytuytuytuytuytuytuytkytl]]></desc>
  </metadata>
  <wpt lat="45.57075" lon="5.91165">
    <ele>289</ele>
    <name><![CDATA[WPT000]]></name>
    <desc><![CDATA[]]></desc>
    <cmt><![CDATA[]]></cmt>
  </wpt>
  <wpt lat="45.49913" lon="6.05163">
    <ele>306</ele>
    <name><![CDATA[WPT002]]></name>
    <desc><![CDATA[]]></desc>
    <cmt><![CDATA[]]></cmt>
  </wpt>
  <trk>
    <name><![CDATA[VTT Montbazin "Spécial Varappe"_1]]></name>
    <trkseg>
      <trkpt lat="45.57075" lon="5.91165">
        <ele>289</ele>
        <time>2009-06-03T12:02:01Z</time>
      </trkpt>
      <trkpt lat="45.57069" lon="5.91153">
        <ele>289</ele>
        <time>2009-06-03T12:02:53Z</time>
      </trkpt>
      <trkpt lat="45.5706" lon="5.91145">
        <ele>289</ele>
        <time>2009-06-03T12:03:00Z</time>
      </trkpt>
      <trkpt lat="45.57069" lon="5.91144">
        <ele>303</ele>
        <time>2009-06-03T12:03:13Z</time>
      </trkpt>
      <trkpt lat="45.57077" lon="5.91156">
        <ele>303</ele>
        <time>2009-06-03T12:03:17Z</time>
      </trkpt>
      <trkpt lat="45.57078" lon="5.91171">
        <ele>303</ele>
        <time>2009-06-03T12:03:20Z</time>
      </trkpt>
      <trkpt lat="45.57073" lon="5.91156">
        <ele>310</ele>
        <time>2009-06-03T12:03:27Z</time>
      </trkpt>
      <trkpt lat="45.57072" lon="5.91142">
        <ele>310</ele>
        <time>2009-06-03T12:03:31Z</time>
      </trkpt>
      <trkpt lat="45.57079" lon="5.91155">
        <ele>310</ele>
        <time>2009-06-03T12:03:37Z</time>
      </trkpt>
      <trkpt lat="45.57079" lon="5.91129">
        <ele>310</ele>
        <time>2009-06-03T12:03:45Z</time>
      </trkpt>
      <trkpt lat="45.57069" lon="5.91131">
        <ele>300</ele>
        <time>2009-06-03T12:03:57Z</time>
      </trkpt>
      <trkpt lat="45.57041" lon="5.91146">
        <ele>300</ele>
        <time>2009-06-03T12:04:00Z</time>
      </trkpt>
      <trkpt lat="45.57024" lon="5.9117">
        <ele>292</ele>
        <time>2009-06-03T12:04:04Z</time>
      </trkpt>
      <trkpt lat="45.57013" lon="5.91191">
        <ele>286</ele>
        <time>2009-06-03T12:04:06Z</time>
      </trkpt>
      <trkpt lat="45.5701" lon="5.91233">
        <ele>303</ele>
        <time>2009-06-03T12:04:07Z</time>
      </trkpt>
      <trkpt lat="45.57011" lon="5.91252">
        <ele>303</ele>
        <time>2009-06-03T12:04:09Z</time>
      </trkpt>
      <trkpt lat="45.57003" lon="5.91273">
        <ele>315</ele>
        <time>2009-06-03T12:04:13Z</time>
      </trkpt>
      <trkpt lat="45.56984" lon="5.91286">
        <ele>315</ele>
        <time>2009-06-03T12:04:15Z</time>
      </trkpt>
      <trkpt lat="45.56972" lon="5.91299">
        <ele>321</ele>
        <time>2009-06-03T12:04:17Z</time>
      </trkpt>
      <trkpt lat="45.56963" lon="5.91311">
        <ele>321</ele>
        <time>2009-06-03T12:04:19Z</time>
      </trkpt>
      <trkpt lat="45.56964" lon="5.91326">
        <ele>313</ele>
        <time>2009-06-03T12:04:22Z</time>
      </trkpt>
      <trkpt lat="45.56966" lon="5.91341">
        <ele>313</ele>
        <time>2009-06-03T12:04:25Z</time>
      </trkpt>
      <trkpt lat="45.56972" lon="5.91354">
        <ele>313</ele>
        <time>2009-06-03T12:04:27Z</time>
      </trkpt>
      <trkpt lat="45.56982" lon="5.91377">
        <ele>307</ele>
        <time>2009-06-03T12:04:31Z</time>
      </trkpt>
      <trkpt lat="45.57005" lon="5.9141">
        <ele>307</ele>
        <time>2009-06-03T12:04:37Z</time>
      </trkpt>
      <trkpt lat="45.57009" lon="5.9143">
        <ele>307</ele>
        <time>2009-06-03T12:04:39Z</time>
      </trkpt>
      <trkpt lat="45.57014" lon="5.91447">
        <ele>307</ele>
        <time>2009-06-03T12:04:41Z</time>
      </trkpt>
      <trkpt lat="45.57017" lon="5.91461">
        <ele>302</ele>
        <time>2009-06-03T12:04:43Z</time>
      </trkpt>
      <trkpt lat="45.57022" lon="5.91481">
        <ele>302</ele>
        <time>2009-06-03T12:04:46Z</time>
      </trkpt>
      <trkpt lat="45.5703" lon="5.91489">
        <ele>302</ele>
        <time>2009-06-03T12:04:47Z</time>
      </trkpt>
      <trkpt lat="45.5704" lon="5.91497">
        <ele>302</ele>
        <time>2009-06-03T12:04:48Z</time>
      </trkpt>
      <trkpt lat="45.5704" lon="5.91512">
        <ele>302</ele>
        <time>2009-06-03T12:04:51Z</time>
      </trkpt>
      <trkpt lat="45.57011" lon="5.91541">
        <ele>283</ele>
        <time>2009-06-03T12:04:55Z</time>
      </trkpt>
      <trkpt lat="45.57003" lon="5.91549">
        <ele>275</ele>
        <time>2009-06-03T12:04:56Z</time>
      </trkpt>
      <trkpt lat="45.56992" lon="5.91557">
        <ele>275</ele>
        <time>2009-06-03T12:04:58Z</time>
      </trkpt>
      <trkpt lat="45.56983" lon="5.91577">
        <ele>269</ele>
        <time>2009-06-03T12:05:03Z</time>
      </trkpt>
      <trkpt lat="45.56985" lon="5.91593">
        <ele>269</ele>
        <time>2009-06-03T12:05:07Z</time>
      </trkpt>
      <trkpt lat="45.56983" lon="5.91609">
        <ele>269</ele>
        <time>2009-06-03T12:05:10Z</time>
      </trkpt>
      <trkpt lat="45.56971" lon="5.91618">
        <ele>263</ele>
        <time>2009-06-03T12:05:12Z</time>
      </trkpt>
      <trkpt lat="45.5696" lon="5.91629">
        <ele>263</ele>
        <time>2009-06-03T12:05:16Z</time>
      </trkpt>
      <trkpt lat="45.56957" lon="5.91642">
        <ele>263</ele>
        <time>2009-06-03T12:05:20Z</time>
      </trkpt>
      <trkpt lat="45.56967" lon="5.91659">
        <ele>273</ele>
        <time>2009-06-03T12:05:23Z</time>
      </trkpt>
      <trkpt lat="45.56972" lon="5.91671">
        <ele>273</ele>
        <time>2009-06-03T12:05:25Z</time>
      </trkpt>
      <trkpt lat="45.56974" lon="5.91688">
        <ele>273</ele>
        <time>2009-06-03T12:05:28Z</time>
      </trkpt>
      <trkpt lat="45.56973" lon="5.91702">
        <ele>273</ele>
        <time>2009-06-03T12:05:31Z</time>
      </trkpt>
      <trkpt lat="45.56977" lon="5.91716">
        <ele>266</ele>
        <time>2009-06-03T12:05:34Z</time>
      </trkpt>
      <trkpt lat="45.56982" lon="5.91728">
        <ele>260</ele>
        <time>2009-06-03T12:05:36Z</time>
      </trkpt>
      <trkpt lat="45.56981" lon="5.91743">
        <ele>260</ele>
        <time>2009-06-03T12:05:40Z</time>
      </trkpt>
      <trkpt lat="45.56979" lon="5.91759">
        <ele>260</ele>
        <time>2009-06-03T12:05:44Z</time>
      </trkpt>
      <trkpt lat="45.56973" lon="5.91771">
        <ele>260</ele>
        <time>2009-06-03T12:05:48Z</time>
      </trkpt>
      <trkpt lat="45.56969" lon="5.91783">
        <ele>267</ele>
        <time>2009-06-03T12:05:52Z</time>
      </trkpt>
      <trkpt lat="45.5696" lon="5.91798">
        <ele>267</ele>
        <time>2009-06-03T12:05:56Z</time>
      </trkpt>
      <trkpt lat="45.56952" lon="5.91807">
        <ele>274</ele>
        <time>2009-06-03T12:05:59Z</time>
      </trkpt>
      <trkpt lat="45.56948" lon="5.91823">
        <ele>274</ele>
        <time>2009-06-03T12:06:02Z</time>
      </trkpt>
      <trkpt lat="45.56942" lon="5.91834">
        <ele>269</ele>
        <time>2009-06-03T12:06:06Z</time>
      </trkpt>
      <trkpt lat="45.56932" lon="5.91844">
        <ele>269</ele>
        <time>2009-06-03T12:06:10Z</time>
      </trkpt>
      <trkpt lat="45.56922" lon="5.91857">
        <ele>269</ele>
        <time>2009-06-03T12:06:13Z</time>
      </trkpt>
      <trkpt lat="45.56903" lon="5.91875">
        <ele>258</ele>
        <time>2009-06-03T12:06:17Z</time>
      </trkpt>
      <trkpt lat="45.56892" lon="5.91876">
        <ele>258</ele>
        <time>2009-06-03T12:06:18Z</time>
      </trkpt>
      <trkpt lat="45.56884" lon="5.91881">
        <ele>258</ele>
        <time>2009-06-03T12:06:19Z</time>
      </trkpt>
      <trkpt lat="45.56874" lon="5.9189">
        <ele>258</ele>
        <time>2009-06-03T12:06:21Z</time>
      </trkpt>
      <trkpt lat="45.56865" lon="5.91906">
        <ele>258</ele>
        <time>2009-06-03T12:06:24Z</time>
      </trkpt>
      <trkpt lat="45.56855" lon="5.91913">
        <ele>258</ele>
        <time>2009-06-03T12:06:26Z</time>
      </trkpt>
      <trkpt lat="45.56842" lon="5.91931">
        <ele>268</ele>
        <time>2009-06-03T12:06:32Z</time>
      </trkpt>
      <trkpt lat="45.56851" lon="5.91948">
        <ele>268</ele>
        <time>2009-06-03T12:06:34Z</time>
      </trkpt>
      <trkpt lat="45.56864" lon="5.91966">
        <ele>275</ele>
        <time>2009-06-03T12:06:38Z</time>
      </trkpt>
      <trkpt lat="45.56865" lon="5.91982">
        <ele>282</ele>
        <time>2009-06-03T12:06:41Z</time>
      </trkpt>
      <trkpt lat="45.56867" lon="5.91995">
        <ele>288</ele>
        <time>2009-06-03T12:06:44Z</time>
      </trkpt>
      <trkpt lat="45.5687" lon="5.9201">
        <ele>288</ele>
        <time>2009-06-03T12:06:48Z</time>
      </trkpt>
      <trkpt lat="45.56873" lon="5.92026">
        <ele>294</ele>
        <time>2009-06-03T12:06:52Z</time>
      </trkpt>
      <trkpt lat="45.56872" lon="5.92041">
        <ele>294</ele>
        <time>2009-06-03T12:06:56Z</time>
      </trkpt>
      <trkpt lat="45.56872" lon="5.92059">
        <ele>306</ele>
        <time>2009-06-03T12:07:01Z</time>
      </trkpt>
      <trkpt lat="45.56874" lon="5.92079">
        <ele>306</ele>
        <time>2009-06-03T12:07:07Z</time>
      </trkpt>
      <trkpt lat="45.56869" lon="5.92091">
        <ele>295</ele>
        <time>2009-06-03T12:07:13Z</time>
      </trkpt>
      <trkpt lat="45.5686" lon="5.92096">
        <ele>288</ele>
        <time>2009-06-03T12:07:17Z</time>
      </trkpt>
      <trkpt lat="45.56849" lon="5.92097">
        <ele>276</ele>
        <time>2009-06-03T12:07:23Z</time>
      </trkpt>
      <trkpt lat="45.56836" lon="5.92101">
        <ele>266</ele>
        <time>2009-06-03T12:07:26Z</time>
      </trkpt>
      <trkpt lat="45.56827" lon="5.921">
        <ele>266</ele>
        <time>2009-06-03T12:07:30Z</time>
      </trkpt>
      <trkpt lat="45.5683" lon="5.92113">
        <ele>266</ele>
        <time>2009-06-03T12:07:35Z</time>
      </trkpt>
      <trkpt lat="45.5684" lon="5.92139">
        <ele>275</ele>
        <time>2009-06-03T12:07:41Z</time>
      </trkpt>
      <trkpt lat="45.5685" lon="5.92148">
        <ele>275</ele>
        <time>2009-06-03T12:07:44Z</time>
      </trkpt>
      <trkpt lat="45.56863" lon="5.92154">
        <ele>285</ele>
        <time>2009-06-03T12:07:47Z</time>
      </trkpt>
      <trkpt lat="45.56875" lon="5.92165">
        <ele>285</ele>
        <time>2009-06-03T12:07:50Z</time>
      </trkpt>
      <trkpt lat="45.56885" lon="5.92177">
        <ele>285</ele>
        <time>2009-06-03T12:07:52Z</time>
      </trkpt>
      <trkpt lat="45.56894" lon="5.92189">
        <ele>292</ele>
        <time>2009-06-03T12:07:54Z</time>
      </trkpt>
      <trkpt lat="45.56906" lon="5.92203">
        <ele>292</ele>
        <time>2009-06-03T12:07:56Z</time>
      </trkpt>
      <trkpt lat="45.56918" lon="5.92213">
        <ele>292</ele>
        <time>2009-06-03T12:07:58Z</time>
      </trkpt>
      <trkpt lat="45.56927" lon="5.92201">
        <ele>303</ele>
        <time>2009-06-03T12:08:03Z</time>
      </trkpt>
      <trkpt lat="45.56923" lon="5.92187">
        <ele>303</ele>
        <time>2009-06-03T12:08:14Z</time>
      </trkpt>
      <trkpt lat="45.56928" lon="5.92173">
        <ele>303</ele>
        <time>2009-06-03T12:08:16Z</time>
      </trkpt>
      <trkpt lat="45.56934" lon="5.92162">
        <ele>303</ele>
        <time>2009-06-03T12:08:18Z</time>
      </trkpt>
      <trkpt lat="45.56947" lon="5.92158">
        <ele>303</ele>
        <time>2009-06-03T12:08:20Z</time>
      </trkpt>
      <trkpt lat="45.56958" lon="5.92158">
        <ele>303</ele>
        <time>2009-06-03T12:08:23Z</time>
      </trkpt>
      <trkpt lat="45.56969" lon="5.92161">
        <ele>303</ele>
        <time>2009-06-03T12:08:26Z</time>
      </trkpt>
      <trkpt lat="45.56981" lon="5.92157">
        <ele>303</ele>
        <time>2009-06-03T12:08:31Z</time>
      </trkpt>
      <trkpt lat="45.57008" lon="5.92179">
        <ele>292</ele>
        <time>2009-06-03T12:08:41Z</time>
      </trkpt>
      <trkpt lat="45.57018" lon="5.92178">
        <ele>292</ele>
        <time>2009-06-03T12:08:44Z</time>
      </trkpt>
      <trkpt lat="45.5702" lon="5.9219">
        <ele>297</ele>
        <time>2009-06-03T12:08:47Z</time>
      </trkpt>
      <trkpt lat="45.57026" lon="5.92179">
        <ele>297</ele>
        <time>2009-06-03T12:08:49Z</time>
      </trkpt>
      <trkpt lat="45.57035" lon="5.92174">
        <ele>304</ele>
        <time>2009-06-03T12:08:55Z</time>
      </trkpt>
      <trkpt lat="45.57044" lon="5.92174">
        <ele>304</ele>
        <time>2009-06-03T12:09:00Z</time>
      </trkpt>
      <trkpt lat="45.57056" lon="5.92187">
        <ele>310</ele>
        <time>2009-06-03T12:09:03Z</time>
      </trkpt>
      <trkpt lat="45.57063" lon="5.92195">
        <ele>310</ele>
        <time>2009-06-03T12:09:06Z</time>
      </trkpt>
      <trkpt lat="45.57083" lon="5.922">
        <ele>316</ele>
        <time>2009-06-03T12:09:12Z</time>
      </trkpt>
      <trkpt lat="45.57087" lon="5.92186">
        <ele>316</ele>
        <time>2009-06-03T12:09:15Z</time>
      </trkpt>
      <trkpt lat="45.57105" lon="5.92172">
        <ele>316</ele>
        <time>2009-06-03T12:09:22Z</time>
      </trkpt>
      <trkpt lat="45.57121" lon="5.92178">
        <ele>307</ele>
        <time>2009-06-03T12:09:24Z</time>
      </trkpt>
      <trkpt lat="45.57128" lon="5.92192">
        <ele>307</ele>
        <time>2009-06-03T12:09:28Z</time>
      </trkpt>
      <trkpt lat="45.57136" lon="5.92201">
        <ele>307</ele>
        <time>2009-06-03T12:09:32Z</time>
      </trkpt>
      <trkpt lat="45.57145" lon="5.92196">
        <ele>313</ele>
        <time>2009-06-03T12:09:35Z</time>
      </trkpt>
      <trkpt lat="45.5715" lon="5.92183">
        <ele>313</ele>
        <time>2009-06-03T12:09:39Z</time>
      </trkpt>
      <trkpt lat="45.57162" lon="5.9218">
        <ele>313</ele>
        <time>2009-06-03T12:09:44Z</time>
      </trkpt>
      <trkpt lat="45.57171" lon="5.92187">
        <ele>307</ele>
        <time>2009-06-03T12:09:47Z</time>
      </trkpt>
      <trkpt lat="45.57181" lon="5.92186">
        <ele>307</ele>
        <time>2009-06-03T12:09:52Z</time>
      </trkpt>
      <trkpt lat="45.57193" lon="5.92185">
        <ele>307</ele>
        <time>2009-06-03T12:09:56Z</time>
      </trkpt>
      <trkpt lat="45.57203" lon="5.92185">
        <ele>307</ele>
        <time>2009-06-03T12:10:00Z</time>
      </trkpt>
      <trkpt lat="45.57213" lon="5.92187">
        <ele>313</ele>
        <time>2009-06-03T12:10:03Z</time>
      </trkpt>
      <trkpt lat="45.57222" lon="5.92198">
        <ele>313</ele>
        <time>2009-06-03T12:10:09Z</time>
      </trkpt>
      <trkpt lat="45.57229" lon="5.92209">
        <ele>318</ele>
        <time>2009-06-03T12:10:14Z</time>
      </trkpt>
      <trkpt lat="45.57236" lon="5.92221">
        <ele>318</ele>
        <time>2009-06-03T12:10:18Z</time>
      </trkpt>
      <trkpt lat="45.57243" lon="5.92232">
        <ele>318</ele>
        <time>2009-06-03T12:10:22Z</time>
      </trkpt>
      <trkpt lat="45.57252" lon="5.92238">
        <ele>318</ele>
        <time>2009-06-03T12:10:25Z</time>
      </trkpt>
      <trkpt lat="45.57262" lon="5.9225">
        <ele>318</ele>
        <time>2009-06-03T12:10:29Z</time>
      </trkpt>
      <trkpt lat="45.57265" lon="5.92266">
        <ele>318</ele>
        <time>2009-06-03T12:10:33Z</time>
      </trkpt>
      <trkpt lat="45.57273" lon="5.92277">
        <ele>318</ele>
        <time>2009-06-03T12:10:37Z</time>
      </trkpt>
      <trkpt lat="45.57279" lon="5.92288">
        <ele>318</ele>
        <time>2009-06-03T12:10:41Z</time>
      </trkpt>
      <trkpt lat="45.57279" lon="5.92303">
        <ele>318</ele>
        <time>2009-06-03T12:10:47Z</time>
      </trkpt>
      <trkpt lat="45.57284" lon="5.92315">
        <ele>318</ele>
        <time>2009-06-03T12:10:50Z</time>
      </trkpt>
      <trkpt lat="45.57295" lon="5.9232">
        <ele>318</ele>
        <time>2009-06-03T12:10:53Z</time>
      </trkpt>
      <trkpt lat="45.57304" lon="5.92325">
        <ele>323</ele>
        <time>2009-06-03T12:10:58Z</time>
      </trkpt>
      <trkpt lat="45.57313" lon="5.92333">
        <ele>331</ele>
        <time>2009-06-03T12:11:02Z</time>
      </trkpt>
      <trkpt lat="45.57321" lon="5.92344">
        <ele>331</ele>
        <time>2009-06-03T12:11:06Z</time>
      </trkpt>
      <trkpt lat="45.57325" lon="5.9236">
        <ele>331</ele>
        <time>2009-06-03T12:11:09Z</time>
      </trkpt>
      <trkpt lat="45.57329" lon="5.92373">
        <ele>331</ele>
        <time>2009-06-03T12:11:12Z</time>
      </trkpt>
      <trkpt lat="45.57331" lon="5.92387">
        <ele>331</ele>
        <time>2009-06-03T12:11:14Z</time>
      </trkpt>
      <trkpt lat="45.57331" lon="5.924">
        <ele>325</ele>
        <time>2009-06-03T12:11:17Z</time>
      </trkpt>
      <trkpt lat="45.5733" lon="5.92417">
        <ele>325</ele>
        <time>2009-06-03T12:11:20Z</time>
      </trkpt>
      <trkpt lat="45.57328" lon="5.92433">
        <ele>320</ele>
        <time>2009-06-03T12:11:23Z</time>
      </trkpt>
      <trkpt lat="45.57323" lon="5.92452">
        <ele>320</ele>
        <time>2009-06-03T12:11:26Z</time>
      </trkpt>
      <trkpt lat="45.57319" lon="5.92464">
        <ele>312</ele>
        <time>2009-06-03T12:11:28Z</time>
      </trkpt>
      <trkpt lat="45.57316" lon="5.92481">
        <ele>312</ele>
        <time>2009-06-03T12:11:31Z</time>
      </trkpt>
      <trkpt lat="45.57313" lon="5.92501">
        <ele>312</ele>
        <time>2009-06-03T12:11:34Z</time>
      </trkpt>
      <trkpt lat="45.5731" lon="5.92514">
        <ele>307</ele>
        <time>2009-06-03T12:11:36Z</time>
      </trkpt>
      <trkpt lat="45.57309" lon="5.92532">
        <ele>307</ele>
        <time>2009-06-03T12:11:39Z</time>
      </trkpt>
      <trkpt lat="45.57304" lon="5.92549">
        <ele>307</ele>
        <time>2009-06-03T12:11:42Z</time>
      </trkpt>
      <trkpt lat="45.57304" lon="5.92567">
        <ele>307</ele>
        <time>2009-06-03T12:11:45Z</time>
      </trkpt>
      <trkpt lat="45.57302" lon="5.92585">
        <ele>307</ele>
        <time>2009-06-03T12:11:48Z</time>
      </trkpt>
      <trkpt lat="45.57304" lon="5.92599">
        <ele>307</ele>
        <time>2009-06-03T12:11:51Z</time>
      </trkpt>
      <trkpt lat="45.57309" lon="5.9262">
        <ele>312</ele>
        <time>2009-06-03T12:11:55Z</time>
      </trkpt>
      <trkpt lat="45.57316" lon="5.9264">
        <ele>312</ele>
        <time>2009-06-03T12:11:59Z</time>
      </trkpt>
      <trkpt lat="45.57322" lon="5.92654">
        <ele>322</ele>
        <time>2009-06-03T12:12:03Z</time>
      </trkpt>
      <trkpt lat="45.57326" lon="5.92665">
        <ele>322</ele>
        <time>2009-06-03T12:12:06Z</time>
      </trkpt>
      <trkpt lat="45.57333" lon="5.92682">
        <ele>322</ele>
        <time>2009-06-03T12:12:10Z</time>
      </trkpt>
      <trkpt lat="45.57335" lon="5.92695">
        <ele>322</ele>
        <time>2009-06-03T12:12:13Z</time>
      </trkpt>
      <trkpt lat="45.5734" lon="5.92707">
        <ele>322</ele>
        <time>2009-06-03T12:12:16Z</time>
      </trkpt>
      <trkpt lat="45.57345" lon="5.92721">
        <ele>322</ele>
        <time>2009-06-03T12:12:19Z</time>
      </trkpt>
      <trkpt lat="45.57349" lon="5.92734">
        <ele>322</ele>
        <time>2009-06-03T12:12:22Z</time>
      </trkpt>
      <trkpt lat="45.57354" lon="5.92746">
        <ele>322</ele>
        <time>2009-06-03T12:12:25Z</time>
      </trkpt>
      <trkpt lat="45.5736" lon="5.92759">
        <ele>322</ele>
        <time>2009-06-03T12:12:29Z</time>
      </trkpt>
      <trkpt lat="45.57367" lon="5.92773">
        <ele>322</ele>
        <time>2009-06-03T12:12:33Z</time>
      </trkpt>
      <trkpt lat="45.57369" lon="5.92786">
        <ele>322</ele>
        <time>2009-06-03T12:12:35Z</time>
      </trkpt>
      <trkpt lat="45.57376" lon="5.92806">
        <ele>322</ele>
        <time>2009-06-03T12:12:39Z</time>
      </trkpt>
      <trkpt lat="45.57382" lon="5.92833">
        <ele>322</ele>
        <time>2009-06-03T12:12:44Z</time>
      </trkpt>
      <trkpt lat="45.57386" lon="5.92846">
        <ele>322</ele>
        <time>2009-06-03T12:12:46Z</time>
      </trkpt>
      <trkpt lat="45.5739" lon="5.9286">
        <ele>322</ele>
        <time>2009-06-03T12:12:50Z</time>
      </trkpt>
      <trkpt lat="45.57394" lon="5.92875">
        <ele>322</ele>
        <time>2009-06-03T12:12:53Z</time>
      </trkpt>
      <trkpt lat="45.574" lon="5.92887">
        <ele>327</ele>
        <time>2009-06-03T12:12:57Z</time>
      </trkpt>
      <trkpt lat="45.57417" lon="5.92912">
        <ele>321</ele>
        <time>2009-06-03T12:13:03Z</time>
      </trkpt>
      <trkpt lat="45.57424" lon="5.92923">
        <ele>321</ele>
        <time>2009-06-03T12:13:07Z</time>
      </trkpt>
      <trkpt lat="45.57431" lon="5.92936">
        <ele>321</ele>
        <time>2009-06-03T12:13:11Z</time>
      </trkpt>
      <trkpt lat="45.57433" lon="5.9295">
        <ele>330</ele>
        <time>2009-06-03T12:13:15Z</time>
      </trkpt>
      <trkpt lat="45.57443" lon="5.92973">
        <ele>330</ele>
        <time>2009-06-03T12:13:21Z</time>
      </trkpt>
      <trkpt lat="45.5745" lon="5.9299">
        <ele>330</ele>
        <time>2009-06-03T12:13:24Z</time>
      </trkpt>
      <trkpt lat="45.57455" lon="5.93002">
        <ele>330</ele>
        <time>2009-06-03T12:13:29Z</time>
      </trkpt>
      <trkpt lat="45.57463" lon="5.93012">
        <ele>335</ele>
        <time>2009-06-03T12:13:32Z</time>
      </trkpt>
      <trkpt lat="45.57467" lon="5.93026">
        <ele>335</ele>
        <time>2009-06-03T12:13:37Z</time>
      </trkpt>
      <trkpt lat="45.57473" lon="5.93042">
        <ele>335</ele>
        <time>2009-06-03T12:13:41Z</time>
      </trkpt>
      <trkpt lat="45.57477" lon="5.93056">
        <ele>335</ele>
        <time>2009-06-03T12:13:45Z</time>
      </trkpt>
      <trkpt lat="45.57482" lon="5.9307">
        <ele>345</ele>
        <time>2009-06-03T12:13:49Z</time>
      </trkpt>
      <trkpt lat="45.57487" lon="5.93083">
        <ele>345</ele>
        <time>2009-06-03T12:13:53Z</time>
      </trkpt>
      <trkpt lat="45.57494" lon="5.93098">
        <ele>345</ele>
        <time>2009-06-03T12:13:58Z</time>
      </trkpt>
      <trkpt lat="45.57502" lon="5.9311">
        <ele>345</ele>
        <time>2009-06-03T12:14:01Z</time>
      </trkpt>
      <trkpt lat="45.57507" lon="5.93122">
        <ele>345</ele>
        <time>2009-06-03T12:14:05Z</time>
      </trkpt>
      <trkpt lat="45.57511" lon="5.93138">
        <ele>345</ele>
        <time>2009-06-03T12:14:09Z</time>
      </trkpt>
      <trkpt lat="45.57516" lon="5.93154">
        <ele>345</ele>
        <time>2009-06-03T12:14:12Z</time>
      </trkpt>
      <trkpt lat="45.5752" lon="5.93166">
        <ele>345</ele>
        <time>2009-06-03T12:14:14Z</time>
      </trkpt>
      <trkpt lat="45.5752" lon="5.9318">
        <ele>345</ele>
        <time>2009-06-03T12:14:17Z</time>
      </trkpt>
      <trkpt lat="45.57522" lon="5.93202">
        <ele>345</ele>
        <time>2009-06-03T12:14:22Z</time>
      </trkpt>
      <trkpt lat="45.57525" lon="5.93217">
        <ele>345</ele>
        <time>2009-06-03T12:14:26Z</time>
      </trkpt>
      <trkpt lat="45.57523" lon="5.93233">
        <ele>345</ele>
        <time>2009-06-03T12:14:29Z</time>
      </trkpt>
      <trkpt lat="45.57524" lon="5.93247">
        <ele>345</ele>
        <time>2009-06-03T12:14:33Z</time>
      </trkpt>
      <trkpt lat="45.57528" lon="5.93263">
        <ele>345</ele>
        <time>2009-06-03T12:14:37Z</time>
      </trkpt>
      <trkpt lat="45.57536" lon="5.93282">
        <ele>345</ele>
        <time>2009-06-03T12:14:43Z</time>
      </trkpt>
      <trkpt lat="45.57545" lon="5.93291">
        <ele>345</ele>
        <time>2009-06-03T12:14:46Z</time>
      </trkpt>
      <trkpt lat="45.57553" lon="5.933">
        <ele>345</ele>
        <time>2009-06-03T12:14:48Z</time>
      </trkpt>
      <trkpt lat="45.5756" lon="5.93309">
        <ele>345</ele>
        <time>2009-06-03T12:14:51Z</time>
      </trkpt>
      <trkpt lat="45.57567" lon="5.93318">
        <ele>345</ele>
        <time>2009-06-03T12:14:54Z</time>
      </trkpt>
      <trkpt lat="45.57578" lon="5.93327">
        <ele>345</ele>
        <time>2009-06-03T12:14:58Z</time>
      </trkpt>
      <trkpt lat="45.57585" lon="5.93335">
        <ele>345</ele>
        <time>2009-06-03T12:15:01Z</time>
      </trkpt>
      <trkpt lat="45.57593" lon="5.93348">
        <ele>345</ele>
        <time>2009-06-03T12:15:05Z</time>
      </trkpt>
      <trkpt lat="45.57601" lon="5.93358">
        <ele>345</ele>
        <time>2009-06-03T12:15:08Z</time>
      </trkpt>
      <trkpt lat="45.5761" lon="5.93365">
        <ele>351</ele>
        <time>2009-06-03T12:15:11Z</time>
      </trkpt>
      <trkpt lat="45.57619" lon="5.93374">
        <ele>351</ele>
        <time>2009-06-03T12:15:14Z</time>
      </trkpt>
      <trkpt lat="45.57629" lon="5.93383">
        <ele>351</ele>
        <time>2009-06-03T12:15:17Z</time>
      </trkpt>
      <trkpt lat="45.57639" lon="5.93389">
        <ele>351</ele>
        <time>2009-06-03T12:15:20Z</time>
      </trkpt>
      <trkpt lat="45.57648" lon="5.93394">
        <ele>351</ele>
        <time>2009-06-03T12:15:23Z</time>
      </trkpt>
      <trkpt lat="45.57659" lon="5.93398">
        <ele>351</ele>
        <time>2009-06-03T12:15:26Z</time>
      </trkpt>
      <trkpt lat="45.57668" lon="5.93402">
        <ele>351</ele>
        <time>2009-06-03T12:15:29Z</time>
      </trkpt>
      <trkpt lat="45.57681" lon="5.9341">
        <ele>351</ele>
        <time>2009-06-03T12:15:32Z</time>
      </trkpt>
      <trkpt lat="45.577" lon="5.93421">
        <ele>358</ele>
        <time>2009-06-03T12:15:37Z</time>
      </trkpt>
      <trkpt lat="45.57711" lon="5.9343">
        <ele>365</ele>
        <time>2009-06-03T12:15:41Z</time>
      </trkpt>
      <trkpt lat="45.5772" lon="5.93439">
        <ele>365</ele>
        <time>2009-06-03T12:15:43Z</time>
      </trkpt>
      <trkpt lat="45.57742" lon="5.93457">
        <ele>365</ele>
        <time>2009-06-03T12:15:49Z</time>
      </trkpt>
      <trkpt lat="45.5775" lon="5.93463">
        <ele>365</ele>
        <time>2009-06-03T12:15:50Z</time>
      </trkpt>
      <trkpt lat="45.5776" lon="5.9347">
        <ele>365</ele>
        <time>2009-06-03T12:15:52Z</time>
      </trkpt>
      <trkpt lat="45.5777" lon="5.93475">
        <ele>365</ele>
        <time>2009-06-03T12:15:54Z</time>
      </trkpt>
      <trkpt lat="45.57779" lon="5.93479">
        <ele>365</ele>
        <time>2009-06-03T12:15:56Z</time>
      </trkpt>
      <trkpt lat="45.57791" lon="5.93481">
        <ele>365</ele>
        <time>2009-06-03T12:15:59Z</time>
      </trkpt>
      <trkpt lat="45.57801" lon="5.93486">
        <ele>356</ele>
        <time>2009-06-03T12:16:01Z</time>
      </trkpt>
      <trkpt lat="45.57817" lon="5.93486">
        <ele>356</ele>
        <time>2009-06-03T12:16:04Z</time>
      </trkpt>
      <trkpt lat="45.57829" lon="5.93486">
        <ele>356</ele>
        <time>2009-06-03T12:16:06Z</time>
      </trkpt>
      <trkpt lat="45.57851" lon="5.93488">
        <ele>347</ele>
        <time>2009-06-03T12:16:10Z</time>
      </trkpt>
      <trkpt lat="45.57864" lon="5.93484">
        <ele>347</ele>
        <time>2009-06-03T12:16:11Z</time>
      </trkpt>
      <trkpt lat="45.57878" lon="5.93484">
        <ele>338</ele>
        <time>2009-06-03T12:16:13Z</time>
      </trkpt>
      <trkpt lat="45.57895" lon="5.9349">
        <ele>338</ele>
        <time>2009-06-03T12:16:15Z</time>
      </trkpt>
      <trkpt lat="45.57909" lon="5.93494">
        <ele>338</ele>
        <time>2009-06-03T12:16:17Z</time>
      </trkpt>
      <trkpt lat="45.57919" lon="5.93496">
        <ele>338</ele>
        <time>2009-06-03T12:16:20Z</time>
      </trkpt>
      <trkpt lat="45.57936" lon="5.93497">
        <ele>338</ele>
        <time>2009-06-03T12:16:25Z</time>
      </trkpt>
      <trkpt lat="45.57947" lon="5.93496">
        <ele>338</ele>
        <time>2009-06-03T12:16:27Z</time>
      </trkpt>
      <trkpt lat="45.57957" lon="5.93499">
        <ele>338</ele>
        <time>2009-06-03T12:16:29Z</time>
      </trkpt>
      <trkpt lat="45.57971" lon="5.93504">
        <ele>338</ele>
        <time>2009-06-03T12:16:31Z</time>
      </trkpt>
      <trkpt lat="45.5798" lon="5.9351">
        <ele>344</ele>
        <time>2009-06-03T12:16:33Z</time>
      </trkpt>
      <trkpt lat="45.57989" lon="5.93514">
        <ele>344</ele>
        <time>2009-06-03T12:16:35Z</time>
      </trkpt>
      <trkpt lat="45.57997" lon="5.93524">
        <ele>344</ele>
        <time>2009-06-03T12:16:38Z</time>
      </trkpt>
      <trkpt lat="45.58008" lon="5.93533">
        <ele>344</ele>
        <time>2009-06-03T12:16:41Z</time>
      </trkpt>
      <trkpt lat="45.58017" lon="5.93544">
        <ele>344</ele>
        <time>2009-06-03T12:16:44Z</time>
      </trkpt>
      <trkpt lat="45.58027" lon="5.93549">
        <ele>344</ele>
        <time>2009-06-03T12:16:46Z</time>
      </trkpt>
      <trkpt lat="45.58038" lon="5.93552">
        <ele>344</ele>
        <time>2009-06-03T12:16:48Z</time>
      </trkpt>
      <trkpt lat="45.58047" lon="5.93556">
        <ele>344</ele>
        <time>2009-06-03T12:16:50Z</time>
      </trkpt>
      <trkpt lat="45.58059" lon="5.93562">
        <ele>344</ele>
        <time>2009-06-03T12:16:52Z</time>
      </trkpt>
      <trkpt lat="45.5808" lon="5.93565">
        <ele>350</ele>
        <time>2009-06-03T12:16:56Z</time>
      </trkpt>
      <trkpt lat="45.58092" lon="5.93559">
        <ele>344</ele>
        <time>2009-06-03T12:16:58Z</time>
      </trkpt>
      <trkpt lat="45.58106" lon="5.93559">
        <ele>344</ele>
        <time>2009-06-03T12:17:01Z</time>
      </trkpt>
      <trkpt lat="45.58119" lon="5.93563">
        <ele>344</ele>
        <time>2009-06-03T12:17:04Z</time>
      </trkpt>
      <trkpt lat="45.58128" lon="5.93567">
        <ele>344</ele>
        <time>2009-06-03T12:17:06Z</time>
      </trkpt>
      <trkpt lat="45.58136" lon="5.93574">
        <ele>344</ele>
        <time>2009-06-03T12:17:08Z</time>
      </trkpt>
      <trkpt lat="45.58141" lon="5.93585">
        <ele>344</ele>
        <time>2009-06-03T12:17:11Z</time>
      </trkpt>
      <trkpt lat="45.58147" lon="5.93608">
        <ele>354</ele>
        <time>2009-06-03T12:17:17Z</time>
      </trkpt>
      <trkpt lat="45.58152" lon="5.93622">
        <ele>354</ele>
        <time>2009-06-03T12:17:20Z</time>
      </trkpt>
      <trkpt lat="45.5816" lon="5.9363">
        <ele>354</ele>
        <time>2009-06-03T12:17:23Z</time>
      </trkpt>
      <trkpt lat="45.58167" lon="5.93643">
        <ele>354</ele>
        <time>2009-06-03T12:17:26Z</time>
      </trkpt>
      <trkpt lat="45.58174" lon="5.93655">
        <ele>354</ele>
        <time>2009-06-03T12:17:29Z</time>
      </trkpt>
      <trkpt lat="45.58181" lon="5.93664">
        <ele>354</ele>
        <time>2009-06-03T12:17:32Z</time>
      </trkpt>
      <trkpt lat="45.58188" lon="5.93676">
        <ele>354</ele>
        <time>2009-06-03T12:17:35Z</time>
      </trkpt>
      <trkpt lat="45.58203" lon="5.93685">
        <ele>354</ele>
        <time>2009-06-03T12:17:41Z</time>
      </trkpt>
      <trkpt lat="45.5821" lon="5.93697">
        <ele>362</ele>
        <time>2009-06-03T12:17:45Z</time>
      </trkpt>
      <trkpt lat="45.58218" lon="5.93702">
        <ele>362</ele>
        <time>2009-06-03T12:17:49Z</time>
      </trkpt>
      <trkpt lat="45.58228" lon="5.93708">
        <ele>362</ele>
        <time>2009-06-03T12:17:52Z</time>
      </trkpt>
      <trkpt lat="45.58237" lon="5.93714">
        <ele>371</ele>
        <time>2009-06-03T12:17:57Z</time>
      </trkpt>
      <trkpt lat="45.58248" lon="5.93713">
        <ele>371</ele>
        <time>2009-06-03T12:18:01Z</time>
      </trkpt>
      <trkpt lat="45.58258" lon="5.93716">
        <ele>371</ele>
        <time>2009-06-03T12:18:04Z</time>
      </trkpt>
      <trkpt lat="45.58273" lon="5.93716">
        <ele>371</ele>
        <time>2009-06-03T12:18:09Z</time>
      </trkpt>
      <trkpt lat="45.58283" lon="5.93716">
        <ele>377</ele>
        <time>2009-06-03T12:18:13Z</time>
      </trkpt>
      <trkpt lat="45.58293" lon="5.93719">
        <ele>377</ele>
        <time>2009-06-03T12:18:16Z</time>
      </trkpt>
      <trkpt lat="45.583" lon="5.93711">
        <ele>384</ele>
        <time>2009-06-03T12:18:19Z</time>
      </trkpt>
      <trkpt lat="45.58309" lon="5.93706">
        <ele>392</ele>
        <time>2009-06-03T12:18:22Z</time>
      </trkpt>
      <trkpt lat="45.5832" lon="5.93706">
        <ele>392</ele>
        <time>2009-06-03T12:18:26Z</time>
      </trkpt>
      <trkpt lat="45.58329" lon="5.93714">
        <ele>401</ele>
        <time>2009-06-03T12:18:31Z</time>
      </trkpt>
      <trkpt lat="45.58338" lon="5.93724">
        <ele>409</ele>
        <time>2009-06-03T12:18:34Z</time>
      </trkpt>
      <trkpt lat="45.58345" lon="5.93733">
        <ele>409</ele>
        <time>2009-06-03T12:18:37Z</time>
      </trkpt>
      <trkpt lat="45.58355" lon="5.93737">
        <ele>414</ele>
        <time>2009-06-03T12:18:39Z</time>
      </trkpt>
      <trkpt lat="45.58361" lon="5.9375">
        <ele>414</ele>
        <time>2009-06-03T12:18:41Z</time>
      </trkpt>
      <trkpt lat="45.58373" lon="5.93754">
        <ele>408</ele>
        <time>2009-06-03T12:18:43Z</time>
      </trkpt>
      <trkpt lat="45.58384" lon="5.9376">
        <ele>408</ele>
        <time>2009-06-03T12:18:45Z</time>
      </trkpt>
      <trkpt lat="45.58398" lon="5.93775">
        <ele>397</ele>
        <time>2009-06-03T12:18:47Z</time>
      </trkpt>
      <trkpt lat="45.58408" lon="5.93784">
        <ele>397</ele>
        <time>2009-06-03T12:18:49Z</time>
      </trkpt>
      <trkpt lat="45.58423" lon="5.93807">
        <ele>384</ele>
        <time>2009-06-03T12:18:53Z</time>
      </trkpt>
      <trkpt lat="45.58432" lon="5.93819">
        <ele>384</ele>
        <time>2009-06-03T12:18:55Z</time>
      </trkpt>
      <trkpt lat="45.58451" lon="5.93846">
        <ele>374</ele>
        <time>2009-06-03T12:18:59Z</time>
      </trkpt>
      <trkpt lat="45.58461" lon="5.93866">
        <ele>367</ele>
        <time>2009-06-03T12:19:01Z</time>
      </trkpt>
      <trkpt lat="45.58471" lon="5.93879">
        <ele>359</ele>
        <time>2009-06-03T12:19:03Z</time>
      </trkpt>
      <trkpt lat="45.5848" lon="5.93886">
        <ele>359</ele>
        <time>2009-06-03T12:19:05Z</time>
      </trkpt>
      <trkpt lat="45.58489" lon="5.93892">
        <ele>359</ele>
        <time>2009-06-03T12:19:07Z</time>
      </trkpt>
      <trkpt lat="45.585" lon="5.93901">
        <ele>359</ele>
        <time>2009-06-03T12:19:10Z</time>
      </trkpt>
      <trkpt lat="45.58507" lon="5.9391">
        <ele>359</ele>
        <time>2009-06-03T12:19:12Z</time>
      </trkpt>
      <trkpt lat="45.58516" lon="5.93917">
        <ele>353</ele>
        <time>2009-06-03T12:19:14Z</time>
      </trkpt>
      <trkpt lat="45.58526" lon="5.93926">
        <ele>353</ele>
        <time>2009-06-03T12:19:17Z</time>
      </trkpt>
      <trkpt lat="45.58533" lon="5.93936">
        <ele>348</ele>
        <time>2009-06-03T12:19:20Z</time>
      </trkpt>
      <trkpt lat="45.58546" lon="5.93936">
        <ele>348</ele>
        <time>2009-06-03T12:19:24Z</time>
      </trkpt>
      <trkpt lat="45.58558" lon="5.93939">
        <ele>354</ele>
        <time>2009-06-03T12:19:26Z</time>
      </trkpt>
      <trkpt lat="45.58566" lon="5.9393">
        <ele>368</ele>
        <time>2009-06-03T12:19:30Z</time>
      </trkpt>
      <trkpt lat="45.58575" lon="5.93923">
        <ele>368</ele>
        <time>2009-06-03T12:19:34Z</time>
      </trkpt>
      <trkpt lat="45.58586" lon="5.93916">
        <ele>375</ele>
        <time>2009-06-03T12:19:39Z</time>
      </trkpt>
      <trkpt lat="45.58593" lon="5.93905">
        <ele>375</ele>
        <time>2009-06-03T12:19:44Z</time>
      </trkpt>
      <trkpt lat="45.58604" lon="5.93908">
        <ele>375</ele>
        <time>2009-06-03T12:19:48Z</time>
      </trkpt>
      <trkpt lat="45.58615" lon="5.9391">
        <ele>375</ele>
        <time>2009-06-03T12:19:51Z</time>
      </trkpt>
      <trkpt lat="45.58625" lon="5.93909">
        <ele>375</ele>
        <time>2009-06-03T12:19:54Z</time>
      </trkpt>
      <trkpt lat="45.58634" lon="5.93901">
        <ele>375</ele>
        <time>2009-06-03T12:19:59Z</time>
      </trkpt>
      <trkpt lat="45.58643" lon="5.93893">
        <ele>383</ele>
        <time>2009-06-03T12:20:05Z</time>
      </trkpt>
      <trkpt lat="45.58652" lon="5.93899">
        <ele>389</ele>
        <time>2009-06-03T12:20:09Z</time>
      </trkpt>
      <trkpt lat="45.58661" lon="5.9391">
        <ele>389</ele>
        <time>2009-06-03T12:20:14Z</time>
      </trkpt>
      <trkpt lat="45.58669" lon="5.93917">
        <ele>389</ele>
        <time>2009-06-03T12:20:16Z</time>
      </trkpt>
      <trkpt lat="45.5868" lon="5.93921">
        <ele>389</ele>
        <time>2009-06-03T12:20:19Z</time>
      </trkpt>
      <trkpt lat="45.58688" lon="5.9393">
        <ele>389</ele>
        <time>2009-06-03T12:20:22Z</time>
      </trkpt>
      <trkpt lat="45.58697" lon="5.93938">
        <ele>389</ele>
        <time>2009-06-03T12:20:26Z</time>
      </trkpt>
      <trkpt lat="45.58707" lon="5.93945">
        <ele>389</ele>
        <time>2009-06-03T12:20:29Z</time>
      </trkpt>
      <trkpt lat="45.58717" lon="5.93955">
        <ele>389</ele>
        <time>2009-06-03T12:20:32Z</time>
      </trkpt>
      <trkpt lat="45.58729" lon="5.93963">
        <ele>389</ele>
        <time>2009-06-03T12:20:35Z</time>
      </trkpt>
      <trkpt lat="45.5874" lon="5.9397">
        <ele>389</ele>
        <time>2009-06-03T12:20:38Z</time>
      </trkpt>
      <trkpt lat="45.5875" lon="5.93973">
        <ele>389</ele>
        <time>2009-06-03T12:20:41Z</time>
      </trkpt>
      <trkpt lat="45.58766" lon="5.93977">
        <ele>389</ele>
        <time>2009-06-03T12:20:46Z</time>
      </trkpt>
      <trkpt lat="45.58777" lon="5.93987">
        <ele>389</ele>
        <time>2009-06-03T12:20:48Z</time>
      </trkpt>
      <trkpt lat="45.58787" lon="5.93991">
        <ele>389</ele>
        <time>2009-06-03T12:20:51Z</time>
      </trkpt>
      <trkpt lat="45.58798" lon="5.93991">
        <ele>384</ele>
        <time>2009-06-03T12:20:54Z</time>
      </trkpt>
      <trkpt lat="45.5881" lon="5.9399">
        <ele>384</ele>
        <time>2009-06-03T12:20:59Z</time>
      </trkpt>
      <trkpt lat="45.58821" lon="5.9399">
        <ele>384</ele>
        <time>2009-06-03T12:21:02Z</time>
      </trkpt>
      <trkpt lat="45.58829" lon="5.94">
        <ele>384</ele>
        <time>2009-06-03T12:21:05Z</time>
      </trkpt>
      <trkpt lat="45.5884" lon="5.94004">
        <ele>384</ele>
        <time>2009-06-03T12:21:09Z</time>
      </trkpt>
      <trkpt lat="45.5885" lon="5.9401">
        <ele>389</ele>
        <time>2009-06-03T12:21:13Z</time>
      </trkpt>
      <trkpt lat="45.58862" lon="5.94019">
        <ele>389</ele>
        <time>2009-06-03T12:21:18Z</time>
      </trkpt>
      <trkpt lat="45.58874" lon="5.94027">
        <ele>389</ele>
        <time>2009-06-03T12:21:21Z</time>
      </trkpt>
      <trkpt lat="45.58886" lon="5.94035">
        <ele>389</ele>
        <time>2009-06-03T12:21:24Z</time>
      </trkpt>
      <trkpt lat="45.58896" lon="5.94045">
        <ele>389</ele>
        <time>2009-06-03T12:21:27Z</time>
      </trkpt>
      <trkpt lat="45.58907" lon="5.94053">
        <ele>389</ele>
        <time>2009-06-03T12:21:30Z</time>
      </trkpt>
      <trkpt lat="45.58917" lon="5.9406">
        <ele>389</ele>
        <time>2009-06-03T12:21:33Z</time>
      </trkpt>
      <trkpt lat="45.58927" lon="5.94066">
        <ele>389</ele>
        <time>2009-06-03T12:21:36Z</time>
      </trkpt>
      <trkpt lat="45.58936" lon="5.94069">
        <ele>395</ele>
        <time>2009-06-03T12:21:39Z</time>
      </trkpt>
      <trkpt lat="45.58948" lon="5.94074">
        <ele>395</ele>
        <time>2009-06-03T12:21:42Z</time>
      </trkpt>
      <trkpt lat="45.58958" lon="5.94076">
        <ele>390</ele>
        <time>2009-06-03T12:21:44Z</time>
      </trkpt>
      <trkpt lat="45.5897" lon="5.94078">
        <ele>385</ele>
        <time>2009-06-03T12:21:47Z</time>
      </trkpt>
      <trkpt lat="45.5898" lon="5.94084">
        <ele>385</ele>
        <time>2009-06-03T12:21:50Z</time>
      </trkpt>
      <trkpt lat="45.58991" lon="5.9409">
        <ele>385</ele>
        <time>2009-06-03T12:21:53Z</time>
      </trkpt>
      <trkpt lat="45.59002" lon="5.94095">
        <ele>385</ele>
        <time>2009-06-03T12:21:56Z</time>
      </trkpt>
      <trkpt lat="45.59012" lon="5.94097">
        <ele>385</ele>
        <time>2009-06-03T12:21:58Z</time>
      </trkpt>
      <trkpt lat="45.59023" lon="5.94097">
        <ele>391</ele>
        <time>2009-06-03T12:22:00Z</time>
      </trkpt>
      <trkpt lat="45.59036" lon="5.94101">
        <ele>391</ele>
        <time>2009-06-03T12:22:03Z</time>
      </trkpt>
      <trkpt lat="45.59046" lon="5.94102">
        <ele>391</ele>
        <time>2009-06-03T12:22:05Z</time>
      </trkpt>
      <trkpt lat="45.59057" lon="5.94107">
        <ele>391</ele>
        <time>2009-06-03T12:22:08Z</time>
      </trkpt>
      <trkpt lat="45.59067" lon="5.94109">
        <ele>384</ele>
        <time>2009-06-03T12:22:10Z</time>
      </trkpt>
      <trkpt lat="45.59084" lon="5.94112">
        <ele>384</ele>
        <time>2009-06-03T12:22:14Z</time>
      </trkpt>
      <trkpt lat="45.591" lon="5.94115">
        <ele>384</ele>
        <time>2009-06-03T12:22:18Z</time>
      </trkpt>
      <trkpt lat="45.59109" lon="5.94116">
        <ele>384</ele>
        <time>2009-06-03T12:22:21Z</time>
      </trkpt>
      <trkpt lat="45.59118" lon="5.9412">
        <ele>384</ele>
        <time>2009-06-03T12:22:23Z</time>
      </trkpt>
      <trkpt lat="45.5913" lon="5.94121">
        <ele>384</ele>
        <time>2009-06-03T12:22:26Z</time>
      </trkpt>
      <trkpt lat="45.59142" lon="5.94118">
        <ele>384</ele>
        <time>2009-06-03T12:22:29Z</time>
      </trkpt>
      <trkpt lat="45.59154" lon="5.94114">
        <ele>384</ele>
        <time>2009-06-03T12:22:32Z</time>
      </trkpt>
      <trkpt lat="45.59164" lon="5.94112">
        <ele>384</ele>
        <time>2009-06-03T12:22:35Z</time>
      </trkpt>
      <trkpt lat="45.59173" lon="5.94114">
        <ele>384</ele>
        <time>2009-06-03T12:22:38Z</time>
      </trkpt>
      <trkpt lat="45.59183" lon="5.94113">
        <ele>384</ele>
        <time>2009-06-03T12:22:41Z</time>
      </trkpt>
      <trkpt lat="45.59194" lon="5.94111">
        <ele>384</ele>
        <time>2009-06-03T12:22:44Z</time>
      </trkpt>
      <trkpt lat="45.59204" lon="5.9411">
        <ele>384</ele>
        <time>2009-06-03T12:22:47Z</time>
      </trkpt>
      <trkpt lat="45.59216" lon="5.94109">
        <ele>384</ele>
        <time>2009-06-03T12:22:50Z</time>
      </trkpt>
      <trkpt lat="45.59228" lon="5.94102">
        <ele>384</ele>
        <time>2009-06-03T12:22:53Z</time>
      </trkpt>
      <trkpt lat="45.59238" lon="5.94098">
        <ele>384</ele>
        <time>2009-06-03T12:22:56Z</time>
      </trkpt>
      <trkpt lat="45.59249" lon="5.94094">
        <ele>390</ele>
        <time>2009-06-03T12:22:59Z</time>
      </trkpt>
      <trkpt lat="45.59274" lon="5.94091">
        <ele>390</ele>
        <time>2009-06-03T12:23:06Z</time>
      </trkpt>
      <trkpt lat="45.59284" lon="5.94092">
        <ele>390</ele>
        <time>2009-06-03T12:23:09Z</time>
      </trkpt>
      <trkpt lat="45.59297" lon="5.94092">
        <ele>390</ele>
        <time>2009-06-03T12:23:12Z</time>
      </trkpt>
      <trkpt lat="45.59308" lon="5.94095">
        <ele>390</ele>
        <time>2009-06-03T12:23:15Z</time>
      </trkpt>
      <trkpt lat="45.59318" lon="5.94099">
        <ele>390</ele>
        <time>2009-06-03T12:23:18Z</time>
      </trkpt>
      <trkpt lat="45.59329" lon="5.94105">
        <ele>390</ele>
        <time>2009-06-03T12:23:21Z</time>
      </trkpt>
      <trkpt lat="45.5934" lon="5.94109">
        <ele>390</ele>
        <time>2009-06-03T12:23:24Z</time>
      </trkpt>
      <trkpt lat="45.59352" lon="5.94111">
        <ele>390</ele>
        <time>2009-06-03T12:23:27Z</time>
      </trkpt>
      <trkpt lat="45.59362" lon="5.94112">
        <ele>390</ele>
        <time>2009-06-03T12:23:30Z</time>
      </trkpt>
      <trkpt lat="45.59373" lon="5.94112">
        <ele>390</ele>
        <time>2009-06-03T12:23:33Z</time>
      </trkpt>
      <trkpt lat="45.59384" lon="5.9411">
        <ele>390</ele>
        <time>2009-06-03T12:23:36Z</time>
      </trkpt>
      <trkpt lat="45.59394" lon="5.9411">
        <ele>390</ele>
        <time>2009-06-03T12:23:39Z</time>
      </trkpt>
      <trkpt lat="45.59405" lon="5.94109">
        <ele>390</ele>
        <time>2009-06-03T12:23:43Z</time>
      </trkpt>
      <trkpt lat="45.59416" lon="5.94107">
        <ele>397</ele>
        <time>2009-06-03T12:23:47Z</time>
      </trkpt>
      <trkpt lat="45.5943" lon="5.94106">
        <ele>397</ele>
        <time>2009-06-03T12:23:51Z</time>
      </trkpt>
      <trkpt lat="45.5944" lon="5.94106">
        <ele>397</ele>
        <time>2009-06-03T12:23:53Z</time>
      </trkpt>
      <trkpt lat="45.59449" lon="5.94108">
        <ele>404</ele>
        <time>2009-06-03T12:23:56Z</time>
      </trkpt>
      <trkpt lat="45.59458" lon="5.94108">
        <ele>412</ele>
        <time>2009-06-03T12:23:59Z</time>
      </trkpt>
      <trkpt lat="45.5947" lon="5.94105">
        <ele>412</ele>
        <time>2009-06-03T12:24:03Z</time>
      </trkpt>
      <trkpt lat="45.59481" lon="5.94104">
        <ele>412</ele>
        <time>2009-06-03T12:24:07Z</time>
      </trkpt>
      <trkpt lat="45.59492" lon="5.94099">
        <ele>412</ele>
        <time>2009-06-03T12:24:10Z</time>
      </trkpt>
      <trkpt lat="45.59505" lon="5.94101">
        <ele>412</ele>
        <time>2009-06-03T12:24:13Z</time>
      </trkpt>
      <trkpt lat="45.59516" lon="5.94095">
        <ele>412</ele>
        <time>2009-06-03T12:24:16Z</time>
      </trkpt>
      <trkpt lat="45.59525" lon="5.94091">
        <ele>412</ele>
        <time>2009-06-03T12:24:19Z</time>
      </trkpt>
      <trkpt lat="45.59537" lon="5.94086">
        <ele>406</ele>
        <time>2009-06-03T12:24:22Z</time>
      </trkpt>
      <trkpt lat="45.5955" lon="5.94083">
        <ele>406</ele>
        <time>2009-06-03T12:24:25Z</time>
      </trkpt>
      <trkpt lat="45.59561" lon="5.9408">
        <ele>406</ele>
        <time>2009-06-03T12:24:28Z</time>
      </trkpt>
      <trkpt lat="45.59572" lon="5.94078">
        <ele>406</ele>
        <time>2009-06-03T12:24:31Z</time>
      </trkpt>
      <trkpt lat="45.59583" lon="5.94077">
        <ele>406</ele>
        <time>2009-06-03T12:24:33Z</time>
      </trkpt>
      <trkpt lat="45.59592" lon="5.94074">
        <ele>406</ele>
        <time>2009-06-03T12:24:35Z</time>
      </trkpt>
      <trkpt lat="45.59606" lon="5.94072">
        <ele>400</ele>
        <time>2009-06-03T12:24:38Z</time>
      </trkpt>
      <trkpt lat="45.59615" lon="5.94071">
        <ele>400</ele>
        <time>2009-06-03T12:24:40Z</time>
      </trkpt>
      <trkpt lat="45.59635" lon="5.94076">
        <ele>400</ele>
        <time>2009-06-03T12:24:45Z</time>
      </trkpt>
      <trkpt lat="45.59636" lon="5.94091">
        <ele>400</ele>
        <time>2009-06-03T12:24:50Z</time>
      </trkpt>
      <trkpt lat="45.5963" lon="5.94102">
        <ele>400</ele>
        <time>2009-06-03T12:24:53Z</time>
      </trkpt>
      <trkpt lat="45.59638" lon="5.94089">
        <ele>408</ele>
        <time>2009-06-03T12:25:08Z</time>
      </trkpt>
      <trkpt lat="45.59655" lon="5.9408">
        <ele>408</ele>
        <time>2009-06-03T12:25:14Z</time>
      </trkpt>
      <trkpt lat="45.59665" lon="5.94084">
        <ele>408</ele>
        <time>2009-06-03T12:25:17Z</time>
      </trkpt>
      <trkpt lat="45.59678" lon="5.94085">
        <ele>408</ele>
        <time>2009-06-03T12:25:21Z</time>
      </trkpt>
      <trkpt lat="45.5969" lon="5.94086">
        <ele>408</ele>
        <time>2009-06-03T12:25:25Z</time>
      </trkpt>
      <trkpt lat="45.59699" lon="5.94085">
        <ele>408</ele>
        <time>2009-06-03T12:25:28Z</time>
      </trkpt>
      <trkpt lat="45.5971" lon="5.94085">
        <ele>408</ele>
        <time>2009-06-03T12:25:32Z</time>
      </trkpt>
      <trkpt lat="45.5972" lon="5.94079">
        <ele>397</ele>
        <time>2009-06-03T12:25:36Z</time>
      </trkpt>
      <trkpt lat="45.59729" lon="5.94083">
        <ele>397</ele>
        <time>2009-06-03T12:25:38Z</time>
      </trkpt>
      <trkpt lat="45.5974" lon="5.94089">
        <ele>397</ele>
        <time>2009-06-03T12:25:42Z</time>
      </trkpt>
      <trkpt lat="45.5975" lon="5.94084">
        <ele>406</ele>
        <time>2009-06-03T12:25:47Z</time>
      </trkpt>
      <trkpt lat="45.5976" lon="5.94086">
        <ele>406</ele>
        <time>2009-06-03T12:25:49Z</time>
      </trkpt>
      <trkpt lat="45.5977" lon="5.94088">
        <ele>401</ele>
        <time>2009-06-03T12:25:53Z</time>
      </trkpt>
      <trkpt lat="45.5978" lon="5.94088">
        <ele>401</ele>
        <time>2009-06-03T12:25:58Z</time>
      </trkpt>
      <trkpt lat="45.59793" lon="5.94088">
        <ele>412</ele>
        <time>2009-06-03T12:26:03Z</time>
      </trkpt>
      <trkpt lat="45.59803" lon="5.94086">
        <ele>422</ele>
        <time>2009-06-03T12:26:06Z</time>
      </trkpt>
      <trkpt lat="45.59814" lon="5.9409">
        <ele>422</ele>
        <time>2009-06-03T12:26:09Z</time>
      </trkpt>
      <trkpt lat="45.59824" lon="5.94094">
        <ele>422</ele>
        <time>2009-06-03T12:26:12Z</time>
      </trkpt>
      <trkpt lat="45.59834" lon="5.94097">
        <ele>422</ele>
        <time>2009-06-03T12:26:16Z</time>
      </trkpt>
      <trkpt lat="45.59844" lon="5.94099">
        <ele>422</ele>
        <time>2009-06-03T12:26:21Z</time>
      </trkpt>
      <trkpt lat="45.59854" lon="5.94095">
        <ele>422</ele>
        <time>2009-06-03T12:26:28Z</time>
      </trkpt>
      <trkpt lat="45.59863" lon="5.94099">
        <ele>422</ele>
        <time>2009-06-03T12:26:32Z</time>
      </trkpt>
      <trkpt lat="45.59875" lon="5.94105">
        <ele>422</ele>
        <time>2009-06-03T12:26:37Z</time>
      </trkpt>
      <trkpt lat="45.59885" lon="5.94113">
        <ele>422</ele>
        <time>2009-06-03T12:26:40Z</time>
      </trkpt>
      <trkpt lat="45.59894" lon="5.94124">
        <ele>416</ele>
        <time>2009-06-03T12:26:44Z</time>
      </trkpt>
      <trkpt lat="45.59902" lon="5.94135">
        <ele>416</ele>
        <time>2009-06-03T12:26:48Z</time>
      </trkpt>
      <trkpt lat="45.59912" lon="5.94144">
        <ele>422</ele>
        <time>2009-06-03T12:26:53Z</time>
      </trkpt>
      <trkpt lat="45.59923" lon="5.94157">
        <ele>427</ele>
        <time>2009-06-03T12:26:58Z</time>
      </trkpt>
      <trkpt lat="45.59932" lon="5.94166">
        <ele>427</ele>
        <time>2009-06-03T12:27:00Z</time>
      </trkpt>
      <trkpt lat="45.59941" lon="5.94175">
        <ele>448</ele>
        <time>2009-06-03T12:27:17Z</time>
      </trkpt>
      <trkpt lat="45.59945" lon="5.94188">
        <ele>448</ele>
        <time>2009-06-03T12:27:20Z</time>
      </trkpt>
      <trkpt lat="45.59941" lon="5.94204">
        <ele>453</ele>
        <time>2009-06-03T12:27:23Z</time>
      </trkpt>
      <trkpt lat="45.5994" lon="5.94219">
        <ele>453</ele>
        <time>2009-06-03T12:27:25Z</time>
      </trkpt>
      <trkpt lat="45.5993" lon="5.94263">
        <ele>448</ele>
        <time>2009-06-03T12:27:29Z</time>
      </trkpt>
      <trkpt lat="45.59927" lon="5.94279">
        <ele>448</ele>
        <time>2009-06-03T12:27:30Z</time>
      </trkpt>
      <trkpt lat="45.59921" lon="5.943">
        <ele>443</ele>
        <time>2009-06-03T12:27:33Z</time>
      </trkpt>
      <trkpt lat="45.5993" lon="5.94305">
        <ele>431</ele>
        <time>2009-06-03T12:27:35Z</time>
      </trkpt>
      <trkpt lat="45.59941" lon="5.9431">
        <ele>425</ele>
        <time>2009-06-03T12:27:38Z</time>
      </trkpt>
      <trkpt lat="45.5995" lon="5.94316">
        <ele>425</ele>
        <time>2009-06-03T12:27:43Z</time>
      </trkpt>
      <trkpt lat="45.59956" lon="5.94327">
        <ele>431</ele>
        <time>2009-06-03T12:27:52Z</time>
      </trkpt>
      <trkpt lat="45.59966" lon="5.94331">
        <ele>431</ele>
        <time>2009-06-03T12:27:56Z</time>
      </trkpt>
      <trkpt lat="45.59974" lon="5.94343">
        <ele>431</ele>
        <time>2009-06-03T12:28:02Z</time>
      </trkpt>
      <trkpt lat="45.59982" lon="5.94351">
        <ele>438</ele>
        <time>2009-06-03T12:28:06Z</time>
      </trkpt>
      <trkpt lat="45.59988" lon="5.94362">
        <ele>438</ele>
        <time>2009-06-03T12:28:12Z</time>
      </trkpt>
      <trkpt lat="45.59994" lon="5.94374">
        <ele>438</ele>
        <time>2009-06-03T12:28:18Z</time>
      </trkpt>
      <trkpt lat="45.60002" lon="5.94383">
        <ele>438</ele>
        <time>2009-06-03T12:28:21Z</time>
      </trkpt>
      <trkpt lat="45.60009" lon="5.94393">
        <ele>438</ele>
        <time>2009-06-03T12:28:26Z</time>
      </trkpt>
      <trkpt lat="45.60017" lon="5.94404">
        <ele>438</ele>
        <time>2009-06-03T12:28:31Z</time>
      </trkpt>
      <trkpt lat="45.60024" lon="5.94413">
        <ele>438</ele>
        <time>2009-06-03T12:28:33Z</time>
      </trkpt>
      <trkpt lat="45.60032" lon="5.94421">
        <ele>438</ele>
        <time>2009-06-03T12:28:38Z</time>
      </trkpt>
      <trkpt lat="45.6004" lon="5.94435">
        <ele>444</ele>
        <time>2009-06-03T12:28:45Z</time>
      </trkpt>
      <trkpt lat="45.60047" lon="5.94445">
        <ele>471</ele>
        <time>2009-06-03T12:28:56Z</time>
      </trkpt>
      <trkpt lat="45.60053" lon="5.94456">
        <ele>471</ele>
        <time>2009-06-03T12:29:00Z</time>
      </trkpt>
      <trkpt lat="45.60064" lon="5.94466">
        <ele>462</ele>
        <time>2009-06-03T12:29:04Z</time>
      </trkpt>
      <trkpt lat="45.60072" lon="5.94472">
        <ele>462</ele>
        <time>2009-06-03T12:29:08Z</time>
      </trkpt>
      <trkpt lat="45.6008" lon="5.94485">
        <ele>462</ele>
        <time>2009-06-03T12:29:14Z</time>
      </trkpt>
      <trkpt lat="45.60088" lon="5.94493">
        <ele>462</ele>
        <time>2009-06-03T12:29:17Z</time>
      </trkpt>
      <trkpt lat="45.60097" lon="5.94502">
        <ele>470</ele>
        <time>2009-06-03T12:29:24Z</time>
      </trkpt>
      <trkpt lat="45.60104" lon="5.94512">
        <ele>470</ele>
        <time>2009-06-03T12:29:30Z</time>
      </trkpt>
      <trkpt lat="45.6011" lon="5.94522">
        <ele>477</ele>
        <time>2009-06-03T12:29:37Z</time>
      </trkpt>
      <trkpt lat="45.60118" lon="5.94529">
        <ele>482</ele>
        <time>2009-06-03T12:29:42Z</time>
      </trkpt>
      <trkpt lat="45.60124" lon="5.94539">
        <ele>489</ele>
        <time>2009-06-03T12:29:51Z</time>
      </trkpt>
      <trkpt lat="45.60131" lon="5.94549">
        <ele>489</ele>
        <time>2009-06-03T12:29:57Z</time>
      </trkpt>
      <trkpt lat="45.60138" lon="5.94558">
        <ele>489</ele>
        <time>2009-06-03T12:30:00Z</time>
      </trkpt>
      <trkpt lat="45.60146" lon="5.94569">
        <ele>489</ele>
        <time>2009-06-03T12:30:03Z</time>
      </trkpt>
      <trkpt lat="45.60151" lon="5.94581">
        <ele>495</ele>
        <time>2009-06-03T12:30:08Z</time>
      </trkpt>
      <trkpt lat="45.6016" lon="5.9459">
        <ele>495</ele>
        <time>2009-06-03T12:30:13Z</time>
      </trkpt>
      <trkpt lat="45.60167" lon="5.94603">
        <ele>495</ele>
        <time>2009-06-03T12:30:18Z</time>
      </trkpt>
      <trkpt lat="45.60171" lon="5.94616">
        <ele>495</ele>
        <time>2009-06-03T12:30:24Z</time>
      </trkpt>
      <trkpt lat="45.60177" lon="5.94629">
        <ele>495</ele>
        <time>2009-06-03T12:30:28Z</time>
      </trkpt>
      <trkpt lat="45.60179" lon="5.94645">
        <ele>495</ele>
        <time>2009-06-03T12:30:33Z</time>
      </trkpt>
      <trkpt lat="45.60181" lon="5.94661">
        <ele>495</ele>
        <time>2009-06-03T12:30:39Z</time>
      </trkpt>
      <trkpt lat="45.60188" lon="5.94672">
        <ele>495</ele>
        <time>2009-06-03T12:30:42Z</time>
      </trkpt>
      <trkpt lat="45.60192" lon="5.94686">
        <ele>495</ele>
        <time>2009-06-03T12:30:46Z</time>
      </trkpt>
      <trkpt lat="45.60192" lon="5.94699">
        <ele>495</ele>
        <time>2009-06-03T12:30:52Z</time>
      </trkpt>
      <trkpt lat="45.60195" lon="5.94714">
        <ele>495</ele>
        <time>2009-06-03T12:30:59Z</time>
      </trkpt>
      <trkpt lat="45.60202" lon="5.94725">
        <ele>495</ele>
        <time>2009-06-03T12:31:03Z</time>
      </trkpt>
      <trkpt lat="45.60209" lon="5.94734">
        <ele>495</ele>
        <time>2009-06-03T12:31:09Z</time>
      </trkpt>
      <trkpt lat="45.60217" lon="5.94743">
        <ele>495</ele>
        <time>2009-06-03T12:31:11Z</time>
      </trkpt>
      <trkpt lat="45.60223" lon="5.94755">
        <ele>495</ele>
        <time>2009-06-03T12:31:16Z</time>
      </trkpt>
      <trkpt lat="45.60228" lon="5.94767">
        <ele>495</ele>
        <time>2009-06-03T12:31:20Z</time>
      </trkpt>
      <trkpt lat="45.60228" lon="5.9478">
        <ele>501</ele>
        <time>2009-06-03T12:31:32Z</time>
      </trkpt>
      <trkpt lat="45.60236" lon="5.94787">
        <ele>501</ele>
        <time>2009-06-03T12:31:35Z</time>
      </trkpt>
      <trkpt lat="45.60245" lon="5.94795">
        <ele>501</ele>
        <time>2009-06-03T12:31:37Z</time>
      </trkpt>
      <trkpt lat="45.60256" lon="5.94806">
        <ele>501</ele>
        <time>2009-06-03T12:31:40Z</time>
      </trkpt>
      <trkpt lat="45.60261" lon="5.9482">
        <ele>501</ele>
        <time>2009-06-03T12:31:46Z</time>
      </trkpt>
      <trkpt lat="45.60252" lon="5.94827">
        <ele>501</ele>
        <time>2009-06-03T12:31:50Z</time>
      </trkpt>
      <trkpt lat="45.60253" lon="5.9484">
        <ele>501</ele>
        <time>2009-06-03T12:31:58Z</time>
      </trkpt>
      <trkpt lat="45.60262" lon="5.94847">
        <ele>501</ele>
        <time>2009-06-03T12:32:01Z</time>
      </trkpt>
      <trkpt lat="45.60271" lon="5.94855">
        <ele>501</ele>
        <time>2009-06-03T12:32:03Z</time>
      </trkpt>
      <trkpt lat="45.6028" lon="5.94866">
        <ele>501</ele>
        <time>2009-06-03T12:32:08Z</time>
      </trkpt>
      <trkpt lat="45.60279" lon="5.94882">
        <ele>501</ele>
        <time>2009-06-03T12:32:20Z</time>
      </trkpt>
      <trkpt lat="45.60293" lon="5.94893">
        <ele>501</ele>
        <time>2009-06-03T12:32:22Z</time>
      </trkpt>
      <trkpt lat="45.60298" lon="5.94907">
        <ele>501</ele>
        <time>2009-06-03T12:32:26Z</time>
      </trkpt>
      <trkpt lat="45.60306" lon="5.94919">
        <ele>501</ele>
        <time>2009-06-03T12:32:29Z</time>
      </trkpt>
      <trkpt lat="45.60312" lon="5.9493">
        <ele>501</ele>
        <time>2009-06-03T12:32:33Z</time>
      </trkpt>
      <trkpt lat="45.60321" lon="5.94941">
        <ele>501</ele>
        <time>2009-06-03T12:32:36Z</time>
      </trkpt>
      <trkpt lat="45.60332" lon="5.94952">
        <ele>501</ele>
        <time>2009-06-03T12:32:40Z</time>
      </trkpt>
      <trkpt lat="45.60339" lon="5.94961">
        <ele>501</ele>
        <time>2009-06-03T12:32:43Z</time>
      </trkpt>
      <trkpt lat="45.60342" lon="5.94973">
        <ele>501</ele>
        <time>2009-06-03T12:32:48Z</time>
      </trkpt>
      <trkpt lat="45.60348" lon="5.94983">
        <ele>501</ele>
        <time>2009-06-03T12:32:52Z</time>
      </trkpt>
      <trkpt lat="45.60358" lon="5.9499">
        <ele>501</ele>
        <time>2009-06-03T12:32:54Z</time>
      </trkpt>
      <trkpt lat="45.60349" lon="5.94988">
        <ele>493</ele>
        <time>2009-06-03T12:33:03Z</time>
      </trkpt>
      <trkpt lat="45.6037" lon="5.94988">
        <ele>493</ele>
        <time>2009-06-03T12:33:11Z</time>
      </trkpt>
      <trkpt lat="45.60379" lon="5.94996">
        <ele>493</ele>
        <time>2009-06-03T12:33:14Z</time>
      </trkpt>
      <trkpt lat="45.6039" lon="5.94998">
        <ele>493</ele>
        <time>2009-06-03T12:33:18Z</time>
      </trkpt>
      <trkpt lat="45.60389" lon="5.94974">
        <ele>493</ele>
        <time>2009-06-03T12:33:29Z</time>
      </trkpt>
      <trkpt lat="45.60387" lon="5.94959">
        <ele>493</ele>
        <time>2009-06-03T12:33:32Z</time>
      </trkpt>
      <trkpt lat="45.60382" lon="5.9494">
        <ele>493</ele>
        <time>2009-06-03T12:33:34Z</time>
      </trkpt>
      <trkpt lat="45.60377" lon="5.94925">
        <ele>493</ele>
        <time>2009-06-03T12:33:36Z</time>
      </trkpt>
      <trkpt lat="45.60373" lon="5.94912">
        <ele>500</ele>
        <time>2009-06-03T12:33:38Z</time>
      </trkpt>
      <trkpt lat="45.60374" lon="5.94897">
        <ele>500</ele>
        <time>2009-06-03T12:33:42Z</time>
      </trkpt>
      <trkpt lat="45.60378" lon="5.94881">
        <ele>500</ele>
        <time>2009-06-03T12:33:47Z</time>
      </trkpt>
      <trkpt lat="45.60378" lon="5.94867">
        <ele>494</ele>
        <time>2009-06-03T12:33:53Z</time>
      </trkpt>
      <trkpt lat="45.60375" lon="5.9485">
        <ele>494</ele>
        <time>2009-06-03T12:33:58Z</time>
      </trkpt>
      <trkpt lat="45.60378" lon="5.94837">
        <ele>487</ele>
        <time>2009-06-03T12:34:04Z</time>
      </trkpt>
      <trkpt lat="45.60387" lon="5.94828">
        <ele>487</ele>
        <time>2009-06-03T12:34:08Z</time>
      </trkpt>
      <trkpt lat="45.60394" lon="5.94816">
        <ele>487</ele>
        <time>2009-06-03T12:34:12Z</time>
      </trkpt>
      <trkpt lat="45.604" lon="5.94805">
        <ele>487</ele>
        <time>2009-06-03T12:34:18Z</time>
      </trkpt>
      <trkpt lat="45.60413" lon="5.94813">
        <ele>487</ele>
        <time>2009-06-03T12:34:21Z</time>
      </trkpt>
      <trkpt lat="45.60423" lon="5.94818">
        <ele>487</ele>
        <time>2009-06-03T12:34:23Z</time>
      </trkpt>
      <trkpt lat="45.6043" lon="5.94827">
        <ele>487</ele>
        <time>2009-06-03T12:34:28Z</time>
      </trkpt>
      <trkpt lat="45.60443" lon="5.94839">
        <ele>487</ele>
        <time>2009-06-03T12:34:33Z</time>
      </trkpt>
      <trkpt lat="45.60452" lon="5.94846">
        <ele>495</ele>
        <time>2009-06-03T12:34:45Z</time>
      </trkpt>
      <trkpt lat="45.6046" lon="5.94853">
        <ele>495</ele>
        <time>2009-06-03T12:34:48Z</time>
      </trkpt>
      <trkpt lat="45.6047" lon="5.94858">
        <ele>495</ele>
        <time>2009-06-03T12:34:54Z</time>
      </trkpt>
      <trkpt lat="45.6048" lon="5.94858">
        <ele>495</ele>
        <time>2009-06-03T12:34:58Z</time>
      </trkpt>
      <trkpt lat="45.6049" lon="5.94856">
        <ele>495</ele>
        <time>2009-06-03T12:35:04Z</time>
      </trkpt>
      <trkpt lat="45.605" lon="5.94856">
        <ele>495</ele>
        <time>2009-06-03T12:35:07Z</time>
      </trkpt>
      <trkpt lat="45.60509" lon="5.94852">
        <ele>500</ele>
        <time>2009-06-03T12:35:10Z</time>
      </trkpt>
      <trkpt lat="45.60517" lon="5.94844">
        <ele>500</ele>
        <time>2009-06-03T12:35:15Z</time>
      </trkpt>
      <trkpt lat="45.60525" lon="5.94836">
        <ele>500</ele>
        <time>2009-06-03T12:35:20Z</time>
      </trkpt>
      <trkpt lat="45.60534" lon="5.94829">
        <ele>500</ele>
        <time>2009-06-03T12:35:24Z</time>
      </trkpt>
      <trkpt lat="45.60542" lon="5.9482">
        <ele>500</ele>
        <time>2009-06-03T12:35:29Z</time>
      </trkpt>
      <trkpt lat="45.60551" lon="5.94812">
        <ele>500</ele>
        <time>2009-06-03T12:35:33Z</time>
      </trkpt>
      <trkpt lat="45.60556" lon="5.94801">
        <ele>500</ele>
        <time>2009-06-03T12:35:38Z</time>
      </trkpt>
      <trkpt lat="45.60558" lon="5.94784">
        <ele>506</ele>
        <time>2009-06-03T12:35:43Z</time>
      </trkpt>
      <trkpt lat="45.60564" lon="5.94774">
        <ele>506</ele>
        <time>2009-06-03T12:35:48Z</time>
      </trkpt>
      <trkpt lat="45.60572" lon="5.94765">
        <ele>506</ele>
        <time>2009-06-03T12:35:53Z</time>
      </trkpt>
      <trkpt lat="45.60582" lon="5.94758">
        <ele>506</ele>
        <time>2009-06-03T12:35:57Z</time>
      </trkpt>
      <trkpt lat="45.6059" lon="5.94751">
        <ele>506</ele>
        <time>2009-06-03T12:36:01Z</time>
      </trkpt>
      <trkpt lat="45.60597" lon="5.94736">
        <ele>506</ele>
        <time>2009-06-03T12:36:08Z</time>
      </trkpt>
      <trkpt lat="45.60606" lon="5.9473">
        <ele>506</ele>
        <time>2009-06-03T12:36:12Z</time>
      </trkpt>
      <trkpt lat="45.60611" lon="5.94717">
        <ele>506</ele>
        <time>2009-06-03T12:36:16Z</time>
      </trkpt>
      <trkpt lat="45.60617" lon="5.94705">
        <ele>506</ele>
        <time>2009-06-03T12:36:21Z</time>
      </trkpt>
      <trkpt lat="45.60623" lon="5.94695">
        <ele>506</ele>
        <time>2009-06-03T12:36:25Z</time>
      </trkpt>
      <trkpt lat="45.60628" lon="5.9468">
        <ele>516</ele>
        <time>2009-06-03T12:36:30Z</time>
      </trkpt>
      <trkpt lat="45.60635" lon="5.94671">
        <ele>516</ele>
        <time>2009-06-03T12:36:34Z</time>
      </trkpt>
      <trkpt lat="45.60643" lon="5.94664">
        <ele>516</ele>
        <time>2009-06-03T12:36:38Z</time>
      </trkpt>
      <trkpt lat="45.60651" lon="5.94652">
        <ele>516</ele>
        <time>2009-06-03T12:36:43Z</time>
      </trkpt>
      <trkpt lat="45.60658" lon="5.94643">
        <ele>516</ele>
        <time>2009-06-03T12:36:48Z</time>
      </trkpt>
      <trkpt lat="45.60667" lon="5.94638">
        <ele>516</ele>
        <time>2009-06-03T12:36:53Z</time>
      </trkpt>
      <trkpt lat="45.60671" lon="5.94625">
        <ele>516</ele>
        <time>2009-06-03T12:36:58Z</time>
      </trkpt>
      <trkpt lat="45.60678" lon="5.94614">
        <ele>525</ele>
        <time>2009-06-03T12:37:03Z</time>
      </trkpt>
      <trkpt lat="45.60684" lon="5.94602">
        <ele>525</ele>
        <time>2009-06-03T12:37:07Z</time>
      </trkpt>
      <trkpt lat="45.60692" lon="5.9459">
        <ele>525</ele>
        <time>2009-06-03T12:37:12Z</time>
      </trkpt>
      <trkpt lat="45.60701" lon="5.94585">
        <ele>525</ele>
        <time>2009-06-03T12:37:16Z</time>
      </trkpt>
      <trkpt lat="45.60704" lon="5.94572">
        <ele>525</ele>
        <time>2009-06-03T12:37:22Z</time>
      </trkpt>
      <trkpt lat="45.60712" lon="5.94562">
        <ele>525</ele>
        <time>2009-06-03T12:37:29Z</time>
      </trkpt>
      <trkpt lat="45.60717" lon="5.94549">
        <ele>532</ele>
        <time>2009-06-03T12:37:34Z</time>
      </trkpt>
      <trkpt lat="45.6072" lon="5.94535">
        <ele>532</ele>
        <time>2009-06-03T12:37:38Z</time>
      </trkpt>
      <trkpt lat="45.60712" lon="5.94545">
        <ele>545</ele>
        <time>2009-06-03T12:37:52Z</time>
      </trkpt>
      <trkpt lat="45.60706" lon="5.94556">
        <ele>545</ele>
        <time>2009-06-03T12:37:57Z</time>
      </trkpt>
      <trkpt lat="45.60705" lon="5.94572">
        <ele>550</ele>
        <time>2009-06-03T12:38:03Z</time>
      </trkpt>
      <trkpt lat="45.60705" lon="5.9459">
        <ele>550</ele>
        <time>2009-06-03T12:38:09Z</time>
      </trkpt>
      <trkpt lat="45.60703" lon="5.94605">
        <ele>550</ele>
        <time>2009-06-03T12:38:14Z</time>
      </trkpt>
      <trkpt lat="45.60705" lon="5.9462">
        <ele>550</ele>
        <time>2009-06-03T12:38:19Z</time>
      </trkpt>
      <trkpt lat="45.60714" lon="5.9463">
        <ele>550</ele>
        <time>2009-06-03T12:38:22Z</time>
      </trkpt>
      <trkpt lat="45.60722" lon="5.94643">
        <ele>550</ele>
        <time>2009-06-03T12:38:26Z</time>
      </trkpt>
      <trkpt lat="45.6072" lon="5.94658">
        <ele>550</ele>
        <time>2009-06-03T12:38:31Z</time>
      </trkpt>
      <trkpt lat="45.60712" lon="5.94666">
        <ele>550</ele>
        <time>2009-06-03T12:38:35Z</time>
      </trkpt>
      <trkpt lat="45.60716" lon="5.94682">
        <ele>550</ele>
        <time>2009-06-03T12:38:43Z</time>
      </trkpt>
      <trkpt lat="45.60707" lon="5.94688">
        <ele>550</ele>
        <time>2009-06-03T12:38:46Z</time>
      </trkpt>
      <trkpt lat="45.6071" lon="5.94704">
        <ele>550</ele>
        <time>2009-06-03T12:38:51Z</time>
      </trkpt>
      <trkpt lat="45.60699" lon="5.94718">
        <ele>550</ele>
        <time>2009-06-03T12:38:58Z</time>
      </trkpt>
      <trkpt lat="45.60691" lon="5.94726">
        <ele>550</ele>
        <time>2009-06-03T12:39:01Z</time>
      </trkpt>
      <trkpt lat="45.60694" lon="5.94739">
        <ele>550</ele>
        <time>2009-06-03T12:39:04Z</time>
      </trkpt>
      <trkpt lat="45.60698" lon="5.94753">
        <ele>550</ele>
        <time>2009-06-03T12:39:08Z</time>
      </trkpt>
      <trkpt lat="45.60694" lon="5.94766">
        <ele>550</ele>
        <time>2009-06-03T12:39:14Z</time>
      </trkpt>
      <trkpt lat="45.60691" lon="5.94778">
        <ele>550</ele>
        <time>2009-06-03T12:39:19Z</time>
      </trkpt>
      <trkpt lat="45.60684" lon="5.94793">
        <ele>557</ele>
        <time>2009-06-03T12:39:24Z</time>
      </trkpt>
      <trkpt lat="45.60684" lon="5.94807">
        <ele>557</ele>
        <time>2009-06-03T12:39:29Z</time>
      </trkpt>
      <trkpt lat="45.60685" lon="5.9482">
        <ele>557</ele>
        <time>2009-06-03T12:39:33Z</time>
      </trkpt>
      <trkpt lat="45.60685" lon="5.94835">
        <ele>557</ele>
        <time>2009-06-03T12:39:38Z</time>
      </trkpt>
      <trkpt lat="45.6069" lon="5.94847">
        <ele>557</ele>
        <time>2009-06-03T12:39:41Z</time>
      </trkpt>
      <trkpt lat="45.60693" lon="5.9486">
        <ele>557</ele>
        <time>2009-06-03T12:39:45Z</time>
      </trkpt>
      <trkpt lat="45.60696" lon="5.94873">
        <ele>557</ele>
        <time>2009-06-03T12:39:49Z</time>
      </trkpt>
      <trkpt lat="45.60704" lon="5.94888">
        <ele>557</ele>
        <time>2009-06-03T12:39:53Z</time>
      </trkpt>
      <trkpt lat="45.60707" lon="5.94902">
        <ele>557</ele>
        <time>2009-06-03T12:39:57Z</time>
      </trkpt>
      <trkpt lat="45.60706" lon="5.94916">
        <ele>565</ele>
        <time>2009-06-03T12:40:04Z</time>
      </trkpt>
      <trkpt lat="45.60695" lon="5.94921">
        <ele>565</ele>
        <time>2009-06-03T12:40:10Z</time>
      </trkpt>
      <trkpt lat="45.60689" lon="5.94932">
        <ele>565</ele>
        <time>2009-06-03T12:40:15Z</time>
      </trkpt>
      <trkpt lat="45.60681" lon="5.94943">
        <ele>565</ele>
        <time>2009-06-03T12:40:20Z</time>
      </trkpt>
      <trkpt lat="45.60673" lon="5.94953">
        <ele>565</ele>
        <time>2009-06-03T12:40:25Z</time>
      </trkpt>
      <trkpt lat="45.60675" lon="5.94967">
        <ele>565</ele>
        <time>2009-06-03T12:40:29Z</time>
      </trkpt>
      <trkpt lat="45.60684" lon="5.94966">
        <ele>565</ele>
        <time>2009-06-03T12:40:36Z</time>
      </trkpt>
      <trkpt lat="45.60693" lon="5.9496">
        <ele>577</ele>
        <time>2009-06-03T12:40:41Z</time>
      </trkpt>
      <trkpt lat="45.60701" lon="5.94949">
        <ele>577</ele>
        <time>2009-06-03T12:40:51Z</time>
      </trkpt>
      <trkpt lat="45.60712" lon="5.9495">
        <ele>577</ele>
        <time>2009-06-03T12:40:56Z</time>
      </trkpt>
      <trkpt lat="45.60721" lon="5.94942">
        <ele>577</ele>
        <time>2009-06-03T12:41:01Z</time>
      </trkpt>
      <trkpt lat="45.60727" lon="5.9493">
        <ele>577</ele>
        <time>2009-06-03T12:41:05Z</time>
      </trkpt>
      <trkpt lat="45.6074" lon="5.94925">
        <ele>577</ele>
        <time>2009-06-03T12:41:13Z</time>
      </trkpt>
      <trkpt lat="45.6075" lon="5.94921">
        <ele>577</ele>
        <time>2009-06-03T12:41:17Z</time>
      </trkpt>
      <trkpt lat="45.60762" lon="5.94915">
        <ele>577</ele>
        <time>2009-06-03T12:41:22Z</time>
      </trkpt>
      <trkpt lat="45.6077" lon="5.94904">
        <ele>577</ele>
        <time>2009-06-03T12:41:27Z</time>
      </trkpt>
      <trkpt lat="45.6078" lon="5.94901">
        <ele>577</ele>
        <time>2009-06-03T12:41:34Z</time>
      </trkpt>
      <trkpt lat="45.60786" lon="5.94888">
        <ele>577</ele>
        <time>2009-06-03T12:41:39Z</time>
      </trkpt>
      <trkpt lat="45.60797" lon="5.94873">
        <ele>577</ele>
        <time>2009-06-03T12:41:46Z</time>
      </trkpt>
      <trkpt lat="45.60797" lon="5.94857">
        <ele>577</ele>
        <time>2009-06-03T12:41:50Z</time>
      </trkpt>
      <trkpt lat="45.60807" lon="5.9485">
        <ele>566</ele>
        <time>2009-06-03T12:41:57Z</time>
      </trkpt>
      <trkpt lat="45.60815" lon="5.94842">
        <ele>566</ele>
        <time>2009-06-03T12:42:02Z</time>
      </trkpt>
      <trkpt lat="45.6082" lon="5.9483">
        <ele>556</ele>
        <time>2009-06-03T12:42:08Z</time>
      </trkpt>
      <trkpt lat="45.60824" lon="5.94815">
        <ele>556</ele>
        <time>2009-06-03T12:42:14Z</time>
      </trkpt>
      <trkpt lat="45.60829" lon="5.94801">
        <ele>556</ele>
        <time>2009-06-03T12:42:18Z</time>
      </trkpt>
      <trkpt lat="45.60822" lon="5.94809">
        <ele>571</ele>
        <time>2009-06-03T12:42:30Z</time>
      </trkpt>
      <trkpt lat="45.60813" lon="5.9482">
        <ele>576</ele>
        <time>2009-06-03T12:42:37Z</time>
      </trkpt>
      <trkpt lat="45.60817" lon="5.94833">
        <ele>576</ele>
        <time>2009-06-03T12:42:40Z</time>
      </trkpt>
      <trkpt lat="45.60824" lon="5.94842">
        <ele>576</ele>
        <time>2009-06-03T12:42:42Z</time>
      </trkpt>
      <trkpt lat="45.60827" lon="5.94856">
        <ele>576</ele>
        <time>2009-06-03T12:42:48Z</time>
      </trkpt>
      <trkpt lat="45.60823" lon="5.94871">
        <ele>581</ele>
        <time>2009-06-03T12:42:55Z</time>
      </trkpt>
      <trkpt lat="45.6082" lon="5.94883">
        <ele>586</ele>
        <time>2009-06-03T12:43:01Z</time>
      </trkpt>
      <trkpt lat="45.60823" lon="5.94899">
        <ele>586</ele>
        <time>2009-06-03T12:43:06Z</time>
      </trkpt>
      <trkpt lat="45.60819" lon="5.94918">
        <ele>586</ele>
        <time>2009-06-03T12:43:17Z</time>
      </trkpt>
      <trkpt lat="45.60808" lon="5.9493">
        <ele>586</ele>
        <time>2009-06-03T12:43:23Z</time>
      </trkpt>
      <trkpt lat="45.60819" lon="5.94934">
        <ele>586</ele>
        <time>2009-06-03T12:43:37Z</time>
      </trkpt>
      <trkpt lat="45.60829" lon="5.94932">
        <ele>586</ele>
        <time>2009-06-03T12:43:41Z</time>
      </trkpt>
      <trkpt lat="45.60832" lon="5.94918">
        <ele>586</ele>
        <time>2009-06-03T12:43:46Z</time>
      </trkpt>
      <trkpt lat="45.60841" lon="5.94918">
        <ele>586</ele>
        <time>2009-06-03T12:43:49Z</time>
      </trkpt>
      <trkpt lat="45.6085" lon="5.94908">
        <ele>586</ele>
        <time>2009-06-03T12:43:56Z</time>
      </trkpt>
      <trkpt lat="45.60859" lon="5.94901">
        <ele>586</ele>
        <time>2009-06-03T12:44:00Z</time>
      </trkpt>
      <trkpt lat="45.60868" lon="5.94893">
        <ele>586</ele>
        <time>2009-06-03T12:44:04Z</time>
      </trkpt>
      <trkpt lat="45.60866" lon="5.94877">
        <ele>597</ele>
        <time>2009-06-03T12:44:09Z</time>
      </trkpt>
      <trkpt lat="45.60869" lon="5.94863">
        <ele>603</ele>
        <time>2009-06-03T12:44:13Z</time>
      </trkpt>
      <trkpt lat="45.60877" lon="5.94856">
        <ele>603</ele>
        <time>2009-06-03T12:44:18Z</time>
      </trkpt>
      <trkpt lat="45.60889" lon="5.94854">
        <ele>603</ele>
        <time>2009-06-03T12:44:24Z</time>
      </trkpt>
      <trkpt lat="45.60892" lon="5.94841">
        <ele>603</ele>
        <time>2009-06-03T12:44:29Z</time>
      </trkpt>
      <trkpt lat="45.609" lon="5.94834">
        <ele>598</ele>
        <time>2009-06-03T12:44:34Z</time>
      </trkpt>
      <trkpt lat="45.60906" lon="5.94823">
        <ele>598</ele>
        <time>2009-06-03T12:44:39Z</time>
      </trkpt>
      <trkpt lat="45.60915" lon="5.94815">
        <ele>605</ele>
        <time>2009-06-03T12:44:45Z</time>
      </trkpt>
      <trkpt lat="45.60927" lon="5.9481">
        <ele>605</ele>
        <time>2009-06-03T12:44:51Z</time>
      </trkpt>
      <trkpt lat="45.60935" lon="5.94803">
        <ele>605</ele>
        <time>2009-06-03T12:45:00Z</time>
      </trkpt>
      <trkpt lat="45.60943" lon="5.94812">
        <ele>599</ele>
        <time>2009-06-03T12:45:03Z</time>
      </trkpt>
      <trkpt lat="45.60954" lon="5.94811">
        <ele>599</ele>
        <time>2009-06-03T12:45:08Z</time>
      </trkpt>
      <trkpt lat="45.60963" lon="5.94806">
        <ele>607</ele>
        <time>2009-06-03T12:45:11Z</time>
      </trkpt>
      <trkpt lat="45.60965" lon="5.94791">
        <ele>621</ele>
        <time>2009-06-03T12:45:16Z</time>
      </trkpt>
      <trkpt lat="45.60968" lon="5.94776">
        <ele>621</ele>
        <time>2009-06-03T12:45:21Z</time>
      </trkpt>
      <trkpt lat="45.60978" lon="5.94775">
        <ele>621</ele>
        <time>2009-06-03T12:45:26Z</time>
      </trkpt>
      <trkpt lat="45.60984" lon="5.94762">
        <ele>626</ele>
        <time>2009-06-03T12:45:32Z</time>
      </trkpt>
      <trkpt lat="45.60985" lon="5.94747">
        <ele>626</ele>
        <time>2009-06-03T12:45:37Z</time>
      </trkpt>
      <trkpt lat="45.60993" lon="5.94735">
        <ele>626</ele>
        <time>2009-06-03T12:45:43Z</time>
      </trkpt>
      <trkpt lat="45.60997" lon="5.94721">
        <ele>626</ele>
        <time>2009-06-03T12:45:49Z</time>
      </trkpt>
      <trkpt lat="45.61002" lon="5.94707">
        <ele>626</ele>
        <time>2009-06-03T12:45:55Z</time>
      </trkpt>
      <trkpt lat="45.61008" lon="5.94696">
        <ele>626</ele>
        <time>2009-06-03T12:46:01Z</time>
      </trkpt>
      <trkpt lat="45.61008" lon="5.9468">
        <ele>636</ele>
        <time>2009-06-03T12:46:06Z</time>
      </trkpt>
      <trkpt lat="45.61013" lon="5.94668">
        <ele>645</ele>
        <time>2009-06-03T12:46:13Z</time>
      </trkpt>
      <trkpt lat="45.61022" lon="5.9466">
        <ele>645</ele>
        <time>2009-06-03T12:46:18Z</time>
      </trkpt>
      <trkpt lat="45.6103" lon="5.9465">
        <ele>645</ele>
        <time>2009-06-03T12:46:24Z</time>
      </trkpt>
      <trkpt lat="45.61035" lon="5.94634">
        <ele>650</ele>
        <time>2009-06-03T12:46:30Z</time>
      </trkpt>
      <trkpt lat="45.61041" lon="5.94622">
        <ele>650</ele>
        <time>2009-06-03T12:46:36Z</time>
      </trkpt>
      <trkpt lat="45.61044" lon="5.94608">
        <ele>650</ele>
        <time>2009-06-03T12:46:41Z</time>
      </trkpt>
      <trkpt lat="45.61055" lon="5.94597">
        <ele>650</ele>
        <time>2009-06-03T12:46:50Z</time>
      </trkpt>
      <trkpt lat="45.61066" lon="5.94598">
        <ele>650</ele>
        <time>2009-06-03T12:46:53Z</time>
      </trkpt>
      <trkpt lat="45.61074" lon="5.94589">
        <ele>650</ele>
        <time>2009-06-03T12:46:59Z</time>
      </trkpt>
      <trkpt lat="45.61082" lon="5.94581">
        <ele>650</ele>
        <time>2009-06-03T12:47:03Z</time>
      </trkpt>
      <trkpt lat="45.61087" lon="5.9457">
        <ele>650</ele>
        <time>2009-06-03T12:47:08Z</time>
      </trkpt>
      <trkpt lat="45.61093" lon="5.94559">
        <ele>656</ele>
        <time>2009-06-03T12:47:13Z</time>
      </trkpt>
      <trkpt lat="45.611" lon="5.94548">
        <ele>664</ele>
        <time>2009-06-03T12:47:19Z</time>
      </trkpt>
      <trkpt lat="45.61105" lon="5.94535">
        <ele>664</ele>
        <time>2009-06-03T12:47:24Z</time>
      </trkpt>
      <trkpt lat="45.61105" lon="5.94519">
        <ele>674</ele>
        <time>2009-06-03T12:47:30Z</time>
      </trkpt>
      <trkpt lat="45.61112" lon="5.94503">
        <ele>684</ele>
        <time>2009-06-03T12:47:37Z</time>
      </trkpt>
      <trkpt lat="45.61116" lon="5.94489">
        <ele>684</ele>
        <time>2009-06-03T12:47:41Z</time>
      </trkpt>
      <trkpt lat="45.61122" lon="5.94478">
        <ele>674</ele>
        <time>2009-06-03T12:47:47Z</time>
      </trkpt>
      <trkpt lat="45.61125" lon="5.94465">
        <ele>674</ele>
        <time>2009-06-03T12:47:51Z</time>
      </trkpt>
      <trkpt lat="45.61131" lon="5.94452">
        <ele>674</ele>
        <time>2009-06-03T12:47:56Z</time>
      </trkpt>
      <trkpt lat="45.61141" lon="5.94454">
        <ele>666</ele>
        <time>2009-06-03T12:48:01Z</time>
      </trkpt>
      <trkpt lat="45.61151" lon="5.94457">
        <ele>666</ele>
        <time>2009-06-03T12:48:03Z</time>
      </trkpt>
      <trkpt lat="45.61164" lon="5.9447">
        <ele>666</ele>
        <time>2009-06-03T12:48:08Z</time>
      </trkpt>
      <trkpt lat="45.61162" lon="5.94484">
        <ele>666</ele>
        <time>2009-06-03T12:48:13Z</time>
      </trkpt>
      <trkpt lat="45.61164" lon="5.94498">
        <ele>666</ele>
        <time>2009-06-03T12:48:18Z</time>
      </trkpt>
      <trkpt lat="45.61167" lon="5.9451">
        <ele>660</ele>
        <time>2009-06-03T12:48:22Z</time>
      </trkpt>
      <trkpt lat="45.6116" lon="5.94521">
        <ele>660</ele>
        <time>2009-06-03T12:48:26Z</time>
      </trkpt>
      <trkpt lat="45.61162" lon="5.94536">
        <ele>660</ele>
        <time>2009-06-03T12:48:31Z</time>
      </trkpt>
      <trkpt lat="45.61165" lon="5.94548">
        <ele>660</ele>
        <time>2009-06-03T12:48:35Z</time>
      </trkpt>
      <trkpt lat="45.61165" lon="5.94563">
        <ele>660</ele>
        <time>2009-06-03T12:48:41Z</time>
      </trkpt>
      <trkpt lat="45.61167" lon="5.94579">
        <ele>660</ele>
        <time>2009-06-03T12:48:47Z</time>
      </trkpt>
      <trkpt lat="45.61174" lon="5.9459">
        <ele>660</ele>
        <time>2009-06-03T12:48:51Z</time>
      </trkpt>
      <trkpt lat="45.61172" lon="5.94606">
        <ele>660</ele>
        <time>2009-06-03T12:48:57Z</time>
      </trkpt>
      <trkpt lat="45.61174" lon="5.9462">
        <ele>660</ele>
        <time>2009-06-03T12:49:02Z</time>
      </trkpt>
      <trkpt lat="45.61175" lon="5.94634">
        <ele>660</ele>
        <time>2009-06-03T12:49:07Z</time>
      </trkpt>
      <trkpt lat="45.61174" lon="5.94647">
        <ele>660</ele>
        <time>2009-06-03T12:49:13Z</time>
      </trkpt>
      <trkpt lat="45.61177" lon="5.94663">
        <ele>660</ele>
        <time>2009-06-03T12:49:19Z</time>
      </trkpt>
      <trkpt lat="45.61183" lon="5.94677">
        <ele>660</ele>
        <time>2009-06-03T12:49:24Z</time>
      </trkpt>
      <trkpt lat="45.61184" lon="5.94691">
        <ele>660</ele>
        <time>2009-06-03T12:49:30Z</time>
      </trkpt>
      <trkpt lat="45.61181" lon="5.94705">
        <ele>660</ele>
        <time>2009-06-03T12:49:37Z</time>
      </trkpt>
      <trkpt lat="45.6118" lon="5.94721">
        <ele>660</ele>
        <time>2009-06-03T12:49:43Z</time>
      </trkpt>
      <trkpt lat="45.61184" lon="5.94732">
        <ele>660</ele>
        <time>2009-06-03T12:49:47Z</time>
      </trkpt>
      <trkpt lat="45.61191" lon="5.94744">
        <ele>660</ele>
        <time>2009-06-03T12:49:51Z</time>
      </trkpt>
      <trkpt lat="45.61189" lon="5.94758">
        <ele>660</ele>
        <time>2009-06-03T12:49:57Z</time>
      </trkpt>
      <trkpt lat="45.61199" lon="5.94749">
        <ele>666</ele>
        <time>2009-06-03T12:50:08Z</time>
      </trkpt>
      <trkpt lat="45.61208" lon="5.9474">
        <ele>666</ele>
        <time>2009-06-03T12:50:15Z</time>
      </trkpt>
      <trkpt lat="45.61209" lon="5.94726">
        <ele>666</ele>
        <time>2009-06-03T12:50:20Z</time>
      </trkpt>
      <trkpt lat="45.61212" lon="5.94714">
        <ele>666</ele>
        <time>2009-06-03T12:50:25Z</time>
      </trkpt>
      <trkpt lat="45.61218" lon="5.94702">
        <ele>666</ele>
        <time>2009-06-03T12:50:30Z</time>
      </trkpt>
      <trkpt lat="45.61213" lon="5.94689">
        <ele>666</ele>
        <time>2009-06-03T12:50:36Z</time>
      </trkpt>
      <trkpt lat="45.61213" lon="5.94672">
        <ele>666</ele>
        <time>2009-06-03T12:50:42Z</time>
      </trkpt>
      <trkpt lat="45.61221" lon="5.94665">
        <ele>671</ele>
        <time>2009-06-03T12:50:46Z</time>
      </trkpt>
      <trkpt lat="45.6123" lon="5.94656">
        <ele>671</ele>
        <time>2009-06-03T12:50:51Z</time>
      </trkpt>
      <trkpt lat="45.61233" lon="5.94643">
        <ele>681</ele>
        <time>2009-06-03T12:50:57Z</time>
      </trkpt>
      <trkpt lat="45.61244" lon="5.94641">
        <ele>681</ele>
        <time>2009-06-03T12:51:01Z</time>
      </trkpt>
      <trkpt lat="45.6125" lon="5.9463">
        <ele>681</ele>
        <time>2009-06-03T12:51:07Z</time>
      </trkpt>
      <trkpt lat="45.61259" lon="5.94627">
        <ele>681</ele>
        <time>2009-06-03T12:51:16Z</time>
      </trkpt>
      <trkpt lat="45.61271" lon="5.94622">
        <ele>690</ele>
        <time>2009-06-03T12:51:25Z</time>
      </trkpt>
      <trkpt lat="45.61279" lon="5.94615">
        <ele>690</ele>
        <time>2009-06-03T12:51:31Z</time>
      </trkpt>
      <trkpt lat="45.61293" lon="5.94618">
        <ele>690</ele>
        <time>2009-06-03T12:51:36Z</time>
      </trkpt>
      <trkpt lat="45.61302" lon="5.94621">
        <ele>683</ele>
        <time>2009-06-03T12:51:40Z</time>
      </trkpt>
      <trkpt lat="45.61311" lon="5.94613">
        <ele>683</ele>
        <time>2009-06-03T12:51:48Z</time>
      </trkpt>
      <trkpt lat="45.61322" lon="5.94612">
        <ele>683</ele>
        <time>2009-06-03T12:51:53Z</time>
      </trkpt>
      <trkpt lat="45.61332" lon="5.94612">
        <ele>688</ele>
        <time>2009-06-03T12:51:56Z</time>
      </trkpt>
      <trkpt lat="45.61343" lon="5.94605">
        <ele>695</ele>
        <time>2009-06-03T12:52:07Z</time>
      </trkpt>
      <trkpt lat="45.61353" lon="5.94606">
        <ele>703</ele>
        <time>2009-06-03T12:52:12Z</time>
      </trkpt>
      <trkpt lat="45.61363" lon="5.94608">
        <ele>711</ele>
        <time>2009-06-03T12:52:16Z</time>
      </trkpt>
      <trkpt lat="45.61372" lon="5.94609">
        <ele>711</ele>
        <time>2009-06-03T12:52:19Z</time>
      </trkpt>
      <trkpt lat="45.61382" lon="5.9461">
        <ele>730</ele>
        <time>2009-06-03T12:52:27Z</time>
      </trkpt>
      <trkpt lat="45.61392" lon="5.94616">
        <ele>730</ele>
        <time>2009-06-03T12:52:35Z</time>
      </trkpt>
      <trkpt lat="45.61404" lon="5.94622">
        <ele>730</ele>
        <time>2009-06-03T12:52:40Z</time>
      </trkpt>
      <trkpt lat="45.61414" lon="5.94624">
        <ele>741</ele>
        <time>2009-06-03T12:52:45Z</time>
      </trkpt>
      <trkpt lat="45.61424" lon="5.94622">
        <ele>755</ele>
        <time>2009-06-03T12:52:55Z</time>
      </trkpt>
      <trkpt lat="45.61439" lon="5.94628">
        <ele>755</ele>
        <time>2009-06-03T12:53:02Z</time>
      </trkpt>
      <trkpt lat="45.61448" lon="5.94635">
        <ele>755</ele>
        <time>2009-06-03T12:53:04Z</time>
      </trkpt>
      <trkpt lat="45.6146" lon="5.94641">
        <ele>755</ele>
        <time>2009-06-03T12:53:11Z</time>
      </trkpt>
      <trkpt lat="45.61498" lon="5.94662">
        <ele>734</ele>
        <time>2009-06-03T12:53:26Z</time>
      </trkpt>
      <trkpt lat="45.6151" lon="5.94662">
        <ele>734</ele>
        <time>2009-06-03T12:53:31Z</time>
      </trkpt>
      <trkpt lat="45.61525" lon="5.94667">
        <ele>734</ele>
        <time>2009-06-03T12:53:36Z</time>
      </trkpt>
      <trkpt lat="45.61535" lon="5.94676">
        <ele>745</ele>
        <time>2009-06-03T12:53:42Z</time>
      </trkpt>
      <trkpt lat="45.61545" lon="5.94687">
        <ele>745</ele>
        <time>2009-06-03T12:53:47Z</time>
      </trkpt>
      <trkpt lat="45.61553" lon="5.94697">
        <ele>753</ele>
        <time>2009-06-03T12:53:54Z</time>
      </trkpt>
      <trkpt lat="45.6156" lon="5.94707">
        <ele>753</ele>
        <time>2009-06-03T12:53:57Z</time>
      </trkpt>
      <trkpt lat="45.61568" lon="5.94718">
        <ele>743</ele>
        <time>2009-06-03T12:54:00Z</time>
      </trkpt>
      <trkpt lat="45.61574" lon="5.94728">
        <ele>743</ele>
        <time>2009-06-03T12:54:04Z</time>
      </trkpt>
      <trkpt lat="45.61585" lon="5.94738">
        <ele>738</ele>
        <time>2009-06-03T12:54:08Z</time>
      </trkpt>
      <trkpt lat="45.61586" lon="5.94751">
        <ele>755</ele>
        <time>2009-06-03T12:54:19Z</time>
      </trkpt>
      <trkpt lat="45.61597" lon="5.94761">
        <ele>755</ele>
        <time>2009-06-03T12:54:23Z</time>
      </trkpt>
      <trkpt lat="45.61603" lon="5.94771">
        <ele>766</ele>
        <time>2009-06-03T12:54:29Z</time>
      </trkpt>
      <trkpt lat="45.61612" lon="5.94781">
        <ele>766</ele>
        <time>2009-06-03T12:54:36Z</time>
      </trkpt>
      <trkpt lat="45.61621" lon="5.94793">
        <ele>766</ele>
        <time>2009-06-03T12:54:41Z</time>
      </trkpt>
      <trkpt lat="45.61631" lon="5.94803">
        <ele>759</ele>
        <time>2009-06-03T12:54:44Z</time>
      </trkpt>
      <trkpt lat="45.61635" lon="5.94816">
        <ele>753</ele>
        <time>2009-06-03T12:54:47Z</time>
      </trkpt>
      <trkpt lat="45.61641" lon="5.94828">
        <ele>753</ele>
        <time>2009-06-03T12:54:53Z</time>
      </trkpt>
      <trkpt lat="45.6165" lon="5.94837">
        <ele>753</ele>
        <time>2009-06-03T12:54:56Z</time>
      </trkpt>
      <trkpt lat="45.61661" lon="5.94846">
        <ele>753</ele>
        <time>2009-06-03T12:55:03Z</time>
      </trkpt>
      <trkpt lat="45.6167" lon="5.94852">
        <ele>745</ele>
        <time>2009-06-03T12:55:10Z</time>
      </trkpt>
      <trkpt lat="45.61682" lon="5.94855">
        <ele>735</ele>
        <time>2009-06-03T12:55:16Z</time>
      </trkpt>
      <trkpt lat="45.61692" lon="5.94859">
        <ele>735</ele>
        <time>2009-06-03T12:55:22Z</time>
      </trkpt>
      <trkpt lat="45.61702" lon="5.94859">
        <ele>746</ele>
        <time>2009-06-03T12:55:26Z</time>
      </trkpt>
      <trkpt lat="45.61711" lon="5.94864">
        <ele>761</ele>
        <time>2009-06-03T12:55:36Z</time>
      </trkpt>
      <trkpt lat="45.61723" lon="5.94873">
        <ele>767</ele>
        <time>2009-06-03T12:55:43Z</time>
      </trkpt>
      <trkpt lat="45.61734" lon="5.94876">
        <ele>774</ele>
        <time>2009-06-03T12:55:48Z</time>
      </trkpt>
      <trkpt lat="45.61745" lon="5.94883">
        <ele>784</ele>
        <time>2009-06-03T12:55:54Z</time>
      </trkpt>
      <trkpt lat="45.6175" lon="5.94895">
        <ele>784</ele>
        <time>2009-06-03T12:55:58Z</time>
      </trkpt>
      <trkpt lat="45.61757" lon="5.94907">
        <ele>784</ele>
        <time>2009-06-03T12:56:06Z</time>
      </trkpt>
      <trkpt lat="45.61764" lon="5.94916">
        <ele>784</ele>
        <time>2009-06-03T12:56:12Z</time>
      </trkpt>
      <trkpt lat="45.61773" lon="5.9492">
        <ele>778</ele>
        <time>2009-06-03T12:56:16Z</time>
      </trkpt>
      <trkpt lat="45.61781" lon="5.94928">
        <ele>772</ele>
        <time>2009-06-03T12:56:20Z</time>
      </trkpt>
      <trkpt lat="45.61792" lon="5.9493">
        <ele>780</ele>
        <time>2009-06-03T12:56:26Z</time>
      </trkpt>
      <trkpt lat="45.61795" lon="5.94916">
        <ele>796</ele>
        <time>2009-06-03T12:56:36Z</time>
      </trkpt>
      <trkpt lat="45.61805" lon="5.94915">
        <ele>779</ele>
        <time>2009-06-03T12:56:40Z</time>
      </trkpt>
      <trkpt lat="45.61805" lon="5.94899">
        <ele>779</ele>
        <time>2009-06-03T12:56:44Z</time>
      </trkpt>
      <trkpt lat="45.61803" lon="5.94883">
        <ele>773</ele>
        <time>2009-06-03T12:56:48Z</time>
      </trkpt>
      <trkpt lat="45.61805" lon="5.94868">
        <ele>786</ele>
        <time>2009-06-03T12:56:52Z</time>
      </trkpt>
      <trkpt lat="45.61811" lon="5.94856">
        <ele>786</ele>
        <time>2009-06-03T12:56:56Z</time>
      </trkpt>
      <trkpt lat="45.6182" lon="5.9486">
        <ele>768</ele>
        <time>2009-06-03T12:57:03Z</time>
      </trkpt>
      <trkpt lat="45.6183" lon="5.94852">
        <ele>768</ele>
        <time>2009-06-03T12:57:09Z</time>
      </trkpt>
      <trkpt lat="45.61843" lon="5.94846">
        <ele>774</ele>
        <time>2009-06-03T12:57:14Z</time>
      </trkpt>
      <trkpt lat="45.61856" lon="5.94842">
        <ele>774</ele>
        <time>2009-06-03T12:57:21Z</time>
      </trkpt>
      <trkpt lat="45.61867" lon="5.94844">
        <ele>766</ele>
        <time>2009-06-03T12:57:26Z</time>
      </trkpt>
      <trkpt lat="45.61878" lon="5.94843">
        <ele>766</ele>
        <time>2009-06-03T12:57:29Z</time>
      </trkpt>
      <trkpt lat="45.61887" lon="5.94841">
        <ele>766</ele>
        <time>2009-06-03T12:57:36Z</time>
      </trkpt>
      <trkpt lat="45.61897" lon="5.94839">
        <ele>766</ele>
        <time>2009-06-03T12:57:39Z</time>
      </trkpt>
      <trkpt lat="45.61912" lon="5.94841">
        <ele>766</ele>
        <time>2009-06-03T12:57:47Z</time>
      </trkpt>
      <trkpt lat="45.61922" lon="5.94837">
        <ele>774</ele>
        <time>2009-06-03T12:57:52Z</time>
      </trkpt>
      <trkpt lat="45.61932" lon="5.94846">
        <ele>774</ele>
        <time>2009-06-03T12:57:57Z</time>
      </trkpt>
      <trkpt lat="45.61941" lon="5.94849">
        <ele>774</ele>
        <time>2009-06-03T12:58:03Z</time>
      </trkpt>
      <trkpt lat="45.61952" lon="5.94855">
        <ele>774</ele>
        <time>2009-06-03T12:58:06Z</time>
      </trkpt>
      <trkpt lat="45.61962" lon="5.94863">
        <ele>797</ele>
        <time>2009-06-03T12:58:19Z</time>
      </trkpt>
      <trkpt lat="45.61971" lon="5.94877">
        <ele>797</ele>
        <time>2009-06-03T12:58:25Z</time>
      </trkpt>
      <trkpt lat="45.61979" lon="5.9489">
        <ele>797</ele>
        <time>2009-06-03T12:58:31Z</time>
      </trkpt>
      <trkpt lat="45.61989" lon="5.94894">
        <ele>797</ele>
        <time>2009-06-03T12:58:37Z</time>
      </trkpt>
      <trkpt lat="45.61997" lon="5.94901">
        <ele>783</ele>
        <time>2009-06-03T12:58:40Z</time>
      </trkpt>
      <trkpt lat="45.62009" lon="5.94903">
        <ele>783</ele>
        <time>2009-06-03T12:58:46Z</time>
      </trkpt>
      <trkpt lat="45.6202" lon="5.94902">
        <ele>783</ele>
        <time>2009-06-03T12:58:51Z</time>
      </trkpt>
      <trkpt lat="45.62032" lon="5.94901">
        <ele>793</ele>
        <time>2009-06-03T12:58:59Z</time>
      </trkpt>
      <trkpt lat="45.62047" lon="5.94901">
        <ele>793</ele>
        <time>2009-06-03T12:59:05Z</time>
      </trkpt>
      <trkpt lat="45.62056" lon="5.94907">
        <ele>783</ele>
        <time>2009-06-03T12:59:08Z</time>
      </trkpt>
      <trkpt lat="45.62066" lon="5.94909">
        <ele>783</ele>
        <time>2009-06-03T12:59:12Z</time>
      </trkpt>
      <trkpt lat="45.62075" lon="5.9491">
        <ele>783</ele>
        <time>2009-06-03T12:59:16Z</time>
      </trkpt>
      <trkpt lat="45.62085" lon="5.94915">
        <ele>794</ele>
        <time>2009-06-03T12:59:24Z</time>
      </trkpt>
      <trkpt lat="45.62095" lon="5.9492">
        <ele>794</ele>
        <time>2009-06-03T12:59:28Z</time>
      </trkpt>
      <trkpt lat="45.62104" lon="5.94927">
        <ele>794</ele>
        <time>2009-06-03T12:59:34Z</time>
      </trkpt>
      <trkpt lat="45.62113" lon="5.94932">
        <ele>811</ele>
        <time>2009-06-03T12:59:41Z</time>
      </trkpt>
      <trkpt lat="45.62122" lon="5.94937">
        <ele>811</ele>
        <time>2009-06-03T12:59:46Z</time>
      </trkpt>
      <trkpt lat="45.6213" lon="5.94943">
        <ele>811</ele>
        <time>2009-06-03T12:59:50Z</time>
      </trkpt>
      <trkpt lat="45.62141" lon="5.94943">
        <ele>821</ele>
        <time>2009-06-03T12:59:56Z</time>
      </trkpt>
      <trkpt lat="45.62151" lon="5.94945">
        <ele>821</ele>
        <time>2009-06-03T13:00:01Z</time>
      </trkpt>
      <trkpt lat="45.62161" lon="5.9495">
        <ele>812</ele>
        <time>2009-06-03T13:00:06Z</time>
      </trkpt>
      <trkpt lat="45.6217" lon="5.94958">
        <ele>803</ele>
        <time>2009-06-03T13:00:09Z</time>
      </trkpt>
      <trkpt lat="45.62179" lon="5.94961">
        <ele>803</ele>
        <time>2009-06-03T13:00:12Z</time>
      </trkpt>
      <trkpt lat="45.62188" lon="5.94964">
        <ele>798</ele>
        <time>2009-06-03T13:00:15Z</time>
      </trkpt>
      <trkpt lat="45.62199" lon="5.94965">
        <ele>803</ele>
        <time>2009-06-03T13:00:20Z</time>
      </trkpt>
      <trkpt lat="45.62208" lon="5.94963">
        <ele>816</ele>
        <time>2009-06-03T13:00:26Z</time>
      </trkpt>
      <trkpt lat="45.62219" lon="5.94966">
        <ele>816</ele>
        <time>2009-06-03T13:00:31Z</time>
      </trkpt>
      <trkpt lat="45.62229" lon="5.9497">
        <ele>816</ele>
        <time>2009-06-03T13:00:34Z</time>
      </trkpt>
      <trkpt lat="45.6224" lon="5.9497">
        <ele>809</ele>
        <time>2009-06-03T13:00:40Z</time>
      </trkpt>
      <trkpt lat="45.62239" lon="5.94957">
        <ele>847</ele>
        <time>2009-06-03T13:01:09Z</time>
      </trkpt>
      <trkpt lat="45.62247" lon="5.94963">
        <ele>842</ele>
        <time>2009-06-03T13:01:15Z</time>
      </trkpt>
      <trkpt lat="45.62256" lon="5.94972">
        <ele>842</ele>
        <time>2009-06-03T13:01:26Z</time>
      </trkpt>
      <trkpt lat="45.62265" lon="5.94981">
        <ele>842</ele>
        <time>2009-06-03T13:01:42Z</time>
      </trkpt>
      <trkpt lat="45.6227" lon="5.94996">
        <ele>842</ele>
        <time>2009-06-03T13:01:48Z</time>
      </trkpt>
      <trkpt lat="45.62279" lon="5.95004">
        <ele>830</ele>
        <time>2009-06-03T13:01:51Z</time>
      </trkpt>
      <trkpt lat="45.62278" lon="5.95017">
        <ele>830</ele>
        <time>2009-06-03T13:02:03Z</time>
      </trkpt>
      <trkpt lat="45.62287" lon="5.95025">
        <ele>816</ele>
        <time>2009-06-03T13:02:07Z</time>
      </trkpt>
      <trkpt lat="45.62292" lon="5.95038">
        <ele>803</ele>
        <time>2009-06-03T13:02:13Z</time>
      </trkpt>
      <trkpt lat="45.62287" lon="5.95051">
        <ele>803</ele>
        <time>2009-06-03T13:02:20Z</time>
      </trkpt>
      <trkpt lat="45.62282" lon="5.95064">
        <ele>796</ele>
        <time>2009-06-03T13:02:28Z</time>
      </trkpt>
      <trkpt lat="45.62274" lon="5.95072">
        <ele>812</ele>
        <time>2009-06-03T13:02:36Z</time>
      </trkpt>
      <trkpt lat="45.62268" lon="5.95082">
        <ele>820</ele>
        <time>2009-06-03T13:02:45Z</time>
      </trkpt>
      <trkpt lat="45.62265" lon="5.95095">
        <ele>820</ele>
        <time>2009-06-03T13:03:02Z</time>
      </trkpt>
      <trkpt lat="45.62258" lon="5.95108">
        <ele>820</ele>
        <time>2009-06-03T13:03:08Z</time>
      </trkpt>
      <trkpt lat="45.62249" lon="5.95116">
        <ele>820</ele>
        <time>2009-06-03T13:03:13Z</time>
      </trkpt>
      <trkpt lat="45.62267" lon="5.95133">
        <ele>808</ele>
        <time>2009-06-03T13:03:29Z</time>
      </trkpt>
      <trkpt lat="45.62258" lon="5.9514">
        <ele>808</ele>
        <time>2009-06-03T13:03:54Z</time>
      </trkpt>
      <trkpt lat="45.62249" lon="5.95147">
        <ele>829</ele>
        <time>2009-06-03T13:04:05Z</time>
      </trkpt>
      <trkpt lat="45.6224" lon="5.95151">
        <ele>844</ele>
        <time>2009-06-03T13:04:13Z</time>
      </trkpt>
      <trkpt lat="45.62239" lon="5.95164">
        <ele>849</ele>
        <time>2009-06-03T13:04:23Z</time>
      </trkpt>
      <trkpt lat="45.62226" lon="5.95168">
        <ele>849</ele>
        <time>2009-06-03T13:04:34Z</time>
      </trkpt>
      <trkpt lat="45.62214" lon="5.95166">
        <ele>849</ele>
        <time>2009-06-03T13:04:36Z</time>
      </trkpt>
      <trkpt lat="45.62205" lon="5.95167">
        <ele>849</ele>
        <time>2009-06-03T13:04:38Z</time>
      </trkpt>
      <trkpt lat="45.62194" lon="5.9517">
        <ele>841</ele>
        <time>2009-06-03T13:04:42Z</time>
      </trkpt>
      <trkpt lat="45.62184" lon="5.95171">
        <ele>841</ele>
        <time>2009-06-03T13:04:45Z</time>
      </trkpt>
      <trkpt lat="45.62178" lon="5.95184">
        <ele>841</ele>
        <time>2009-06-03T13:04:50Z</time>
      </trkpt>
      <trkpt lat="45.62181" lon="5.95199">
        <ele>833</ele>
        <time>2009-06-03T13:04:53Z</time>
      </trkpt>
      <trkpt lat="45.62183" lon="5.95211">
        <ele>833</ele>
        <time>2009-06-03T13:04:57Z</time>
      </trkpt>
      <trkpt lat="45.62178" lon="5.95222">
        <ele>833</ele>
        <time>2009-06-03T13:05:04Z</time>
      </trkpt>
      <trkpt lat="45.62166" lon="5.95222">
        <ele>833</ele>
        <time>2009-06-03T13:05:11Z</time>
      </trkpt>
      <trkpt lat="45.62157" lon="5.95226">
        <ele>838</ele>
        <time>2009-06-03T13:05:17Z</time>
      </trkpt>
      <trkpt lat="45.62148" lon="5.95233">
        <ele>838</ele>
        <time>2009-06-03T13:05:22Z</time>
      </trkpt>
      <trkpt lat="45.62136" lon="5.95235">
        <ele>838</ele>
        <time>2009-06-03T13:05:27Z</time>
      </trkpt>
      <trkpt lat="45.62134" lon="5.9525">
        <ele>838</ele>
        <time>2009-06-03T13:05:35Z</time>
      </trkpt>
      <trkpt lat="45.62125" lon="5.95257">
        <ele>850</ele>
        <time>2009-06-03T13:05:43Z</time>
      </trkpt>
      <trkpt lat="45.62117" lon="5.95264">
        <ele>861</ele>
        <time>2009-06-03T13:05:53Z</time>
      </trkpt>
      <trkpt lat="45.62118" lon="5.95278">
        <ele>861</ele>
        <time>2009-06-03T13:06:01Z</time>
      </trkpt>
      <trkpt lat="45.62111" lon="5.95291">
        <ele>861</ele>
        <time>2009-06-03T13:06:09Z</time>
      </trkpt>
      <trkpt lat="45.62102" lon="5.95304">
        <ele>861</ele>
        <time>2009-06-03T13:06:16Z</time>
      </trkpt>
      <trkpt lat="45.62098" lon="5.95316">
        <ele>873</ele>
        <time>2009-06-03T13:06:25Z</time>
      </trkpt>
      <trkpt lat="45.62101" lon="5.95329">
        <ele>864</ele>
        <time>2009-06-03T13:06:31Z</time>
      </trkpt>
      <trkpt lat="45.62095" lon="5.95341">
        <ele>864</ele>
        <time>2009-06-03T13:06:37Z</time>
      </trkpt>
      <trkpt lat="45.62091" lon="5.95355">
        <ele>859</ele>
        <time>2009-06-03T13:06:45Z</time>
      </trkpt>
      <trkpt lat="45.62091" lon="5.95369">
        <ele>859</ele>
        <time>2009-06-03T13:06:52Z</time>
      </trkpt>
      <trkpt lat="45.62083" lon="5.95376">
        <ele>859</ele>
        <time>2009-06-03T13:06:56Z</time>
      </trkpt>
      <trkpt lat="45.62072" lon="5.95383">
        <ele>869</ele>
        <time>2009-06-03T13:07:03Z</time>
      </trkpt>
      <trkpt lat="45.62066" lon="5.95394">
        <ele>876</ele>
        <time>2009-06-03T13:07:11Z</time>
      </trkpt>
      <trkpt lat="45.62068" lon="5.95408">
        <ele>868</ele>
        <time>2009-06-03T13:07:23Z</time>
      </trkpt>
      <trkpt lat="45.62062" lon="5.95419">
        <ele>868</ele>
        <time>2009-06-03T13:07:32Z</time>
      </trkpt>
      <trkpt lat="45.62055" lon="5.95427">
        <ele>863</ele>
        <time>2009-06-03T13:07:39Z</time>
      </trkpt>
      <trkpt lat="45.62045" lon="5.9543">
        <ele>857</ele>
        <time>2009-06-03T13:07:49Z</time>
      </trkpt>
      <trkpt lat="45.62035" lon="5.95426">
        <ele>857</ele>
        <time>2009-06-03T13:08:00Z</time>
      </trkpt>
      <trkpt lat="45.62026" lon="5.95422">
        <ele>850</ele>
        <time>2009-06-03T13:08:05Z</time>
      </trkpt>
      <trkpt lat="45.62016" lon="5.95419">
        <ele>862</ele>
        <time>2009-06-03T13:08:12Z</time>
      </trkpt>
      <trkpt lat="45.62006" lon="5.95419">
        <ele>876</ele>
        <time>2009-06-03T13:08:14Z</time>
      </trkpt>
      <trkpt lat="45.61996" lon="5.95419">
        <ele>889</ele>
        <time>2009-06-03T13:08:17Z</time>
      </trkpt>
      <trkpt lat="45.61986" lon="5.95417">
        <ele>902</ele>
        <time>2009-06-03T13:08:23Z</time>
      </trkpt>
      <trkpt lat="45.61978" lon="5.95423">
        <ele>908</ele>
        <time>2009-06-03T13:08:32Z</time>
      </trkpt>
      <trkpt lat="45.6197" lon="5.95416">
        <ele>923</ele>
        <time>2009-06-03T13:08:39Z</time>
      </trkpt>
      <trkpt lat="45.61962" lon="5.95427">
        <ele>906</ele>
        <time>2009-06-03T13:08:47Z</time>
      </trkpt>
      <trkpt lat="45.61953" lon="5.95428">
        <ele>906</ele>
        <time>2009-06-03T13:08:50Z</time>
      </trkpt>
      <trkpt lat="45.61945" lon="5.95437">
        <ele>911</ele>
        <time>2009-06-03T13:08:56Z</time>
      </trkpt>
      <trkpt lat="45.61941" lon="5.9545">
        <ele>911</ele>
        <time>2009-06-03T13:09:06Z</time>
      </trkpt>
      <trkpt lat="45.6194" lon="5.95465">
        <ele>903</ele>
        <time>2009-06-03T13:09:12Z</time>
      </trkpt>
      <trkpt lat="45.61941" lon="5.95482">
        <ele>903</ele>
        <time>2009-06-03T13:09:18Z</time>
      </trkpt>
      <trkpt lat="45.61945" lon="5.95495">
        <ele>890</ele>
        <time>2009-06-03T13:09:22Z</time>
      </trkpt>
      <trkpt lat="45.61936" lon="5.95504">
        <ele>890</ele>
        <time>2009-06-03T13:09:27Z</time>
      </trkpt>
      <trkpt lat="45.61934" lon="5.95518">
        <ele>890</ele>
        <time>2009-06-03T13:09:35Z</time>
      </trkpt>
      <trkpt lat="45.61928" lon="5.95529">
        <ele>890</ele>
        <time>2009-06-03T13:09:41Z</time>
      </trkpt>
      <trkpt lat="45.61927" lon="5.95543">
        <ele>890</ele>
        <time>2009-06-03T13:09:49Z</time>
      </trkpt>
      <trkpt lat="45.61922" lon="5.95556">
        <ele>890</ele>
        <time>2009-06-03T13:09:56Z</time>
      </trkpt>
      <trkpt lat="45.61916" lon="5.95566">
        <ele>897</ele>
        <time>2009-06-03T13:10:04Z</time>
      </trkpt>
      <trkpt lat="45.61905" lon="5.95569">
        <ele>906</ele>
        <time>2009-06-03T13:10:11Z</time>
      </trkpt>
      <trkpt lat="45.61906" lon="5.95582">
        <ele>899</ele>
        <time>2009-06-03T13:10:14Z</time>
      </trkpt>
      <trkpt lat="45.61902" lon="5.95596">
        <ele>899</ele>
        <time>2009-06-03T13:10:25Z</time>
      </trkpt>
      <trkpt lat="45.61909" lon="5.95607">
        <ele>899</ele>
        <time>2009-06-03T13:10:36Z</time>
      </trkpt>
      <trkpt lat="45.61901" lon="5.9562">
        <ele>899</ele>
        <time>2009-06-03T13:10:44Z</time>
      </trkpt>
      <trkpt lat="45.61888" lon="5.95624">
        <ele>917</ele>
        <time>2009-06-03T13:10:52Z</time>
      </trkpt>
      <trkpt lat="45.61879" lon="5.95626">
        <ele>924</ele>
        <time>2009-06-03T13:11:02Z</time>
      </trkpt>
      <trkpt lat="45.61888" lon="5.95623">
        <ele>943</ele>
        <time>2009-06-03T13:11:14Z</time>
      </trkpt>
      <trkpt lat="45.61892" lon="5.95605">
        <ele>957</ele>
        <time>2009-06-03T13:11:23Z</time>
      </trkpt>
      <trkpt lat="45.61883" lon="5.95597">
        <ele>963</ele>
        <time>2009-06-03T13:11:30Z</time>
      </trkpt>
      <trkpt lat="45.61873" lon="5.95599">
        <ele>963</ele>
        <time>2009-06-03T13:11:34Z</time>
      </trkpt>
      <trkpt lat="45.61872" lon="5.95585">
        <ele>963</ele>
        <time>2009-06-03T13:11:46Z</time>
      </trkpt>
      <trkpt lat="45.61872" lon="5.95571">
        <ele>973</ele>
        <time>2009-06-03T13:11:50Z</time>
      </trkpt>
      <trkpt lat="45.61878" lon="5.95561">
        <ele>973</ele>
        <time>2009-06-03T13:11:55Z</time>
      </trkpt>
      <trkpt lat="45.6187" lon="5.9555">
        <ele>983</ele>
        <time>2009-06-03T13:12:02Z</time>
      </trkpt>
      <trkpt lat="45.61873" lon="5.95535">
        <ele>983</ele>
        <time>2009-06-03T13:12:08Z</time>
      </trkpt>
      <trkpt lat="45.61867" lon="5.95521">
        <ele>983</ele>
        <time>2009-06-03T13:12:15Z</time>
      </trkpt>
      <trkpt lat="45.61862" lon="5.95508">
        <ele>983</ele>
        <time>2009-06-03T13:12:20Z</time>
      </trkpt>
      <trkpt lat="45.61858" lon="5.95495">
        <ele>955</ele>
        <time>2009-06-03T13:12:30Z</time>
      </trkpt>
      <trkpt lat="45.6185" lon="5.95484">
        <ele>946</ele>
        <time>2009-06-03T13:12:36Z</time>
      </trkpt>
      <trkpt lat="45.61841" lon="5.9548">
        <ele>940</ele>
        <time>2009-06-03T13:12:44Z</time>
      </trkpt>
      <trkpt lat="45.6183" lon="5.95476">
        <ele>940</ele>
        <time>2009-06-03T13:12:48Z</time>
      </trkpt>
      <trkpt lat="45.6182" lon="5.95473">
        <ele>940</ele>
        <time>2009-06-03T13:12:49Z</time>
      </trkpt>
      <trkpt lat="45.61811" lon="5.9547">
        <ele>961</ele>
        <time>2009-06-03T13:12:57Z</time>
      </trkpt>
      <trkpt lat="45.61799" lon="5.9547">
        <ele>977</ele>
        <time>2009-06-03T13:13:02Z</time>
      </trkpt>
      <trkpt lat="45.61796" lon="5.95482">
        <ele>977</ele>
        <time>2009-06-03T13:13:10Z</time>
      </trkpt>
      <trkpt lat="45.61786" lon="5.95489">
        <ele>977</ele>
        <time>2009-06-03T13:13:16Z</time>
      </trkpt>
      <trkpt lat="45.61796" lon="5.95517">
        <ele>937</ele>
        <time>2009-06-03T13:13:32Z</time>
      </trkpt>
      <trkpt lat="45.61795" lon="5.95501">
        <ele>952</ele>
        <time>2009-06-03T13:13:55Z</time>
      </trkpt>
      <trkpt lat="45.61788" lon="5.95487">
        <ele>973</ele>
        <time>2009-06-03T13:13:59Z</time>
      </trkpt>
      <trkpt lat="45.61788" lon="5.95473">
        <ele>1007</ele>
        <time>2009-06-03T13:14:07Z</time>
      </trkpt>
      <trkpt lat="45.61791" lon="5.9546">
        <ele>1025</ele>
        <time>2009-06-03T13:14:11Z</time>
      </trkpt>
      <trkpt lat="45.61793" lon="5.95447">
        <ele>1057</ele>
        <time>2009-06-03T13:14:17Z</time>
      </trkpt>
      <trkpt lat="45.61788" lon="5.95433">
        <ele>1086</ele>
        <time>2009-06-03T13:14:34Z</time>
      </trkpt>
      <trkpt lat="45.61796" lon="5.95427">
        <ele>1086</ele>
        <time>2009-06-03T13:14:43Z</time>
      </trkpt>
      <trkpt lat="45.61803" lon="5.95412">
        <ele>1086</ele>
        <time>2009-06-03T13:14:48Z</time>
      </trkpt>
      <trkpt lat="45.61807" lon="5.95397">
        <ele>1086</ele>
        <time>2009-06-03T13:14:54Z</time>
      </trkpt>
      <trkpt lat="45.61806" lon="5.95384">
        <ele>1086</ele>
        <time>2009-06-03T13:14:59Z</time>
      </trkpt>
      <trkpt lat="45.61794" lon="5.95379">
        <ele>1077</ele>
        <time>2009-06-03T13:15:06Z</time>
      </trkpt>
      <trkpt lat="45.61785" lon="5.95376">
        <ele>1077</ele>
        <time>2009-06-03T13:15:10Z</time>
      </trkpt>
      <trkpt lat="45.61776" lon="5.95384">
        <ele>999</ele>
        <time>2009-06-03T13:15:21Z</time>
      </trkpt>
      <trkpt lat="45.61764" lon="5.95384">
        <ele>967</ele>
        <time>2009-06-03T13:15:27Z</time>
      </trkpt>
      <trkpt lat="45.61754" lon="5.95383">
        <ele>960</ele>
        <time>2009-06-03T13:15:30Z</time>
      </trkpt>
      <trkpt lat="45.61746" lon="5.9539">
        <ele>951</ele>
        <time>2009-06-03T13:15:37Z</time>
      </trkpt>
      <trkpt lat="45.61737" lon="5.95388">
        <ele>921</ele>
        <time>2009-06-03T13:16:17Z</time>
      </trkpt>
      <trkpt lat="45.61727" lon="5.95385">
        <ele>933</ele>
        <time>2009-06-03T13:16:23Z</time>
      </trkpt>
      <trkpt lat="45.61718" lon="5.95384">
        <ele>939</ele>
        <time>2009-06-03T13:16:26Z</time>
      </trkpt>
      <trkpt lat="45.61708" lon="5.95385">
        <ele>939</ele>
        <time>2009-06-03T13:16:40Z</time>
      </trkpt>
      <trkpt lat="45.61698" lon="5.95384">
        <ele>949</ele>
        <time>2009-06-03T13:16:43Z</time>
      </trkpt>
      <trkpt lat="45.6169" lon="5.95394">
        <ele>928</ele>
        <time>2009-06-03T13:16:55Z</time>
      </trkpt>
      <trkpt lat="45.6168" lon="5.95388">
        <ele>943</ele>
        <time>2009-06-03T13:16:59Z</time>
      </trkpt>
      <trkpt lat="45.61672" lon="5.95394">
        <ele>931</ele>
        <time>2009-06-03T13:17:07Z</time>
      </trkpt>
      <trkpt lat="45.61661" lon="5.95396">
        <ele>931</ele>
        <time>2009-06-03T13:17:12Z</time>
      </trkpt>
      <trkpt lat="45.61651" lon="5.95393">
        <ele>938</ele>
        <time>2009-06-03T13:17:18Z</time>
      </trkpt>
      <trkpt lat="45.6164" lon="5.95385">
        <ele>938</ele>
        <time>2009-06-03T13:17:25Z</time>
      </trkpt>
      <trkpt lat="45.61632" lon="5.95376">
        <ele>938</ele>
        <time>2009-06-03T13:17:32Z</time>
      </trkpt>
      <trkpt lat="45.61623" lon="5.9537">
        <ele>938</ele>
        <time>2009-06-03T13:17:38Z</time>
      </trkpt>
      <trkpt lat="45.61614" lon="5.95367">
        <ele>938</ele>
        <time>2009-06-03T13:17:43Z</time>
      </trkpt>
      <trkpt lat="45.61605" lon="5.95358">
        <ele>944</ele>
        <time>2009-06-03T13:17:51Z</time>
      </trkpt>
      <trkpt lat="45.61595" lon="5.95354">
        <ele>944</ele>
        <time>2009-06-03T13:17:57Z</time>
      </trkpt>
      <trkpt lat="45.61586" lon="5.95348">
        <ele>944</ele>
        <time>2009-06-03T13:18:04Z</time>
      </trkpt>
      <trkpt lat="45.61576" lon="5.95344">
        <ele>944</ele>
        <time>2009-06-03T13:18:09Z</time>
      </trkpt>
      <trkpt lat="45.61568" lon="5.95335">
        <ele>944</ele>
        <time>2009-06-03T13:18:15Z</time>
      </trkpt>
      <trkpt lat="45.61561" lon="5.95326">
        <ele>951</ele>
        <time>2009-06-03T13:18:22Z</time>
      </trkpt>
      <trkpt lat="45.61552" lon="5.95319">
        <ele>951</ele>
        <time>2009-06-03T13:18:29Z</time>
      </trkpt>
      <trkpt lat="45.61541" lon="5.95315">
        <ele>951</ele>
        <time>2009-06-03T13:18:34Z</time>
      </trkpt>
      <trkpt lat="45.61532" lon="5.95309">
        <ele>951</ele>
        <time>2009-06-03T13:18:41Z</time>
      </trkpt>
      <trkpt lat="45.61524" lon="5.95302">
        <ele>951</ele>
        <time>2009-06-03T13:18:47Z</time>
      </trkpt>
      <trkpt lat="45.61515" lon="5.95296">
        <ele>959</ele>
        <time>2009-06-03T13:18:53Z</time>
      </trkpt>
      <trkpt lat="45.61505" lon="5.95293">
        <ele>959</ele>
        <time>2009-06-03T13:18:58Z</time>
      </trkpt>
      <trkpt lat="45.61496" lon="5.95287">
        <ele>959</ele>
        <time>2009-06-03T13:19:05Z</time>
      </trkpt>
      <trkpt lat="45.61486" lon="5.95282">
        <ele>959</ele>
        <time>2009-06-03T13:19:10Z</time>
      </trkpt>
      <trkpt lat="45.61477" lon="5.95278">
        <ele>959</ele>
        <time>2009-06-03T13:19:16Z</time>
      </trkpt>
      <trkpt lat="45.61467" lon="5.95273">
        <ele>959</ele>
        <time>2009-06-03T13:19:21Z</time>
      </trkpt>
      <trkpt lat="45.61458" lon="5.95265">
        <ele>967</ele>
        <time>2009-06-03T13:19:26Z</time>
      </trkpt>
      <trkpt lat="45.61448" lon="5.95262">
        <ele>967</ele>
        <time>2009-06-03T13:19:31Z</time>
      </trkpt>
      <trkpt lat="45.61438" lon="5.95261">
        <ele>962</ele>
        <time>2009-06-03T13:19:36Z</time>
      </trkpt>
      <trkpt lat="45.61428" lon="5.9526">
        <ele>962</ele>
        <time>2009-06-03T13:19:40Z</time>
      </trkpt>
      <trkpt lat="45.61418" lon="5.95256">
        <ele>962</ele>
        <time>2009-06-03T13:19:46Z</time>
      </trkpt>
      <trkpt lat="45.61408" lon="5.95258">
        <ele>951</ele>
        <time>2009-06-03T13:20:44Z</time>
      </trkpt>
      <trkpt lat="45.61399" lon="5.95253">
        <ele>963</ele>
        <time>2009-06-03T13:22:59Z</time>
      </trkpt>
      <trkpt lat="45.61388" lon="5.95249">
        <ele>963</ele>
        <time>2009-06-03T13:23:04Z</time>
      </trkpt>
      <trkpt lat="45.61379" lon="5.95244">
        <ele>963</ele>
        <time>2009-06-03T13:23:08Z</time>
      </trkpt>
      <trkpt lat="45.61368" lon="5.95242">
        <ele>963</ele>
        <time>2009-06-03T13:23:12Z</time>
      </trkpt>
      <trkpt lat="45.61356" lon="5.95241">
        <ele>963</ele>
        <time>2009-06-03T13:23:15Z</time>
      </trkpt>
      <trkpt lat="45.61342" lon="5.95238">
        <ele>963</ele>
        <time>2009-06-03T13:23:18Z</time>
      </trkpt>
      <trkpt lat="45.61318" lon="5.95243">
        <ele>955</ele>
        <time>2009-06-03T13:23:22Z</time>
      </trkpt>
      <trkpt lat="45.61305" lon="5.95246">
        <ele>955</ele>
        <time>2009-06-03T13:23:24Z</time>
      </trkpt>
      <trkpt lat="45.61291" lon="5.95249">
        <ele>955</ele>
        <time>2009-06-03T13:23:26Z</time>
      </trkpt>
      <trkpt lat="45.61278" lon="5.95252">
        <ele>949</ele>
        <time>2009-06-03T13:23:28Z</time>
      </trkpt>
      <trkpt lat="45.61264" lon="5.95256">
        <ele>949</ele>
        <time>2009-06-03T13:23:30Z</time>
      </trkpt>
      <trkpt lat="45.61251" lon="5.95261">
        <ele>944</ele>
        <time>2009-06-03T13:23:32Z</time>
      </trkpt>
      <trkpt lat="45.61239" lon="5.95265">
        <ele>944</ele>
        <time>2009-06-03T13:23:34Z</time>
      </trkpt>
      <trkpt lat="45.61229" lon="5.9527">
        <ele>944</ele>
        <time>2009-06-03T13:23:36Z</time>
      </trkpt>
      <trkpt lat="45.61218" lon="5.95275">
        <ele>936</ele>
        <time>2009-06-03T13:23:38Z</time>
      </trkpt>
      <trkpt lat="45.61209" lon="5.95281">
        <ele>936</ele>
        <time>2009-06-03T13:23:41Z</time>
      </trkpt>
      <trkpt lat="45.61199" lon="5.95289">
        <ele>929</ele>
        <time>2009-06-03T13:23:45Z</time>
      </trkpt>
      <trkpt lat="45.6119" lon="5.95295">
        <ele>929</ele>
        <time>2009-06-03T13:23:49Z</time>
      </trkpt>
      <trkpt lat="45.61182" lon="5.95301">
        <ele>929</ele>
        <time>2009-06-03T13:23:52Z</time>
      </trkpt>
      <trkpt lat="45.61173" lon="5.95305">
        <ele>922</ele>
        <time>2009-06-03T13:24:01Z</time>
      </trkpt>
      <trkpt lat="45.61163" lon="5.95303">
        <ele>922</ele>
        <time>2009-06-03T13:24:21Z</time>
      </trkpt>
      <trkpt lat="45.61163" lon="5.95289">
        <ele>922</ele>
        <time>2009-06-03T13:24:26Z</time>
      </trkpt>
      <trkpt lat="45.61164" lon="5.95276">
        <ele>922</ele>
        <time>2009-06-03T13:24:32Z</time>
      </trkpt>
      <trkpt lat="45.61159" lon="5.95262">
        <ele>916</ele>
        <time>2009-06-03T13:24:38Z</time>
      </trkpt>
      <trkpt lat="45.61163" lon="5.95247">
        <ele>916</ele>
        <time>2009-06-03T13:24:42Z</time>
      </trkpt>
      <trkpt lat="45.61164" lon="5.95228">
        <ele>916</ele>
        <time>2009-06-03T13:24:45Z</time>
      </trkpt>
      <trkpt lat="45.61163" lon="5.95215">
        <ele>916</ele>
        <time>2009-06-03T13:24:47Z</time>
      </trkpt>
      <trkpt lat="45.61159" lon="5.952">
        <ele>916</ele>
        <time>2009-06-03T13:24:50Z</time>
      </trkpt>
      <trkpt lat="45.61148" lon="5.952">
        <ele>911</ele>
        <time>2009-06-03T13:24:55Z</time>
      </trkpt>
      <trkpt lat="45.61141" lon="5.95213">
        <ele>911</ele>
        <time>2009-06-03T13:24:58Z</time>
      </trkpt>
      <trkpt lat="45.61135" lon="5.95225">
        <ele>906</ele>
        <time>2009-06-03T13:25:00Z</time>
      </trkpt>
      <trkpt lat="45.61129" lon="5.95235">
        <ele>906</ele>
        <time>2009-06-03T13:25:02Z</time>
      </trkpt>
      <trkpt lat="45.6112" lon="5.95247">
        <ele>906</ele>
        <time>2009-06-03T13:25:05Z</time>
      </trkpt>
      <trkpt lat="45.61113" lon="5.95256">
        <ele>906</ele>
        <time>2009-06-03T13:25:08Z</time>
      </trkpt>
      <trkpt lat="45.61105" lon="5.9527">
        <ele>899</ele>
        <time>2009-06-03T13:25:12Z</time>
      </trkpt>
      <trkpt lat="45.61102" lon="5.95286">
        <ele>899</ele>
        <time>2009-06-03T13:25:15Z</time>
      </trkpt>
      <trkpt lat="45.61099" lon="5.95302">
        <ele>899</ele>
        <time>2009-06-03T13:25:18Z</time>
      </trkpt>
      <trkpt lat="45.61096" lon="5.9532">
        <ele>899</ele>
        <time>2009-06-03T13:25:21Z</time>
      </trkpt>
      <trkpt lat="45.61093" lon="5.95333">
        <ele>894</ele>
        <time>2009-06-03T13:25:23Z</time>
      </trkpt>
      <trkpt lat="45.61091" lon="5.95347">
        <ele>894</ele>
        <time>2009-06-03T13:25:25Z</time>
      </trkpt>
      <trkpt lat="45.61091" lon="5.95365">
        <ele>894</ele>
        <time>2009-06-03T13:25:28Z</time>
      </trkpt>
      <trkpt lat="45.61088" lon="5.95379">
        <ele>894</ele>
        <time>2009-06-03T13:25:33Z</time>
      </trkpt>
      <trkpt lat="45.61079" lon="5.9539">
        <ele>894</ele>
        <time>2009-06-03T13:25:37Z</time>
      </trkpt>
      <trkpt lat="45.6107" lon="5.95392">
        <ele>894</ele>
        <time>2009-06-03T13:25:40Z</time>
      </trkpt>
      <trkpt lat="45.61059" lon="5.9539">
        <ele>894</ele>
        <time>2009-06-03T13:25:44Z</time>
      </trkpt>
      <trkpt lat="45.61052" lon="5.95382">
        <ele>889</ele>
        <time>2009-06-03T13:25:46Z</time>
      </trkpt>
      <trkpt lat="45.61045" lon="5.95373">
        <ele>889</ele>
        <time>2009-06-03T13:25:48Z</time>
      </trkpt>
      <trkpt lat="45.61036" lon="5.9536">
        <ele>889</ele>
        <time>2009-06-03T13:25:51Z</time>
      </trkpt>
      <trkpt lat="45.6103" lon="5.95343">
        <ele>884</ele>
        <time>2009-06-03T13:25:54Z</time>
      </trkpt>
      <trkpt lat="45.61028" lon="5.95329">
        <ele>884</ele>
        <time>2009-06-03T13:25:56Z</time>
      </trkpt>
      <trkpt lat="45.61022" lon="5.95314">
        <ele>884</ele>
        <time>2009-06-03T13:25:58Z</time>
      </trkpt>
      <trkpt lat="45.61013" lon="5.95304">
        <ele>878</ele>
        <time>2009-06-03T13:26:00Z</time>
      </trkpt>
      <trkpt lat="45.61" lon="5.95297">
        <ele>878</ele>
        <time>2009-06-03T13:26:02Z</time>
      </trkpt>
      <trkpt lat="45.60988" lon="5.95291">
        <ele>878</ele>
        <time>2009-06-03T13:26:04Z</time>
      </trkpt>
      <trkpt lat="45.60976" lon="5.95291">
        <ele>871</ele>
        <time>2009-06-03T13:26:06Z</time>
      </trkpt>
      <trkpt lat="45.60964" lon="5.95296">
        <ele>871</ele>
        <time>2009-06-03T13:26:08Z</time>
      </trkpt>
      <trkpt lat="45.60952" lon="5.95301">
        <ele>863</ele>
        <time>2009-06-03T13:26:10Z</time>
      </trkpt>
      <trkpt lat="45.60942" lon="5.95303">
        <ele>863</ele>
        <time>2009-06-03T13:26:12Z</time>
      </trkpt>
      <trkpt lat="45.60931" lon="5.95304">
        <ele>857</ele>
        <time>2009-06-03T13:26:14Z</time>
      </trkpt>
      <trkpt lat="45.60922" lon="5.95302">
        <ele>857</ele>
        <time>2009-06-03T13:26:16Z</time>
      </trkpt>
      <trkpt lat="45.60913" lon="5.95298">
        <ele>857</ele>
        <time>2009-06-03T13:26:18Z</time>
      </trkpt>
      <trkpt lat="45.60902" lon="5.95296">
        <ele>851</ele>
        <time>2009-06-03T13:26:20Z</time>
      </trkpt>
      <trkpt lat="45.60893" lon="5.95295">
        <ele>851</ele>
        <time>2009-06-03T13:26:22Z</time>
      </trkpt>
      <trkpt lat="45.60884" lon="5.95294">
        <ele>851</ele>
        <time>2009-06-03T13:26:24Z</time>
      </trkpt>
      <trkpt lat="45.60873" lon="5.95297">
        <ele>840</ele>
        <time>2009-06-03T13:26:26Z</time>
      </trkpt>
      <trkpt lat="45.60861" lon="5.95297">
        <ele>840</ele>
        <time>2009-06-03T13:26:29Z</time>
      </trkpt>
      <trkpt lat="45.60853" lon="5.95304">
        <ele>834</ele>
        <time>2009-06-03T13:26:56Z</time>
      </trkpt>
      <trkpt lat="45.60857" lon="5.95289">
        <ele>834</ele>
        <time>2009-06-03T13:27:05Z</time>
      </trkpt>
      <trkpt lat="45.60856" lon="5.95275">
        <ele>834</ele>
        <time>2009-06-03T13:27:10Z</time>
      </trkpt>
      <trkpt lat="45.60844" lon="5.95276">
        <ele>834</ele>
        <time>2009-06-03T13:27:14Z</time>
      </trkpt>
      <trkpt lat="45.60836" lon="5.95282">
        <ele>828</ele>
        <time>2009-06-03T13:27:16Z</time>
      </trkpt>
      <trkpt lat="45.60829" lon="5.95296">
        <ele>828</ele>
        <time>2009-06-03T13:27:19Z</time>
      </trkpt>
      <trkpt lat="45.60826" lon="5.95312">
        <ele>828</ele>
        <time>2009-06-03T13:27:22Z</time>
      </trkpt>
      <trkpt lat="45.60827" lon="5.95329">
        <ele>822</ele>
        <time>2009-06-03T13:27:25Z</time>
      </trkpt>
      <trkpt lat="45.60822" lon="5.95344">
        <ele>822</ele>
        <time>2009-06-03T13:27:28Z</time>
      </trkpt>
      <trkpt lat="45.60812" lon="5.95344">
        <ele>815</ele>
        <time>2009-06-03T13:27:32Z</time>
      </trkpt>
      <trkpt lat="45.60802" lon="5.95342">
        <ele>815</ele>
        <time>2009-06-03T13:27:34Z</time>
      </trkpt>
      <trkpt lat="45.6079" lon="5.95341">
        <ele>815</ele>
        <time>2009-06-03T13:27:36Z</time>
      </trkpt>
      <trkpt lat="45.60777" lon="5.95345">
        <ele>815</ele>
        <time>2009-06-03T13:27:38Z</time>
      </trkpt>
      <trkpt lat="45.60765" lon="5.95352">
        <ele>809</ele>
        <time>2009-06-03T13:27:40Z</time>
      </trkpt>
      <trkpt lat="45.60758" lon="5.95361">
        <ele>809</ele>
        <time>2009-06-03T13:27:42Z</time>
      </trkpt>
      <trkpt lat="45.60745" lon="5.95368">
        <ele>809</ele>
        <time>2009-06-03T13:27:45Z</time>
      </trkpt>
      <trkpt lat="45.60735" lon="5.95376">
        <ele>803</ele>
        <time>2009-06-03T13:27:48Z</time>
      </trkpt>
      <trkpt lat="45.60728" lon="5.95385">
        <ele>803</ele>
        <time>2009-06-03T13:27:52Z</time>
      </trkpt>
      <trkpt lat="45.6072" lon="5.95392">
        <ele>809</ele>
        <time>2009-06-03T13:27:56Z</time>
      </trkpt>
      <trkpt lat="45.60711" lon="5.95385">
        <ele>809</ele>
        <time>2009-06-03T13:28:00Z</time>
      </trkpt>
      <trkpt lat="45.60701" lon="5.95377">
        <ele>809</ele>
        <time>2009-06-03T13:28:04Z</time>
      </trkpt>
      <trkpt lat="45.6069" lon="5.95375">
        <ele>809</ele>
        <time>2009-06-03T13:28:07Z</time>
      </trkpt>
      <trkpt lat="45.6068" lon="5.95376">
        <ele>803</ele>
        <time>2009-06-03T13:28:10Z</time>
      </trkpt>
      <trkpt lat="45.60669" lon="5.95379">
        <ele>795</ele>
        <time>2009-06-03T13:28:13Z</time>
      </trkpt>
      <trkpt lat="45.6066" lon="5.95375">
        <ele>795</ele>
        <time>2009-06-03T13:28:16Z</time>
      </trkpt>
      <trkpt lat="45.60651" lon="5.95368">
        <ele>795</ele>
        <time>2009-06-03T13:28:19Z</time>
      </trkpt>
      <trkpt lat="45.60641" lon="5.95367">
        <ele>795</ele>
        <time>2009-06-03T13:28:22Z</time>
      </trkpt>
      <trkpt lat="45.60631" lon="5.95371">
        <ele>787</ele>
        <time>2009-06-03T13:28:24Z</time>
      </trkpt>
      <trkpt lat="45.6062" lon="5.9537">
        <ele>787</ele>
        <time>2009-06-03T13:28:27Z</time>
      </trkpt>
      <trkpt lat="45.60609" lon="5.95377">
        <ele>781</ele>
        <time>2009-06-03T13:28:30Z</time>
      </trkpt>
      <trkpt lat="45.60597" lon="5.95381">
        <ele>781</ele>
        <time>2009-06-03T13:28:33Z</time>
      </trkpt>
      <trkpt lat="45.60587" lon="5.95389">
        <ele>774</ele>
        <time>2009-06-03T13:28:35Z</time>
      </trkpt>
      <trkpt lat="45.60578" lon="5.95402">
        <ele>767</ele>
        <time>2009-06-03T13:28:38Z</time>
      </trkpt>
      <trkpt lat="45.60572" lon="5.95412">
        <ele>760</ele>
        <time>2009-06-03T13:28:40Z</time>
      </trkpt>
      <trkpt lat="45.60566" lon="5.95425">
        <ele>760</ele>
        <time>2009-06-03T13:28:43Z</time>
      </trkpt>
      <trkpt lat="45.60559" lon="5.9544">
        <ele>751</ele>
        <time>2009-06-03T13:28:46Z</time>
      </trkpt>
      <trkpt lat="45.60554" lon="5.95452">
        <ele>751</ele>
        <time>2009-06-03T13:28:49Z</time>
      </trkpt>
      <trkpt lat="45.60551" lon="5.95465">
        <ele>751</ele>
        <time>2009-06-03T13:28:52Z</time>
      </trkpt>
      <trkpt lat="45.60548" lon="5.95479">
        <ele>739</ele>
        <time>2009-06-03T13:28:54Z</time>
      </trkpt>
      <trkpt lat="45.60538" lon="5.95498">
        <ele>731</ele>
        <time>2009-06-03T13:28:58Z</time>
      </trkpt>
      <trkpt lat="45.60529" lon="5.95504">
        <ele>731</ele>
        <time>2009-06-03T13:29:00Z</time>
      </trkpt>
      <trkpt lat="45.60519" lon="5.95508">
        <ele>731</ele>
        <time>2009-06-03T13:29:03Z</time>
      </trkpt>
      <trkpt lat="45.60512" lon="5.95499">
        <ele>773</ele>
        <time>2009-06-03T13:29:30Z</time>
      </trkpt>
      <trkpt lat="45.60522" lon="5.955">
        <ele>773</ele>
        <time>2009-06-03T13:29:46Z</time>
      </trkpt>
      <trkpt lat="45.60512" lon="5.95497">
        <ele>773</ele>
        <time>2009-06-03T13:29:55Z</time>
      </trkpt>
      <trkpt lat="45.60503" lon="5.9549">
        <ele>762</ele>
        <time>2009-06-03T13:29:58Z</time>
      </trkpt>
      <trkpt lat="45.60496" lon="5.95481">
        <ele>762</ele>
        <time>2009-06-03T13:30:00Z</time>
      </trkpt>
      <trkpt lat="45.60481" lon="5.95458">
        <ele>762</ele>
        <time>2009-06-03T13:30:04Z</time>
      </trkpt>
      <trkpt lat="45.60473" lon="5.95439">
        <ele>762</ele>
        <time>2009-06-03T13:30:06Z</time>
      </trkpt>
      <trkpt lat="45.60463" lon="5.95415">
        <ele>756</ele>
        <time>2009-06-03T13:30:09Z</time>
      </trkpt>
      <trkpt lat="45.60458" lon="5.95403">
        <ele>756</ele>
        <time>2009-06-03T13:30:10Z</time>
      </trkpt>
      <trkpt lat="45.6045" lon="5.95392">
        <ele>756</ele>
        <time>2009-06-03T13:30:12Z</time>
      </trkpt>
      <trkpt lat="45.6044" lon="5.95385">
        <ele>747</ele>
        <time>2009-06-03T13:30:14Z</time>
      </trkpt>
      <trkpt lat="45.60426" lon="5.95374">
        <ele>747</ele>
        <time>2009-06-03T13:30:16Z</time>
      </trkpt>
      <trkpt lat="45.60413" lon="5.95366">
        <ele>747</ele>
        <time>2009-06-03T13:30:18Z</time>
      </trkpt>
      <trkpt lat="45.60398" lon="5.95359">
        <ele>747</ele>
        <time>2009-06-03T13:30:20Z</time>
      </trkpt>
      <trkpt lat="45.60385" lon="5.95356">
        <ele>747</ele>
        <time>2009-06-03T13:30:22Z</time>
      </trkpt>
      <trkpt lat="45.60375" lon="5.95355">
        <ele>741</ele>
        <time>2009-06-03T13:30:24Z</time>
      </trkpt>
      <trkpt lat="45.60365" lon="5.95357">
        <ele>741</ele>
        <time>2009-06-03T13:30:51Z</time>
      </trkpt>
      <trkpt lat="45.60352" lon="5.95356">
        <ele>741</ele>
        <time>2009-06-03T13:30:55Z</time>
      </trkpt>
      <trkpt lat="45.60342" lon="5.95355">
        <ele>741</ele>
        <time>2009-06-03T13:30:58Z</time>
      </trkpt>
      <trkpt lat="45.60329" lon="5.95355">
        <ele>741</ele>
        <time>2009-06-03T13:31:01Z</time>
      </trkpt>
      <trkpt lat="45.6032" lon="5.95354">
        <ele>741</ele>
        <time>2009-06-03T13:31:03Z</time>
      </trkpt>
      <trkpt lat="45.60307" lon="5.95356">
        <ele>741</ele>
        <time>2009-06-03T13:31:05Z</time>
      </trkpt>
      <trkpt lat="45.60295" lon="5.95357">
        <ele>736</ele>
        <time>2009-06-03T13:31:07Z</time>
      </trkpt>
      <trkpt lat="45.60283" lon="5.95357">
        <ele>736</ele>
        <time>2009-06-03T13:31:09Z</time>
      </trkpt>
      <trkpt lat="45.6027" lon="5.95357">
        <ele>736</ele>
        <time>2009-06-03T13:31:11Z</time>
      </trkpt>
      <trkpt lat="45.60257" lon="5.95359">
        <ele>730</ele>
        <time>2009-06-03T13:31:13Z</time>
      </trkpt>
      <trkpt lat="45.60244" lon="5.95359">
        <ele>730</ele>
        <time>2009-06-03T13:31:15Z</time>
      </trkpt>
      <trkpt lat="45.60234" lon="5.9536">
        <ele>730</ele>
        <time>2009-06-03T13:31:17Z</time>
      </trkpt>
      <trkpt lat="45.60223" lon="5.95356">
        <ele>724</ele>
        <time>2009-06-03T13:31:21Z</time>
      </trkpt>
      <trkpt lat="45.60214" lon="5.95349">
        <ele>724</ele>
        <time>2009-06-03T13:31:25Z</time>
      </trkpt>
      <trkpt lat="45.60204" lon="5.95347">
        <ele>716</ele>
        <time>2009-06-03T13:31:27Z</time>
      </trkpt>
      <trkpt lat="45.60196" lon="5.95341">
        <ele>716</ele>
        <time>2009-06-03T13:31:29Z</time>
      </trkpt>
      <trkpt lat="45.60187" lon="5.95332">
        <ele>716</ele>
        <time>2009-06-03T13:31:32Z</time>
      </trkpt>
      <trkpt lat="45.60179" lon="5.95328">
        <ele>708</ele>
        <time>2009-06-03T13:31:35Z</time>
      </trkpt>
      <trkpt lat="45.60168" lon="5.95322">
        <ele>708</ele>
        <time>2009-06-03T13:31:38Z</time>
      </trkpt>
      <trkpt lat="45.60158" lon="5.95314">
        <ele>703</ele>
        <time>2009-06-03T13:31:40Z</time>
      </trkpt>
      <trkpt lat="45.60147" lon="5.9531">
        <ele>703</ele>
        <time>2009-06-03T13:31:42Z</time>
      </trkpt>
      <trkpt lat="45.60131" lon="5.95304">
        <ele>703</ele>
        <time>2009-06-03T13:31:44Z</time>
      </trkpt>
      <trkpt lat="45.60116" lon="5.95296">
        <ele>703</ele>
        <time>2009-06-03T13:31:46Z</time>
      </trkpt>
      <trkpt lat="45.60105" lon="5.95293">
        <ele>697</ele>
        <time>2009-06-03T13:31:48Z</time>
      </trkpt>
      <trkpt lat="45.60095" lon="5.9529">
        <ele>697</ele>
        <time>2009-06-03T13:31:50Z</time>
      </trkpt>
      <trkpt lat="45.60084" lon="5.95288">
        <ele>690</ele>
        <time>2009-06-03T13:31:53Z</time>
      </trkpt>
      <trkpt lat="45.60075" lon="5.95284">
        <ele>690</ele>
        <time>2009-06-03T13:32:11Z</time>
      </trkpt>
      <trkpt lat="45.60065" lon="5.95279">
        <ele>690</ele>
        <time>2009-06-03T13:32:25Z</time>
      </trkpt>
      <trkpt lat="45.60053" lon="5.95274">
        <ele>690</ele>
        <time>2009-06-03T13:32:29Z</time>
      </trkpt>
      <trkpt lat="45.60044" lon="5.95273">
        <ele>690</ele>
        <time>2009-06-03T13:32:31Z</time>
      </trkpt>
      <trkpt lat="45.60034" lon="5.95272">
        <ele>690</ele>
        <time>2009-06-03T13:32:34Z</time>
      </trkpt>
      <trkpt lat="45.60024" lon="5.95271">
        <ele>681</ele>
        <time>2009-06-03T13:32:39Z</time>
      </trkpt>
      <trkpt lat="45.60015" lon="5.95268">
        <ele>681</ele>
        <time>2009-06-03T13:32:43Z</time>
      </trkpt>
      <trkpt lat="45.60004" lon="5.95267">
        <ele>675</ele>
        <time>2009-06-03T13:32:49Z</time>
      </trkpt>
      <trkpt lat="45.59993" lon="5.95263">
        <ele>669</ele>
        <time>2009-06-03T13:32:56Z</time>
      </trkpt>
      <trkpt lat="45.59984" lon="5.95258">
        <ele>669</ele>
        <time>2009-06-03T13:33:00Z</time>
      </trkpt>
      <trkpt lat="45.59972" lon="5.95261">
        <ele>659</ele>
        <time>2009-06-03T13:33:05Z</time>
      </trkpt>
      <trkpt lat="45.59963" lon="5.95268">
        <ele>659</ele>
        <time>2009-06-03T13:33:09Z</time>
      </trkpt>
      <trkpt lat="45.59953" lon="5.95272">
        <ele>649</ele>
        <time>2009-06-03T13:33:14Z</time>
      </trkpt>
      <trkpt lat="45.59946" lon="5.95263">
        <ele>659</ele>
        <time>2009-06-03T13:33:49Z</time>
      </trkpt>
      <trkpt lat="45.59936" lon="5.95259">
        <ele>659</ele>
        <time>2009-06-03T13:33:56Z</time>
      </trkpt>
      <trkpt lat="45.59925" lon="5.95257">
        <ele>652</ele>
        <time>2009-06-03T13:34:01Z</time>
      </trkpt>
      <trkpt lat="45.59917" lon="5.95248">
        <ele>645</ele>
        <time>2009-06-03T13:34:07Z</time>
      </trkpt>
      <trkpt lat="45.59905" lon="5.95241">
        <ele>645</ele>
        <time>2009-06-03T13:34:11Z</time>
      </trkpt>
      <trkpt lat="45.59895" lon="5.95235">
        <ele>633</ele>
        <time>2009-06-03T13:34:15Z</time>
      </trkpt>
      <trkpt lat="45.59885" lon="5.95233">
        <ele>625</ele>
        <time>2009-06-03T13:34:19Z</time>
      </trkpt>
      <trkpt lat="45.59877" lon="5.95226">
        <ele>625</ele>
        <time>2009-06-03T13:34:23Z</time>
      </trkpt>
      <trkpt lat="45.59868" lon="5.95218">
        <ele>616</ele>
        <time>2009-06-03T13:34:27Z</time>
      </trkpt>
      <trkpt lat="45.59859" lon="5.95211">
        <ele>610</ele>
        <time>2009-06-03T13:34:31Z</time>
      </trkpt>
      <trkpt lat="45.59848" lon="5.95204">
        <ele>610</ele>
        <time>2009-06-03T13:34:35Z</time>
      </trkpt>
      <trkpt lat="45.59839" lon="5.95189">
        <ele>610</ele>
        <time>2009-06-03T13:34:37Z</time>
      </trkpt>
      <trkpt lat="45.59833" lon="5.95179">
        <ele>610</ele>
        <time>2009-06-03T13:34:39Z</time>
      </trkpt>
      <trkpt lat="45.59825" lon="5.95171">
        <ele>610</ele>
        <time>2009-06-03T13:34:42Z</time>
      </trkpt>
      <trkpt lat="45.59815" lon="5.95163">
        <ele>610</ele>
        <time>2009-06-03T13:34:45Z</time>
      </trkpt>
      <trkpt lat="45.59805" lon="5.95156">
        <ele>601</ele>
        <time>2009-06-03T13:34:48Z</time>
      </trkpt>
      <trkpt lat="45.59794" lon="5.95144">
        <ele>601</ele>
        <time>2009-06-03T13:34:51Z</time>
      </trkpt>
      <trkpt lat="45.59786" lon="5.95133">
        <ele>596</ele>
        <time>2009-06-03T13:34:54Z</time>
      </trkpt>
      <trkpt lat="45.59778" lon="5.95126">
        <ele>589</ele>
        <time>2009-06-03T13:36:14Z</time>
      </trkpt>
      <trkpt lat="45.59763" lon="5.95124">
        <ele>589</ele>
        <time>2009-06-03T13:36:21Z</time>
      </trkpt>
      <trkpt lat="45.59753" lon="5.9512">
        <ele>589</ele>
        <time>2009-06-03T13:36:26Z</time>
      </trkpt>
      <trkpt lat="45.59742" lon="5.95123">
        <ele>589</ele>
        <time>2009-06-03T13:36:31Z</time>
      </trkpt>
      <trkpt lat="45.59733" lon="5.95128">
        <ele>589</ele>
        <time>2009-06-03T13:36:36Z</time>
      </trkpt>
      <trkpt lat="45.59725" lon="5.95134">
        <ele>589</ele>
        <time>2009-06-03T13:36:43Z</time>
      </trkpt>
      <trkpt lat="45.59716" lon="5.95138">
        <ele>589</ele>
        <time>2009-06-03T13:36:51Z</time>
      </trkpt>
      <trkpt lat="45.59705" lon="5.95138">
        <ele>589</ele>
        <time>2009-06-03T13:36:56Z</time>
      </trkpt>
      <trkpt lat="45.59694" lon="5.95137">
        <ele>589</ele>
        <time>2009-06-03T13:37:01Z</time>
      </trkpt>
      <trkpt lat="45.59686" lon="5.95143">
        <ele>589</ele>
        <time>2009-06-03T13:37:31Z</time>
      </trkpt>
      <trkpt lat="45.59677" lon="5.95139">
        <ele>589</ele>
        <time>2009-06-03T13:37:54Z</time>
      </trkpt>
      <trkpt lat="45.59667" lon="5.95138">
        <ele>589</ele>
        <time>2009-06-03T13:38:04Z</time>
      </trkpt>
      <trkpt lat="45.59658" lon="5.95138">
        <ele>589</ele>
        <time>2009-06-03T13:38:14Z</time>
      </trkpt>
      <trkpt lat="45.59648" lon="5.9514">
        <ele>589</ele>
        <time>2009-06-03T13:38:23Z</time>
      </trkpt>
      <trkpt lat="45.59639" lon="5.9514">
        <ele>589</ele>
        <time>2009-06-03T13:38:28Z</time>
      </trkpt>
      <trkpt lat="45.59629" lon="5.95141">
        <ele>589</ele>
        <time>2009-06-03T13:38:35Z</time>
      </trkpt>
      <trkpt lat="45.59621" lon="5.95132">
        <ele>589</ele>
        <time>2009-06-03T13:38:43Z</time>
      </trkpt>
      <trkpt lat="45.5961" lon="5.95132">
        <ele>589</ele>
        <time>2009-06-03T13:39:11Z</time>
      </trkpt>
      <trkpt lat="45.596" lon="5.9513">
        <ele>589</ele>
        <time>2009-06-03T13:39:23Z</time>
      </trkpt>
      <trkpt lat="45.59591" lon="5.95133">
        <ele>589</ele>
        <time>2009-06-03T13:39:33Z</time>
      </trkpt>
      <trkpt lat="45.59581" lon="5.95131">
        <ele>595</ele>
        <time>2009-06-03T13:39:49Z</time>
      </trkpt>
      <trkpt lat="45.59572" lon="5.95135">
        <ele>595</ele>
        <time>2009-06-03T13:39:57Z</time>
      </trkpt>
      <trkpt lat="45.59562" lon="5.9513">
        <ele>595</ele>
        <time>2009-06-03T13:40:08Z</time>
      </trkpt>
      <trkpt lat="45.59554" lon="5.95134">
        <ele>595</ele>
        <time>2009-06-03T13:40:16Z</time>
      </trkpt>
      <trkpt lat="45.59545" lon="5.95138">
        <ele>595</ele>
        <time>2009-06-03T13:40:25Z</time>
      </trkpt>
      <trkpt lat="45.59535" lon="5.95135">
        <ele>595</ele>
        <time>2009-06-03T13:40:38Z</time>
      </trkpt>
      <trkpt lat="45.59527" lon="5.95141">
        <ele>595</ele>
        <time>2009-06-03T13:40:43Z</time>
      </trkpt>
      <trkpt lat="45.59518" lon="5.95145">
        <ele>595</ele>
        <time>2009-06-03T13:40:53Z</time>
      </trkpt>
      <trkpt lat="45.59508" lon="5.95146">
        <ele>595</ele>
        <time>2009-06-03T13:41:05Z</time>
      </trkpt>
      <trkpt lat="45.59499" lon="5.95149">
        <ele>595</ele>
        <time>2009-06-03T13:41:17Z</time>
      </trkpt>
      <trkpt lat="45.59489" lon="5.95148">
        <ele>595</ele>
        <time>2009-06-03T13:41:50Z</time>
      </trkpt>
      <trkpt lat="45.5948" lon="5.95155">
        <ele>595</ele>
        <time>2009-06-03T13:42:28Z</time>
      </trkpt>
      <trkpt lat="45.59471" lon="5.95155">
        <ele>595</ele>
        <time>2009-06-03T13:42:40Z</time>
      </trkpt>
      <trkpt lat="45.59462" lon="5.95155">
        <ele>595</ele>
        <time>2009-06-03T13:42:51Z</time>
      </trkpt>
      <trkpt lat="45.59452" lon="5.95157">
        <ele>589</ele>
        <time>2009-06-03T13:43:06Z</time>
      </trkpt>
      <trkpt lat="45.59442" lon="5.95158">
        <ele>589</ele>
        <time>2009-06-03T13:43:16Z</time>
      </trkpt>
      <trkpt lat="45.59433" lon="5.95159">
        <ele>589</ele>
        <time>2009-06-03T13:43:30Z</time>
      </trkpt>
      <trkpt lat="45.59424" lon="5.95165">
        <ele>595</ele>
        <time>2009-06-03T13:43:48Z</time>
      </trkpt>
      <trkpt lat="45.59416" lon="5.95173">
        <ele>595</ele>
        <time>2009-06-03T13:44:29Z</time>
      </trkpt>
      <trkpt lat="45.59408" lon="5.95167">
        <ele>595</ele>
        <time>2009-06-03T13:44:42Z</time>
      </trkpt>
      <trkpt lat="45.59399" lon="5.95167">
        <ele>595</ele>
        <time>2009-06-03T13:46:44Z</time>
      </trkpt>
      <trkpt lat="45.59397" lon="5.95181">
        <ele>595</ele>
        <time>2009-06-03T13:47:05Z</time>
      </trkpt>
      <trkpt lat="45.59397" lon="5.95194">
        <ele>603</ele>
        <time>2009-06-03T13:48:08Z</time>
      </trkpt>
      <trkpt lat="45.59397" lon="5.95208">
        <ele>603</ele>
        <time>2009-06-03T13:49:06Z</time>
      </trkpt>
      <trkpt lat="45.594" lon="5.95222">
        <ele>614</ele>
        <time>2009-06-03T13:49:52Z</time>
      </trkpt>
      <trkpt lat="45.59402" lon="5.95235">
        <ele>614</ele>
        <time>2009-06-03T13:50:08Z</time>
      </trkpt>
      <trkpt lat="45.594" lon="5.95247">
        <ele>614</ele>
        <time>2009-06-03T13:50:30Z</time>
      </trkpt>
      <trkpt lat="45.5939" lon="5.95251">
        <ele>614</ele>
        <time>2009-06-03T13:50:39Z</time>
      </trkpt>
      <trkpt lat="45.5938" lon="5.95251">
        <ele>614</ele>
        <time>2009-06-03T13:50:55Z</time>
      </trkpt>
      <trkpt lat="45.59371" lon="5.95254">
        <ele>614</ele>
        <time>2009-06-03T13:51:04Z</time>
      </trkpt>
      <trkpt lat="45.59362" lon="5.95251">
        <ele>614</ele>
        <time>2009-06-03T13:51:13Z</time>
      </trkpt>
      <trkpt lat="45.59353" lon="5.95258">
        <ele>605</ele>
        <time>2009-06-03T13:51:19Z</time>
      </trkpt>
      <trkpt lat="45.59346" lon="5.9527">
        <ele>605</ele>
        <time>2009-06-03T13:51:24Z</time>
      </trkpt>
      <trkpt lat="45.59339" lon="5.95282">
        <ele>598</ele>
        <time>2009-06-03T13:51:36Z</time>
      </trkpt>
      <trkpt lat="45.59332" lon="5.95293">
        <ele>590</ele>
        <time>2009-06-03T13:51:54Z</time>
      </trkpt>
      <trkpt lat="45.59323" lon="5.95302">
        <ele>590</ele>
        <time>2009-06-03T13:51:57Z</time>
      </trkpt>
      <trkpt lat="45.59314" lon="5.95308">
        <ele>590</ele>
        <time>2009-06-03T13:52:00Z</time>
      </trkpt>
      <trkpt lat="45.59306" lon="5.95314">
        <ele>590</ele>
        <time>2009-06-03T13:52:03Z</time>
      </trkpt>
      <trkpt lat="45.59298" lon="5.95323">
        <ele>584</ele>
        <time>2009-06-03T13:52:07Z</time>
      </trkpt>
      <trkpt lat="45.59293" lon="5.95335">
        <ele>584</ele>
        <time>2009-06-03T13:52:12Z</time>
      </trkpt>
      <trkpt lat="45.59286" lon="5.95345">
        <ele>584</ele>
        <time>2009-06-03T13:52:15Z</time>
      </trkpt>
      <trkpt lat="45.5928" lon="5.95355">
        <ele>578</ele>
        <time>2009-06-03T13:52:18Z</time>
      </trkpt>
      <trkpt lat="45.5927" lon="5.95359">
        <ele>578</ele>
        <time>2009-06-03T13:52:21Z</time>
      </trkpt>
      <trkpt lat="45.59262" lon="5.95352">
        <ele>595</ele>
        <time>2009-06-03T13:53:04Z</time>
      </trkpt>
      <trkpt lat="45.59253" lon="5.95349">
        <ele>595</ele>
        <time>2009-06-03T13:53:07Z</time>
      </trkpt>
      <trkpt lat="45.59244" lon="5.95345">
        <ele>595</ele>
        <time>2009-06-03T13:53:13Z</time>
      </trkpt>
      <trkpt lat="45.59242" lon="5.95329">
        <ele>587</ele>
        <time>2009-06-03T13:55:54Z</time>
      </trkpt>
      <trkpt lat="45.59247" lon="5.95313">
        <ele>587</ele>
        <time>2009-06-03T13:55:58Z</time>
      </trkpt>
      <trkpt lat="45.59252" lon="5.95299">
        <ele>587</ele>
        <time>2009-06-03T13:56:00Z</time>
      </trkpt>
      <trkpt lat="45.5926" lon="5.95286">
        <ele>587</ele>
        <time>2009-06-03T13:56:03Z</time>
      </trkpt>
      <trkpt lat="45.59265" lon="5.95273">
        <ele>587</ele>
        <time>2009-06-03T13:56:10Z</time>
      </trkpt>
      <trkpt lat="45.59269" lon="5.95258">
        <ele>587</ele>
        <time>2009-06-03T13:56:13Z</time>
      </trkpt>
      <trkpt lat="45.59274" lon="5.95244">
        <ele>578</ele>
        <time>2009-06-03T13:56:16Z</time>
      </trkpt>
      <trkpt lat="45.59282" lon="5.95232">
        <ele>578</ele>
        <time>2009-06-03T13:56:19Z</time>
      </trkpt>
      <trkpt lat="45.59287" lon="5.95217">
        <ele>578</ele>
        <time>2009-06-03T13:56:23Z</time>
      </trkpt>
      <trkpt lat="45.59293" lon="5.95203">
        <ele>578</ele>
        <time>2009-06-03T13:56:26Z</time>
      </trkpt>
      <trkpt lat="45.59301" lon="5.95189">
        <ele>578</ele>
        <time>2009-06-03T13:56:29Z</time>
      </trkpt>
      <trkpt lat="45.59308" lon="5.9518">
        <ele>578</ele>
        <time>2009-06-03T13:56:41Z</time>
      </trkpt>
      <trkpt lat="45.59312" lon="5.95165">
        <ele>578</ele>
        <time>2009-06-03T13:56:52Z</time>
      </trkpt>
      <trkpt lat="45.59318" lon="5.95155">
        <ele>578</ele>
        <time>2009-06-03T13:56:55Z</time>
      </trkpt>
      <trkpt lat="45.59323" lon="5.95142">
        <ele>570</ele>
        <time>2009-06-03T13:57:00Z</time>
      </trkpt>
      <trkpt lat="45.59324" lon="5.95129">
        <ele>565</ele>
        <time>2009-06-03T13:57:12Z</time>
      </trkpt>
      <trkpt lat="45.59315" lon="5.95133">
        <ele>552</ele>
        <time>2009-06-03T13:57:51Z</time>
      </trkpt>
      <trkpt lat="45.59304" lon="5.95136">
        <ele>552</ele>
        <time>2009-06-03T13:57:55Z</time>
      </trkpt>
      <trkpt lat="45.59294" lon="5.95137">
        <ele>547</ele>
        <time>2009-06-03T13:57:59Z</time>
      </trkpt>
      <trkpt lat="45.59286" lon="5.95143">
        <ele>540</ele>
        <time>2009-06-03T13:58:10Z</time>
      </trkpt>
      <trkpt lat="45.59282" lon="5.95156">
        <ele>534</ele>
        <time>2009-06-03T14:00:02Z</time>
      </trkpt>
      <trkpt lat="45.59274" lon="5.95149">
        <ele>541</ele>
        <time>2009-06-03T14:00:20Z</time>
      </trkpt>
      <trkpt lat="45.59264" lon="5.95147">
        <ele>541</ele>
        <time>2009-06-03T14:00:32Z</time>
      </trkpt>
      <trkpt lat="45.59255" lon="5.95155">
        <ele>541</ele>
        <time>2009-06-03T14:01:11Z</time>
      </trkpt>
      <trkpt lat="45.59244" lon="5.95155">
        <ele>534</ele>
        <time>2009-06-03T14:01:15Z</time>
      </trkpt>
      <trkpt lat="45.59233" lon="5.95158">
        <ele>534</ele>
        <time>2009-06-03T14:01:19Z</time>
      </trkpt>
      <trkpt lat="45.59223" lon="5.9516">
        <ele>534</ele>
        <time>2009-06-03T14:01:23Z</time>
      </trkpt>
      <trkpt lat="45.59216" lon="5.95172">
        <ele>515</ele>
        <time>2009-06-03T14:01:36Z</time>
      </trkpt>
      <trkpt lat="45.59206" lon="5.95173">
        <ele>515</ele>
        <time>2009-06-03T14:01:39Z</time>
      </trkpt>
      <trkpt lat="45.59197" lon="5.95169">
        <ele>515</ele>
        <time>2009-06-03T14:01:42Z</time>
      </trkpt>
      <trkpt lat="45.59187" lon="5.95164">
        <ele>507</ele>
        <time>2009-06-03T14:01:47Z</time>
      </trkpt>
      <trkpt lat="45.59177" lon="5.9516">
        <ele>507</ele>
        <time>2009-06-03T14:01:51Z</time>
      </trkpt>
      <trkpt lat="45.59166" lon="5.95157">
        <ele>502</ele>
        <time>2009-06-03T14:01:55Z</time>
      </trkpt>
      <trkpt lat="45.59154" lon="5.95155">
        <ele>502</ele>
        <time>2009-06-03T14:02:00Z</time>
      </trkpt>
      <trkpt lat="45.59145" lon="5.95149">
        <ele>495</ele>
        <time>2009-06-03T14:02:03Z</time>
      </trkpt>
      <trkpt lat="45.59135" lon="5.95147">
        <ele>495</ele>
        <time>2009-06-03T14:02:06Z</time>
      </trkpt>
      <trkpt lat="45.59124" lon="5.95149">
        <ele>490</ele>
        <time>2009-06-03T14:02:09Z</time>
      </trkpt>
      <trkpt lat="45.59115" lon="5.9515">
        <ele>490</ele>
        <time>2009-06-03T14:02:11Z</time>
      </trkpt>
      <trkpt lat="45.59105" lon="5.95151">
        <ele>490</ele>
        <time>2009-06-03T14:02:13Z</time>
      </trkpt>
      <trkpt lat="45.59095" lon="5.95154">
        <ele>490</ele>
        <time>2009-06-03T14:02:16Z</time>
      </trkpt>
      <trkpt lat="45.59086" lon="5.95159">
        <ele>484</ele>
        <time>2009-06-03T14:02:20Z</time>
      </trkpt>
      <trkpt lat="45.59074" lon="5.95162">
        <ele>484</ele>
        <time>2009-06-03T14:02:23Z</time>
      </trkpt>
      <trkpt lat="45.59062" lon="5.95161">
        <ele>484</ele>
        <time>2009-06-03T14:02:26Z</time>
      </trkpt>
      <trkpt lat="45.5905" lon="5.9516">
        <ele>484</ele>
        <time>2009-06-03T14:02:31Z</time>
      </trkpt>
      <trkpt lat="45.5904" lon="5.95162">
        <ele>484</ele>
        <time>2009-06-03T14:02:36Z</time>
      </trkpt>
      <trkpt lat="45.59028" lon="5.95163">
        <ele>479</ele>
        <time>2009-06-03T14:02:41Z</time>
      </trkpt>
      <trkpt lat="45.59019" lon="5.95164">
        <ele>479</ele>
        <time>2009-06-03T14:02:47Z</time>
      </trkpt>
      <trkpt lat="45.5901" lon="5.95171">
        <ele>469</ele>
        <time>2009-06-03T14:02:52Z</time>
      </trkpt>
      <trkpt lat="45.59" lon="5.95175">
        <ele>462</ele>
        <time>2009-06-03T14:02:58Z</time>
      </trkpt>
      <trkpt lat="45.58989" lon="5.95179">
        <ele>462</ele>
        <time>2009-06-03T14:03:03Z</time>
      </trkpt>
      <trkpt lat="45.58981" lon="5.95189">
        <ele>457</ele>
        <time>2009-06-03T14:03:08Z</time>
      </trkpt>
      <trkpt lat="45.58972" lon="5.9519">
        <ele>457</ele>
        <time>2009-06-03T14:03:11Z</time>
      </trkpt>
      <trkpt lat="45.58961" lon="5.95191">
        <ele>457</ele>
        <time>2009-06-03T14:03:14Z</time>
      </trkpt>
      <trkpt lat="45.58951" lon="5.95194">
        <ele>447</ele>
        <time>2009-06-03T14:03:18Z</time>
      </trkpt>
      <trkpt lat="45.58941" lon="5.95197">
        <ele>447</ele>
        <time>2009-06-03T14:03:23Z</time>
      </trkpt>
      <trkpt lat="45.58929" lon="5.95196">
        <ele>442</ele>
        <time>2009-06-03T14:03:26Z</time>
      </trkpt>
      <trkpt lat="45.58918" lon="5.95196">
        <ele>442</ele>
        <time>2009-06-03T14:03:29Z</time>
      </trkpt>
      <trkpt lat="45.58906" lon="5.95194">
        <ele>442</ele>
        <time>2009-06-03T14:03:32Z</time>
      </trkpt>
      <trkpt lat="45.58895" lon="5.95195">
        <ele>442</ele>
        <time>2009-06-03T14:03:35Z</time>
      </trkpt>
      <trkpt lat="45.58885" lon="5.95192">
        <ele>442</ele>
        <time>2009-06-03T14:03:38Z</time>
      </trkpt>
      <trkpt lat="45.58876" lon="5.95194">
        <ele>436</ele>
        <time>2009-06-03T14:03:41Z</time>
      </trkpt>
      <trkpt lat="45.58866" lon="5.95199">
        <ele>436</ele>
        <time>2009-06-03T14:03:45Z</time>
      </trkpt>
      <trkpt lat="45.58855" lon="5.952">
        <ele>436</ele>
        <time>2009-06-03T14:03:49Z</time>
      </trkpt>
      <trkpt lat="45.58845" lon="5.952">
        <ele>430</ele>
        <time>2009-06-03T14:03:53Z</time>
      </trkpt>
      <trkpt lat="45.58836" lon="5.952">
        <ele>430</ele>
        <time>2009-06-03T14:03:57Z</time>
      </trkpt>
      <trkpt lat="45.58826" lon="5.95202">
        <ele>430</ele>
        <time>2009-06-03T14:04:01Z</time>
      </trkpt>
      <trkpt lat="45.58815" lon="5.95201">
        <ele>430</ele>
        <time>2009-06-03T14:04:05Z</time>
      </trkpt>
      <trkpt lat="45.58803" lon="5.95201">
        <ele>430</ele>
        <time>2009-06-03T14:04:08Z</time>
      </trkpt>
      <trkpt lat="45.58794" lon="5.95199">
        <ele>430</ele>
        <time>2009-06-03T14:04:11Z</time>
      </trkpt>
      <trkpt lat="45.58784" lon="5.95197">
        <ele>430</ele>
        <time>2009-06-03T14:04:14Z</time>
      </trkpt>
      <trkpt lat="45.58773" lon="5.95195">
        <ele>424</ele>
        <time>2009-06-03T14:04:18Z</time>
      </trkpt>
      <trkpt lat="45.58763" lon="5.95194">
        <ele>424</ele>
        <time>2009-06-03T14:04:22Z</time>
      </trkpt>
      <trkpt lat="45.58754" lon="5.95191">
        <ele>418</ele>
        <time>2009-06-03T14:04:25Z</time>
      </trkpt>
      <trkpt lat="45.58743" lon="5.95185">
        <ele>418</ele>
        <time>2009-06-03T14:04:29Z</time>
      </trkpt>
      <trkpt lat="45.58733" lon="5.95181">
        <ele>412</ele>
        <time>2009-06-03T14:04:32Z</time>
      </trkpt>
      <trkpt lat="45.58724" lon="5.95175">
        <ele>412</ele>
        <time>2009-06-03T14:04:35Z</time>
      </trkpt>
      <trkpt lat="45.58714" lon="5.95172">
        <ele>405</ele>
        <time>2009-06-03T14:04:39Z</time>
      </trkpt>
      <trkpt lat="45.58703" lon="5.95166">
        <ele>405</ele>
        <time>2009-06-03T14:04:43Z</time>
      </trkpt>
      <trkpt lat="45.58693" lon="5.95162">
        <ele>400</ele>
        <time>2009-06-03T14:04:47Z</time>
      </trkpt>
      <trkpt lat="45.58682" lon="5.95158">
        <ele>400</ele>
        <time>2009-06-03T14:04:51Z</time>
      </trkpt>
      <trkpt lat="45.58673" lon="5.95155">
        <ele>392</ele>
        <time>2009-06-03T14:04:55Z</time>
      </trkpt>
      <trkpt lat="45.58662" lon="5.95156">
        <ele>392</ele>
        <time>2009-06-03T14:05:00Z</time>
      </trkpt>
      <trkpt lat="45.58653" lon="5.95158">
        <ele>384</ele>
        <time>2009-06-03T14:05:05Z</time>
      </trkpt>
      <trkpt lat="45.58643" lon="5.95156">
        <ele>384</ele>
        <time>2009-06-03T14:05:09Z</time>
      </trkpt>
      <trkpt lat="45.58634" lon="5.9516">
        <ele>378</ele>
        <time>2009-06-03T14:05:13Z</time>
      </trkpt>
      <trkpt lat="45.58624" lon="5.9516">
        <ele>378</ele>
        <time>2009-06-03T14:05:48Z</time>
      </trkpt>
      <trkpt lat="45.58613" lon="5.9516">
        <ele>378</ele>
        <time>2009-06-03T14:05:53Z</time>
      </trkpt>
      <trkpt lat="45.58612" lon="5.95146">
        <ele>378</ele>
        <time>2009-06-03T14:06:04Z</time>
      </trkpt>
      <trkpt lat="45.58615" lon="5.95131">
        <ele>373</ele>
        <time>2009-06-03T14:06:10Z</time>
      </trkpt>
      <trkpt lat="45.58615" lon="5.95116">
        <ele>373</ele>
        <time>2009-06-03T14:06:15Z</time>
      </trkpt>
      <trkpt lat="45.58613" lon="5.95101">
        <ele>373</ele>
        <time>2009-06-03T14:06:21Z</time>
      </trkpt>
      <trkpt lat="45.58611" lon="5.95087">
        <ele>373</ele>
        <time>2009-06-03T14:06:24Z</time>
      </trkpt>
      <trkpt lat="45.5861" lon="5.95072">
        <ele>373</ele>
        <time>2009-06-03T14:06:27Z</time>
      </trkpt>
      <trkpt lat="45.58616" lon="5.9506">
        <ele>360</ele>
        <time>2009-06-03T14:06:32Z</time>
      </trkpt>
      <trkpt lat="45.58623" lon="5.95047">
        <ele>355</ele>
        <time>2009-06-03T14:06:36Z</time>
      </trkpt>
      <trkpt lat="45.58627" lon="5.95033">
        <ele>355</ele>
        <time>2009-06-03T14:06:40Z</time>
      </trkpt>
      <trkpt lat="45.5862" lon="5.95021">
        <ele>347</ele>
        <time>2009-06-03T14:06:47Z</time>
      </trkpt>
      <trkpt lat="45.58611" lon="5.95016">
        <ele>347</ele>
        <time>2009-06-03T14:06:51Z</time>
      </trkpt>
      <trkpt lat="45.58599" lon="5.95014">
        <ele>337</ele>
        <time>2009-06-03T14:06:56Z</time>
      </trkpt>
      <trkpt lat="45.58587" lon="5.9501">
        <ele>337</ele>
        <time>2009-06-03T14:07:00Z</time>
      </trkpt>
      <trkpt lat="45.58577" lon="5.95009">
        <ele>328</ele>
        <time>2009-06-03T14:07:04Z</time>
      </trkpt>
      <trkpt lat="45.58566" lon="5.9501">
        <ele>328</ele>
        <time>2009-06-03T14:07:07Z</time>
      </trkpt>
      <trkpt lat="45.58556" lon="5.9501">
        <ele>328</ele>
        <time>2009-06-03T14:07:10Z</time>
      </trkpt>
      <trkpt lat="45.58547" lon="5.95006">
        <ele>323</ele>
        <time>2009-06-03T14:07:16Z</time>
      </trkpt>
      <trkpt lat="45.58545" lon="5.94991">
        <ele>323</ele>
        <time>2009-06-03T14:07:20Z</time>
      </trkpt>
      <trkpt lat="45.58544" lon="5.94978">
        <ele>323</ele>
        <time>2009-06-03T14:07:28Z</time>
      </trkpt>
      <trkpt lat="45.58553" lon="5.94982">
        <ele>323</ele>
        <time>2009-06-03T14:08:31Z</time>
      </trkpt>
      <trkpt lat="45.58563" lon="5.94979">
        <ele>316</ele>
        <time>2009-06-03T14:09:40Z</time>
      </trkpt>
      <trkpt lat="45.58553" lon="5.94979">
        <ele>322</ele>
        <time>2009-06-03T14:10:13Z</time>
      </trkpt>
      <trkpt lat="45.58543" lon="5.94979">
        <ele>330</ele>
        <time>2009-06-03T14:10:42Z</time>
      </trkpt>
      <trkpt lat="45.58553" lon="5.94974">
        <ele>325</ele>
        <time>2009-06-03T14:13:06Z</time>
      </trkpt>
      <trkpt lat="45.58543" lon="5.94979">
        <ele>335</ele>
        <time>2009-06-03T14:13:37Z</time>
      </trkpt>
      <trkpt lat="45.58534" lon="5.9498">
        <ele>335</ele>
        <time>2009-06-03T14:13:46Z</time>
      </trkpt>
      <trkpt lat="45.58544" lon="5.94978">
        <ele>329</ele>
        <time>2009-06-03T14:13:54Z</time>
      </trkpt>
      <trkpt lat="45.58553" lon="5.94977">
        <ele>329</ele>
        <time>2009-06-03T14:14:07Z</time>
      </trkpt>
      <trkpt lat="45.58545" lon="5.94982">
        <ele>329</ele>
        <time>2009-06-03T14:14:48Z</time>
      </trkpt>
      <trkpt lat="45.58535" lon="5.94985">
        <ele>329</ele>
        <time>2009-06-03T14:15:32Z</time>
      </trkpt>
      <trkpt lat="45.58545" lon="5.94982">
        <ele>329</ele>
        <time>2009-06-03T14:15:53Z</time>
      </trkpt>
      <trkpt lat="45.58555" lon="5.94978">
        <ele>329</ele>
        <time>2009-06-03T14:17:08Z</time>
      </trkpt>
      <trkpt lat="45.58545" lon="5.94985">
        <ele>322</ele>
        <time>2009-06-03T14:17:17Z</time>
      </trkpt>
      <trkpt lat="45.58534" lon="5.94993">
        <ele>322</ele>
        <time>2009-06-03T14:17:21Z</time>
      </trkpt>
      <trkpt lat="45.58524" lon="5.95002">
        <ele>322</ele>
        <time>2009-06-03T14:17:24Z</time>
      </trkpt>
      <trkpt lat="45.58514" lon="5.95014">
        <ele>322</ele>
        <time>2009-06-03T14:17:27Z</time>
      </trkpt>
      <trkpt lat="45.58506" lon="5.95024">
        <ele>322</ele>
        <time>2009-06-03T14:17:29Z</time>
      </trkpt>
      <trkpt lat="45.585" lon="5.95038">
        <ele>322</ele>
        <time>2009-06-03T14:17:31Z</time>
      </trkpt>
      <trkpt lat="45.58494" lon="5.95051">
        <ele>322</ele>
        <time>2009-06-03T14:17:33Z</time>
      </trkpt>
      <trkpt lat="45.58488" lon="5.95068">
        <ele>316</ele>
        <time>2009-06-03T14:17:36Z</time>
      </trkpt>
      <trkpt lat="45.58485" lon="5.95085">
        <ele>316</ele>
        <time>2009-06-03T14:17:39Z</time>
      </trkpt>
      <trkpt lat="45.58482" lon="5.95102">
        <ele>316</ele>
        <time>2009-06-03T14:17:42Z</time>
      </trkpt>
      <trkpt lat="45.58478" lon="5.95114">
        <ele>316</ele>
        <time>2009-06-03T14:17:44Z</time>
      </trkpt>
      <trkpt lat="45.58471" lon="5.95128">
        <ele>316</ele>
        <time>2009-06-03T14:17:47Z</time>
      </trkpt>
      <trkpt lat="45.58463" lon="5.95138">
        <ele>316</ele>
        <time>2009-06-03T14:17:50Z</time>
      </trkpt>
      <trkpt lat="45.58454" lon="5.95147">
        <ele>316</ele>
        <time>2009-06-03T14:17:53Z</time>
      </trkpt>
      <trkpt lat="45.58445" lon="5.95153">
        <ele>316</ele>
        <time>2009-06-03T14:17:56Z</time>
      </trkpt>
      <trkpt lat="45.58434" lon="5.95153">
        <ele>316</ele>
        <time>2009-06-03T14:18:00Z</time>
      </trkpt>
      <trkpt lat="45.58424" lon="5.95148">
        <ele>316</ele>
        <time>2009-06-03T14:18:02Z</time>
      </trkpt>
      <trkpt lat="45.58412" lon="5.95138">
        <ele>316</ele>
        <time>2009-06-03T14:18:05Z</time>
      </trkpt>
      <trkpt lat="45.58406" lon="5.95128">
        <ele>316</ele>
        <time>2009-06-03T14:18:07Z</time>
      </trkpt>
      <trkpt lat="45.584" lon="5.95115">
        <ele>316</ele>
        <time>2009-06-03T14:18:09Z</time>
      </trkpt>
      <trkpt lat="45.58393" lon="5.95102">
        <ele>316</ele>
        <time>2009-06-03T14:18:11Z</time>
      </trkpt>
      <trkpt lat="45.58386" lon="5.95088">
        <ele>316</ele>
        <time>2009-06-03T14:18:13Z</time>
      </trkpt>
      <trkpt lat="45.58381" lon="5.95075">
        <ele>316</ele>
        <time>2009-06-03T14:18:15Z</time>
      </trkpt>
      <trkpt lat="45.58378" lon="5.95062">
        <ele>316</ele>
        <time>2009-06-03T14:18:18Z</time>
      </trkpt>
      <trkpt lat="45.58372" lon="5.95049">
        <ele>316</ele>
        <time>2009-06-03T14:18:45Z</time>
      </trkpt>
      <trkpt lat="45.58365" lon="5.95035">
        <ele>316</ele>
        <time>2009-06-03T14:18:49Z</time>
      </trkpt>
      <trkpt lat="45.5836" lon="5.95021">
        <ele>316</ele>
        <time>2009-06-03T14:18:52Z</time>
      </trkpt>
      <trkpt lat="45.58353" lon="5.95006">
        <ele>316</ele>
        <time>2009-06-03T14:18:55Z</time>
      </trkpt>
      <trkpt lat="45.58344" lon="5.95">
        <ele>316</ele>
        <time>2009-06-03T14:18:57Z</time>
      </trkpt>
      <trkpt lat="45.58333" lon="5.94996">
        <ele>311</ele>
        <time>2009-06-03T14:18:59Z</time>
      </trkpt>
      <trkpt lat="45.58323" lon="5.94994">
        <ele>311</ele>
        <time>2009-06-03T14:19:01Z</time>
      </trkpt>
      <trkpt lat="45.58311" lon="5.94992">
        <ele>311</ele>
        <time>2009-06-03T14:19:03Z</time>
      </trkpt>
      <trkpt lat="45.58299" lon="5.94989">
        <ele>311</ele>
        <time>2009-06-03T14:19:05Z</time>
      </trkpt>
      <trkpt lat="45.58285" lon="5.94988">
        <ele>311</ele>
        <time>2009-06-03T14:19:07Z</time>
      </trkpt>
      <trkpt lat="45.58272" lon="5.94984">
        <ele>311</ele>
        <time>2009-06-03T14:19:09Z</time>
      </trkpt>
      <trkpt lat="45.58258" lon="5.9498">
        <ele>306</ele>
        <time>2009-06-03T14:19:11Z</time>
      </trkpt>
      <trkpt lat="45.58244" lon="5.94977">
        <ele>306</ele>
        <time>2009-06-03T14:19:13Z</time>
      </trkpt>
      <trkpt lat="45.58232" lon="5.94969">
        <ele>306</ele>
        <time>2009-06-03T14:19:15Z</time>
      </trkpt>
      <trkpt lat="45.58225" lon="5.94952">
        <ele>306</ele>
        <time>2009-06-03T14:19:17Z</time>
      </trkpt>
      <trkpt lat="45.58222" lon="5.94934">
        <ele>306</ele>
        <time>2009-06-03T14:19:19Z</time>
      </trkpt>
      <trkpt lat="45.5822" lon="5.94917">
        <ele>306</ele>
        <time>2009-06-03T14:19:21Z</time>
      </trkpt>
      <trkpt lat="45.58218" lon="5.94899">
        <ele>306</ele>
        <time>2009-06-03T14:19:23Z</time>
      </trkpt>
      <trkpt lat="45.58217" lon="5.94881">
        <ele>306</ele>
        <time>2009-06-03T14:19:25Z</time>
      </trkpt>
      <trkpt lat="45.58215" lon="5.94864">
        <ele>306</ele>
        <time>2009-06-03T14:19:27Z</time>
      </trkpt>
      <trkpt lat="45.58213" lon="5.94848">
        <ele>306</ele>
        <time>2009-06-03T14:19:29Z</time>
      </trkpt>
      <trkpt lat="45.58212" lon="5.94831">
        <ele>306</ele>
        <time>2009-06-03T14:19:31Z</time>
      </trkpt>
      <trkpt lat="45.58211" lon="5.94815">
        <ele>306</ele>
        <time>2009-06-03T14:19:33Z</time>
      </trkpt>
      <trkpt lat="45.58211" lon="5.94799">
        <ele>306</ele>
        <time>2009-06-03T14:19:35Z</time>
      </trkpt>
      <trkpt lat="45.5821" lon="5.94784">
        <ele>306</ele>
        <time>2009-06-03T14:19:37Z</time>
      </trkpt>
      <trkpt lat="45.5821" lon="5.94768">
        <ele>312</ele>
        <time>2009-06-03T14:19:39Z</time>
      </trkpt>
      <trkpt lat="45.5821" lon="5.94754">
        <ele>312</ele>
        <time>2009-06-03T14:19:41Z</time>
      </trkpt>
      <trkpt lat="45.58211" lon="5.94739">
        <ele>312</ele>
        <time>2009-06-03T14:19:43Z</time>
      </trkpt>
      <trkpt lat="45.58211" lon="5.94724">
        <ele>312</ele>
        <time>2009-06-03T14:19:45Z</time>
      </trkpt>
      <trkpt lat="45.58209" lon="5.94705">
        <ele>312</ele>
        <time>2009-06-03T14:19:48Z</time>
      </trkpt>
      <trkpt lat="45.58205" lon="5.94693">
        <ele>312</ele>
        <time>2009-06-03T14:19:50Z</time>
      </trkpt>
      <trkpt lat="45.58201" lon="5.94679">
        <ele>312</ele>
        <time>2009-06-03T14:19:52Z</time>
      </trkpt>
      <trkpt lat="45.58197" lon="5.94666">
        <ele>312</ele>
        <time>2009-06-03T14:19:54Z</time>
      </trkpt>
      <trkpt lat="45.58193" lon="5.94651">
        <ele>312</ele>
        <time>2009-06-03T14:19:56Z</time>
      </trkpt>
      <trkpt lat="45.58188" lon="5.94636">
        <ele>312</ele>
        <time>2009-06-03T14:19:58Z</time>
      </trkpt>
      <trkpt lat="45.58182" lon="5.94621">
        <ele>312</ele>
        <time>2009-06-03T14:20:00Z</time>
      </trkpt>
      <trkpt lat="45.58177" lon="5.94605">
        <ele>312</ele>
        <time>2009-06-03T14:20:02Z</time>
      </trkpt>
      <trkpt lat="45.58171" lon="5.94588">
        <ele>312</ele>
        <time>2009-06-03T14:20:04Z</time>
      </trkpt>
      <trkpt lat="45.58165" lon="5.94572">
        <ele>312</ele>
        <time>2009-06-03T14:20:06Z</time>
      </trkpt>
      <trkpt lat="45.5816" lon="5.94556">
        <ele>312</ele>
        <time>2009-06-03T14:20:08Z</time>
      </trkpt>
      <trkpt lat="45.58153" lon="5.94539">
        <ele>312</ele>
        <time>2009-06-03T14:20:10Z</time>
      </trkpt>
      <trkpt lat="45.58148" lon="5.94523">
        <ele>312</ele>
        <time>2009-06-03T14:20:12Z</time>
      </trkpt>
      <trkpt lat="45.58141" lon="5.94508">
        <ele>312</ele>
        <time>2009-06-03T14:20:14Z</time>
      </trkpt>
      <trkpt lat="45.58136" lon="5.94493">
        <ele>312</ele>
        <time>2009-06-03T14:20:16Z</time>
      </trkpt>
      <trkpt lat="45.58132" lon="5.94478">
        <ele>312</ele>
        <time>2009-06-03T14:20:18Z</time>
      </trkpt>
      <trkpt lat="45.58128" lon="5.94462">
        <ele>312</ele>
        <time>2009-06-03T14:20:20Z</time>
      </trkpt>
      <trkpt lat="45.58126" lon="5.94445">
        <ele>312</ele>
        <time>2009-06-03T14:20:22Z</time>
      </trkpt>
      <trkpt lat="45.58124" lon="5.9443">
        <ele>317</ele>
        <time>2009-06-03T14:20:24Z</time>
      </trkpt>
      <trkpt lat="45.58119" lon="5.94415">
        <ele>317</ele>
        <time>2009-06-03T14:20:26Z</time>
      </trkpt>
      <trkpt lat="45.58114" lon="5.94402">
        <ele>317</ele>
        <time>2009-06-03T14:20:28Z</time>
      </trkpt>
      <trkpt lat="45.58109" lon="5.94387">
        <ele>317</ele>
        <time>2009-06-03T14:20:30Z</time>
      </trkpt>
      <trkpt lat="45.58104" lon="5.94371">
        <ele>317</ele>
        <time>2009-06-03T14:20:32Z</time>
      </trkpt>
      <trkpt lat="45.58099" lon="5.94356">
        <ele>317</ele>
        <time>2009-06-03T14:20:34Z</time>
      </trkpt>
      <trkpt lat="45.58094" lon="5.94339">
        <ele>317</ele>
        <time>2009-06-03T14:20:36Z</time>
      </trkpt>
      <trkpt lat="45.58088" lon="5.94322">
        <ele>317</ele>
        <time>2009-06-03T14:20:38Z</time>
      </trkpt>
      <trkpt lat="45.58083" lon="5.94306">
        <ele>311</ele>
        <time>2009-06-03T14:20:40Z</time>
      </trkpt>
      <trkpt lat="45.58076" lon="5.94292">
        <ele>311</ele>
        <time>2009-06-03T14:20:42Z</time>
      </trkpt>
      <trkpt lat="45.5807" lon="5.94281">
        <ele>311</ele>
        <time>2009-06-03T14:20:44Z</time>
      </trkpt>
      <trkpt lat="45.58063" lon="5.94271">
        <ele>311</ele>
        <time>2009-06-03T14:20:46Z</time>
      </trkpt>
      <trkpt lat="45.58056" lon="5.94255">
        <ele>311</ele>
        <time>2009-06-03T14:20:49Z</time>
      </trkpt>
      <trkpt lat="45.58057" lon="5.94242">
        <ele>311</ele>
        <time>2009-06-03T14:20:52Z</time>
      </trkpt>
      <trkpt lat="45.58056" lon="5.94228">
        <ele>311</ele>
        <time>2009-06-03T14:20:56Z</time>
      </trkpt>
      <trkpt lat="45.58049" lon="5.94218">
        <ele>311</ele>
        <time>2009-06-03T14:20:59Z</time>
      </trkpt>
      <trkpt lat="45.58038" lon="5.94206">
        <ele>311</ele>
        <time>2009-06-03T14:21:02Z</time>
      </trkpt>
      <trkpt lat="45.58028" lon="5.94197">
        <ele>311</ele>
        <time>2009-06-03T14:21:04Z</time>
      </trkpt>
      <trkpt lat="45.58018" lon="5.94187">
        <ele>311</ele>
        <time>2009-06-03T14:21:06Z</time>
      </trkpt>
      <trkpt lat="45.58006" lon="5.94176">
        <ele>311</ele>
        <time>2009-06-03T14:21:08Z</time>
      </trkpt>
      <trkpt lat="45.57994" lon="5.94166">
        <ele>305</ele>
        <time>2009-06-03T14:21:10Z</time>
      </trkpt>
      <trkpt lat="45.57981" lon="5.94154">
        <ele>305</ele>
        <time>2009-06-03T14:21:12Z</time>
      </trkpt>
      <trkpt lat="45.57969" lon="5.94141">
        <ele>305</ele>
        <time>2009-06-03T14:21:14Z</time>
      </trkpt>
      <trkpt lat="45.57957" lon="5.94125">
        <ele>305</ele>
        <time>2009-06-03T14:21:16Z</time>
      </trkpt>
      <trkpt lat="45.57948" lon="5.94106">
        <ele>305</ele>
        <time>2009-06-03T14:21:18Z</time>
      </trkpt>
      <trkpt lat="45.57938" lon="5.94087">
        <ele>305</ele>
        <time>2009-06-03T14:21:20Z</time>
      </trkpt>
      <trkpt lat="45.57928" lon="5.9407">
        <ele>299</ele>
        <time>2009-06-03T14:21:22Z</time>
      </trkpt>
      <trkpt lat="45.57919" lon="5.94054">
        <ele>299</ele>
        <time>2009-06-03T14:21:24Z</time>
      </trkpt>
      <trkpt lat="45.57909" lon="5.94039">
        <ele>299</ele>
        <time>2009-06-03T14:21:26Z</time>
      </trkpt>
      <trkpt lat="45.57898" lon="5.94025">
        <ele>299</ele>
        <time>2009-06-03T14:21:28Z</time>
      </trkpt>
      <trkpt lat="45.57887" lon="5.94012">
        <ele>299</ele>
        <time>2009-06-03T14:21:30Z</time>
      </trkpt>
      <trkpt lat="45.57877" lon="5.93998">
        <ele>299</ele>
        <time>2009-06-03T14:21:32Z</time>
      </trkpt>
      <trkpt lat="45.57865" lon="5.93985">
        <ele>299</ele>
        <time>2009-06-03T14:21:34Z</time>
      </trkpt>
      <trkpt lat="45.57852" lon="5.93977">
        <ele>299</ele>
        <time>2009-06-03T14:21:36Z</time>
      </trkpt>
      <trkpt lat="45.57837" lon="5.93974">
        <ele>299</ele>
        <time>2009-06-03T14:21:38Z</time>
      </trkpt>
      <trkpt lat="45.57822" lon="5.93974">
        <ele>299</ele>
        <time>2009-06-03T14:21:40Z</time>
      </trkpt>
      <trkpt lat="45.57806" lon="5.93975">
        <ele>294</ele>
        <time>2009-06-03T14:21:42Z</time>
      </trkpt>
      <trkpt lat="45.57791" lon="5.93977">
        <ele>294</ele>
        <time>2009-06-03T14:21:44Z</time>
      </trkpt>
      <trkpt lat="45.57774" lon="5.93979">
        <ele>294</ele>
        <time>2009-06-03T14:21:46Z</time>
      </trkpt>
      <trkpt lat="45.57759" lon="5.9398">
        <ele>294</ele>
        <time>2009-06-03T14:21:48Z</time>
      </trkpt>
      <trkpt lat="45.57742" lon="5.9398">
        <ele>294</ele>
        <time>2009-06-03T14:21:50Z</time>
      </trkpt>
      <trkpt lat="45.57725" lon="5.9398">
        <ele>294</ele>
        <time>2009-06-03T14:21:52Z</time>
      </trkpt>
      <trkpt lat="45.57709" lon="5.9398">
        <ele>294</ele>
        <time>2009-06-03T14:21:54Z</time>
      </trkpt>
      <trkpt lat="45.57693" lon="5.93977">
        <ele>294</ele>
        <time>2009-06-03T14:21:56Z</time>
      </trkpt>
      <trkpt lat="45.57678" lon="5.93971">
        <ele>294</ele>
        <time>2009-06-03T14:21:58Z</time>
      </trkpt>
      <trkpt lat="45.57665" lon="5.9396">
        <ele>294</ele>
        <time>2009-06-03T14:22:00Z</time>
      </trkpt>
      <trkpt lat="45.57652" lon="5.93946">
        <ele>294</ele>
        <time>2009-06-03T14:22:02Z</time>
      </trkpt>
      <trkpt lat="45.57639" lon="5.93936">
        <ele>294</ele>
        <time>2009-06-03T14:22:04Z</time>
      </trkpt>
      <trkpt lat="45.57627" lon="5.93926">
        <ele>294</ele>
        <time>2009-06-03T14:22:06Z</time>
      </trkpt>
      <trkpt lat="45.57616" lon="5.93912">
        <ele>294</ele>
        <time>2009-06-03T14:22:08Z</time>
      </trkpt>
      <trkpt lat="45.57606" lon="5.93898">
        <ele>294</ele>
        <time>2009-06-03T14:22:10Z</time>
      </trkpt>
      <trkpt lat="45.57595" lon="5.93885">
        <ele>294</ele>
        <time>2009-06-03T14:22:12Z</time>
      </trkpt>
      <trkpt lat="45.57584" lon="5.93873">
        <ele>289</ele>
        <time>2009-06-03T14:22:14Z</time>
      </trkpt>
      <trkpt lat="45.57572" lon="5.93862">
        <ele>289</ele>
        <time>2009-06-03T14:22:16Z</time>
      </trkpt>
      <trkpt lat="45.57561" lon="5.93851">
        <ele>289</ele>
        <time>2009-06-03T14:22:18Z</time>
      </trkpt>
      <trkpt lat="45.5755" lon="5.93839">
        <ele>289</ele>
        <time>2009-06-03T14:22:20Z</time>
      </trkpt>
      <trkpt lat="45.57539" lon="5.93828">
        <ele>289</ele>
        <time>2009-06-03T14:22:22Z</time>
      </trkpt>
      <trkpt lat="45.57528" lon="5.93816">
        <ele>289</ele>
        <time>2009-06-03T14:22:24Z</time>
      </trkpt>
      <trkpt lat="45.57517" lon="5.93805">
        <ele>289</ele>
        <time>2009-06-03T14:22:26Z</time>
      </trkpt>
      <trkpt lat="45.57506" lon="5.93794">
        <ele>289</ele>
        <time>2009-06-03T14:22:28Z</time>
      </trkpt>
      <trkpt lat="45.57495" lon="5.93783">
        <ele>289</ele>
        <time>2009-06-03T14:22:30Z</time>
      </trkpt>
      <trkpt lat="45.57485" lon="5.93773">
        <ele>289</ele>
        <time>2009-06-03T14:22:32Z</time>
      </trkpt>
      <trkpt lat="45.57473" lon="5.93762">
        <ele>289</ele>
        <time>2009-06-03T14:22:34Z</time>
      </trkpt>
      <trkpt lat="45.57463" lon="5.93752">
        <ele>289</ele>
        <time>2009-06-03T14:22:36Z</time>
      </trkpt>
      <trkpt lat="45.57453" lon="5.93742">
        <ele>289</ele>
        <time>2009-06-03T14:22:38Z</time>
      </trkpt>
      <trkpt lat="45.57442" lon="5.93729">
        <ele>289</ele>
        <time>2009-06-03T14:22:40Z</time>
      </trkpt>
      <trkpt lat="45.57435" lon="5.93713">
        <ele>289</ele>
        <time>2009-06-03T14:22:42Z</time>
      </trkpt>
      <trkpt lat="45.57429" lon="5.93697">
        <ele>289</ele>
        <time>2009-06-03T14:22:44Z</time>
      </trkpt>
      <trkpt lat="45.5742" lon="5.93685">
        <ele>289</ele>
        <time>2009-06-03T14:22:46Z</time>
      </trkpt>
      <trkpt lat="45.5741" lon="5.93685">
        <ele>289</ele>
        <time>2009-06-03T14:22:48Z</time>
      </trkpt>
      <trkpt lat="45.574" lon="5.93695">
        <ele>289</ele>
        <time>2009-06-03T14:22:50Z</time>
      </trkpt>
      <trkpt lat="45.57397" lon="5.93711">
        <ele>289</ele>
        <time>2009-06-03T14:22:52Z</time>
      </trkpt>
      <trkpt lat="45.57401" lon="5.93727">
        <ele>289</ele>
        <time>2009-06-03T14:22:54Z</time>
      </trkpt>
      <trkpt lat="45.57407" lon="5.93743">
        <ele>289</ele>
        <time>2009-06-03T14:22:56Z</time>
      </trkpt>
      <trkpt lat="45.5741" lon="5.9376">
        <ele>289</ele>
        <time>2009-06-03T14:22:58Z</time>
      </trkpt>
      <trkpt lat="45.57405" lon="5.93777">
        <ele>289</ele>
        <time>2009-06-03T14:23:00Z</time>
      </trkpt>
      <trkpt lat="45.57398" lon="5.93792">
        <ele>289</ele>
        <time>2009-06-03T14:23:02Z</time>
      </trkpt>
      <trkpt lat="45.5739" lon="5.93807">
        <ele>289</ele>
        <time>2009-06-03T14:23:04Z</time>
      </trkpt>
      <trkpt lat="45.5738" lon="5.9382">
        <ele>289</ele>
        <time>2009-06-03T14:23:06Z</time>
      </trkpt>
      <trkpt lat="45.5737" lon="5.93831">
        <ele>289</ele>
        <time>2009-06-03T14:23:08Z</time>
      </trkpt>
      <trkpt lat="45.57359" lon="5.93844">
        <ele>289</ele>
        <time>2009-06-03T14:23:10Z</time>
      </trkpt>
      <trkpt lat="45.57349" lon="5.93857">
        <ele>289</ele>
        <time>2009-06-03T14:23:12Z</time>
      </trkpt>
      <trkpt lat="45.57339" lon="5.9387">
        <ele>289</ele>
        <time>2009-06-03T14:23:14Z</time>
      </trkpt>
      <trkpt lat="45.57328" lon="5.93883">
        <ele>289</ele>
        <time>2009-06-03T14:23:16Z</time>
      </trkpt>
      <trkpt lat="45.57317" lon="5.93897">
        <ele>289</ele>
        <time>2009-06-03T14:23:18Z</time>
      </trkpt>
      <trkpt lat="45.57306" lon="5.9391">
        <ele>289</ele>
        <time>2009-06-03T14:23:20Z</time>
      </trkpt>
      <trkpt lat="45.57296" lon="5.93924">
        <ele>289</ele>
        <time>2009-06-03T14:23:22Z</time>
      </trkpt>
      <trkpt lat="45.57287" lon="5.93938">
        <ele>289</ele>
        <time>2009-06-03T14:23:24Z</time>
      </trkpt>
      <trkpt lat="45.57282" lon="5.93956">
        <ele>289</ele>
        <time>2009-06-03T14:23:26Z</time>
      </trkpt>
      <trkpt lat="45.57275" lon="5.93973">
        <ele>289</ele>
        <time>2009-06-03T14:23:28Z</time>
      </trkpt>
      <trkpt lat="45.57266" lon="5.93987">
        <ele>289</ele>
        <time>2009-06-03T14:23:30Z</time>
      </trkpt>
      <trkpt lat="45.57258" lon="5.93999">
        <ele>289</ele>
        <time>2009-06-03T14:23:32Z</time>
      </trkpt>
      <trkpt lat="45.57248" lon="5.94012">
        <ele>289</ele>
        <time>2009-06-03T14:23:34Z</time>
      </trkpt>
      <trkpt lat="45.57238" lon="5.94024">
        <ele>289</ele>
        <time>2009-06-03T14:23:36Z</time>
      </trkpt>
      <trkpt lat="45.57229" lon="5.94035">
        <ele>289</ele>
        <time>2009-06-03T14:23:38Z</time>
      </trkpt>
      <trkpt lat="45.57219" lon="5.94045">
        <ele>289</ele>
        <time>2009-06-03T14:23:40Z</time>
      </trkpt>
      <trkpt lat="45.57209" lon="5.94055">
        <ele>289</ele>
        <time>2009-06-03T14:23:42Z</time>
      </trkpt>
      <trkpt lat="45.572" lon="5.94065">
        <ele>289</ele>
        <time>2009-06-03T14:23:44Z</time>
      </trkpt>
      <trkpt lat="45.57189" lon="5.94074">
        <ele>289</ele>
        <time>2009-06-03T14:23:46Z</time>
      </trkpt>
      <trkpt lat="45.57178" lon="5.94083">
        <ele>289</ele>
        <time>2009-06-03T14:23:48Z</time>
      </trkpt>
      <trkpt lat="45.57167" lon="5.94089">
        <ele>289</ele>
        <time>2009-06-03T14:23:50Z</time>
      </trkpt>
      <trkpt lat="45.57157" lon="5.94094">
        <ele>289</ele>
        <time>2009-06-03T14:23:52Z</time>
      </trkpt>
      <trkpt lat="45.57146" lon="5.94089">
        <ele>289</ele>
        <time>2009-06-03T14:23:54Z</time>
      </trkpt>
      <trkpt lat="45.5714" lon="5.94075">
        <ele>289</ele>
        <time>2009-06-03T14:23:56Z</time>
      </trkpt>
      <trkpt lat="45.57136" lon="5.94059">
        <ele>289</ele>
        <time>2009-06-03T14:23:58Z</time>
      </trkpt>
      <trkpt lat="45.57131" lon="5.94042">
        <ele>289</ele>
        <time>2009-06-03T14:24:00Z</time>
      </trkpt>
      <trkpt lat="45.57127" lon="5.94027">
        <ele>289</ele>
        <time>2009-06-03T14:24:02Z</time>
      </trkpt>
      <trkpt lat="45.57122" lon="5.94011">
        <ele>294</ele>
        <time>2009-06-03T14:24:04Z</time>
      </trkpt>
      <trkpt lat="45.57117" lon="5.93995">
        <ele>294</ele>
        <time>2009-06-03T14:24:06Z</time>
      </trkpt>
      <trkpt lat="45.57111" lon="5.9398">
        <ele>294</ele>
        <time>2009-06-03T14:24:08Z</time>
      </trkpt>
      <trkpt lat="45.57104" lon="5.93963">
        <ele>294</ele>
        <time>2009-06-03T14:24:10Z</time>
      </trkpt>
      <trkpt lat="45.57099" lon="5.93948">
        <ele>294</ele>
        <time>2009-06-03T14:24:12Z</time>
      </trkpt>
      <trkpt lat="45.57094" lon="5.93932">
        <ele>300</ele>
        <time>2009-06-03T14:24:14Z</time>
      </trkpt>
      <trkpt lat="45.57089" lon="5.93915">
        <ele>300</ele>
        <time>2009-06-03T14:24:16Z</time>
      </trkpt>
      <trkpt lat="45.57085" lon="5.93897">
        <ele>300</ele>
        <time>2009-06-03T14:24:18Z</time>
      </trkpt>
      <trkpt lat="45.57079" lon="5.93878">
        <ele>300</ele>
        <time>2009-06-03T14:24:20Z</time>
      </trkpt>
      <trkpt lat="45.57073" lon="5.93857">
        <ele>300</ele>
        <time>2009-06-03T14:24:22Z</time>
      </trkpt>
      <trkpt lat="45.57067" lon="5.93836">
        <ele>300</ele>
        <time>2009-06-03T14:24:24Z</time>
      </trkpt>
      <trkpt lat="45.57056" lon="5.93823">
        <ele>300</ele>
        <time>2009-06-03T14:24:27Z</time>
      </trkpt>
      <trkpt lat="45.57043" lon="5.93823">
        <ele>300</ele>
        <time>2009-06-03T14:24:28Z</time>
      </trkpt>
      <trkpt lat="45.57034" lon="5.93814">
        <ele>300</ele>
        <time>2009-06-03T14:24:29Z</time>
      </trkpt>
      <trkpt lat="45.57033" lon="5.93798">
        <ele>300</ele>
        <time>2009-06-03T14:24:30Z</time>
      </trkpt>
      <trkpt lat="45.57033" lon="5.93778">
        <ele>300</ele>
        <time>2009-06-03T14:24:31Z</time>
      </trkpt>
      <trkpt lat="45.57031" lon="5.93765">
        <ele>305</ele>
        <time>2009-06-03T14:24:32Z</time>
      </trkpt>
      <trkpt lat="45.5703" lon="5.93748">
        <ele>305</ele>
        <time>2009-06-03T14:24:33Z</time>
      </trkpt>
      <trkpt lat="45.57031" lon="5.93732">
        <ele>305</ele>
        <time>2009-06-03T14:24:34Z</time>
      </trkpt>
      <trkpt lat="45.57027" lon="5.93711">
        <ele>305</ele>
        <time>2009-06-03T14:24:36Z</time>
      </trkpt>
      <trkpt lat="45.57024" lon="5.93688">
        <ele>305</ele>
        <time>2009-06-03T14:24:38Z</time>
      </trkpt>
      <trkpt lat="45.57021" lon="5.93665">
        <ele>305</ele>
        <time>2009-06-03T14:24:40Z</time>
      </trkpt>
      <trkpt lat="45.57017" lon="5.93648">
        <ele>305</ele>
        <time>2009-06-03T14:24:42Z</time>
      </trkpt>
      <trkpt lat="45.57011" lon="5.93631">
        <ele>305</ele>
        <time>2009-06-03T14:24:44Z</time>
      </trkpt>
      <trkpt lat="45.5701" lon="5.93612">
        <ele>305</ele>
        <time>2009-06-03T14:24:46Z</time>
      </trkpt>
      <trkpt lat="45.57007" lon="5.93594">
        <ele>299</ele>
        <time>2009-06-03T14:24:48Z</time>
      </trkpt>
      <trkpt lat="45.57005" lon="5.93574">
        <ele>299</ele>
        <time>2009-06-03T14:24:50Z</time>
      </trkpt>
      <trkpt lat="45.57007" lon="5.93556">
        <ele>299</ele>
        <time>2009-06-03T14:24:52Z</time>
      </trkpt>
      <trkpt lat="45.57008" lon="5.9354">
        <ele>299</ele>
        <time>2009-06-03T14:24:54Z</time>
      </trkpt>
      <trkpt lat="45.57006" lon="5.93527">
        <ele>294</ele>
        <time>2009-06-03T14:24:56Z</time>
      </trkpt>
      <trkpt lat="45.56999" lon="5.93517">
        <ele>294</ele>
        <time>2009-06-03T14:24:58Z</time>
      </trkpt>
      <trkpt lat="45.56993" lon="5.93503">
        <ele>294</ele>
        <time>2009-06-03T14:25:00Z</time>
      </trkpt>
      <trkpt lat="45.56986" lon="5.93493">
        <ele>294</ele>
        <time>2009-06-03T14:25:02Z</time>
      </trkpt>
      <trkpt lat="45.56983" lon="5.93479">
        <ele>294</ele>
        <time>2009-06-03T14:25:05Z</time>
      </trkpt>
      <trkpt lat="45.56979" lon="5.93462">
        <ele>294</ele>
        <time>2009-06-03T14:25:08Z</time>
      </trkpt>
      <trkpt lat="45.56977" lon="5.93444">
        <ele>294</ele>
        <time>2009-06-03T14:25:11Z</time>
      </trkpt>
      <trkpt lat="45.56972" lon="5.93427">
        <ele>294</ele>
        <time>2009-06-03T14:25:14Z</time>
      </trkpt>
      <trkpt lat="45.56966" lon="5.93414">
        <ele>294</ele>
        <time>2009-06-03T14:25:17Z</time>
      </trkpt>
      <trkpt lat="45.56963" lon="5.93401">
        <ele>294</ele>
        <time>2009-06-03T14:25:19Z</time>
      </trkpt>
      <trkpt lat="45.56956" lon="5.93384">
        <ele>301</ele>
        <time>2009-06-03T14:25:22Z</time>
      </trkpt>
      <trkpt lat="45.56951" lon="5.93367">
        <ele>301</ele>
        <time>2009-06-03T14:25:25Z</time>
      </trkpt>
      <trkpt lat="45.56946" lon="5.93349">
        <ele>301</ele>
        <time>2009-06-03T14:25:28Z</time>
      </trkpt>
      <trkpt lat="45.56939" lon="5.93336">
        <ele>301</ele>
        <time>2009-06-03T14:25:30Z</time>
      </trkpt>
      <trkpt lat="45.56931" lon="5.93327">
        <ele>301</ele>
        <time>2009-06-03T14:25:32Z</time>
      </trkpt>
      <trkpt lat="45.56921" lon="5.93324">
        <ele>301</ele>
        <time>2009-06-03T14:25:35Z</time>
      </trkpt>
      <trkpt lat="45.56913" lon="5.93329">
        <ele>301</ele>
        <time>2009-06-03T14:25:38Z</time>
      </trkpt>
      <trkpt lat="45.56901" lon="5.93336">
        <ele>295</ele>
        <time>2009-06-03T14:25:41Z</time>
      </trkpt>
      <trkpt lat="45.5689" lon="5.93342">
        <ele>295</ele>
        <time>2009-06-03T14:25:43Z</time>
      </trkpt>
      <trkpt lat="45.5688" lon="5.93346">
        <ele>295</ele>
        <time>2009-06-03T14:25:45Z</time>
      </trkpt>
      <trkpt lat="45.5687" lon="5.9335">
        <ele>295</ele>
        <time>2009-06-03T14:25:47Z</time>
      </trkpt>
      <trkpt lat="45.56859" lon="5.93353">
        <ele>295</ele>
        <time>2009-06-03T14:25:49Z</time>
      </trkpt>
      <trkpt lat="45.56848" lon="5.93357">
        <ele>289</ele>
        <time>2009-06-03T14:25:51Z</time>
      </trkpt>
      <trkpt lat="45.56838" lon="5.93362">
        <ele>289</ele>
        <time>2009-06-03T14:25:53Z</time>
      </trkpt>
      <trkpt lat="45.56826" lon="5.93365">
        <ele>289</ele>
        <time>2009-06-03T14:25:55Z</time>
      </trkpt>
      <trkpt lat="45.56813" lon="5.93364">
        <ele>289</ele>
        <time>2009-06-03T14:25:57Z</time>
      </trkpt>
      <trkpt lat="45.56801" lon="5.93358">
        <ele>289</ele>
        <time>2009-06-03T14:25:59Z</time>
      </trkpt>
      <trkpt lat="45.56792" lon="5.93354">
        <ele>289</ele>
        <time>2009-06-03T14:26:01Z</time>
      </trkpt>
      <trkpt lat="45.56783" lon="5.93354">
        <ele>289</ele>
        <time>2009-06-03T14:26:04Z</time>
      </trkpt>
      <trkpt lat="45.56773" lon="5.93354">
        <ele>289</ele>
        <time>2009-06-03T14:26:07Z</time>
      </trkpt>
      <trkpt lat="45.56762" lon="5.9336">
        <ele>289</ele>
        <time>2009-06-03T14:26:11Z</time>
      </trkpt>
      <trkpt lat="45.56753" lon="5.93368">
        <ele>289</ele>
        <time>2009-06-03T14:26:14Z</time>
      </trkpt>
      <trkpt lat="45.5674" lon="5.93375">
        <ele>289</ele>
        <time>2009-06-03T14:26:17Z</time>
      </trkpt>
      <trkpt lat="45.56729" lon="5.93376">
        <ele>289</ele>
        <time>2009-06-03T14:26:19Z</time>
      </trkpt>
      <trkpt lat="45.56719" lon="5.93377">
        <ele>289</ele>
        <time>2009-06-03T14:26:21Z</time>
      </trkpt>
      <trkpt lat="45.5671" lon="5.93378">
        <ele>289</ele>
        <time>2009-06-03T14:26:23Z</time>
      </trkpt>
      <trkpt lat="45.56701" lon="5.9338">
        <ele>289</ele>
        <time>2009-06-03T14:26:25Z</time>
      </trkpt>
      <trkpt lat="45.56687" lon="5.93382">
        <ele>289</ele>
        <time>2009-06-03T14:26:28Z</time>
      </trkpt>
      <trkpt lat="45.56675" lon="5.93387">
        <ele>289</ele>
        <time>2009-06-03T14:26:31Z</time>
      </trkpt>
      <trkpt lat="45.56665" lon="5.93389">
        <ele>289</ele>
        <time>2009-06-03T14:26:34Z</time>
      </trkpt>
      <trkpt lat="45.56653" lon="5.93395">
        <ele>295</ele>
        <time>2009-06-03T14:26:37Z</time>
      </trkpt>
      <trkpt lat="45.56643" lon="5.93406">
        <ele>295</ele>
        <time>2009-06-03T14:26:40Z</time>
      </trkpt>
      <trkpt lat="45.56639" lon="5.93422">
        <ele>295</ele>
        <time>2009-06-03T14:26:44Z</time>
      </trkpt>
    </trkseg>
  </trk>
</gpx>